<?xml version="1.0" encoding="UTF-8" standalone="no" ?>
<gpx xmlns="http://www.topografix.com/GPX/1/1" xmlns:xsi="http://www.w3.org/2001/XMLSchema-instance" xsi:schemaLocation="http://www.topografix.com/GPX/1/1 http://www.topografix.com/GPX/1/1/gpx.xsd" version="1.1" creator="VisuGPX - https://www.visugpx.com">
  <metadata>
    <name>Le chemin Urbain V</name>
    <desc><![CDATA[Sixième étape du "Chemin Urbain V%u201D de Ispagnac à Florac.
Relevé "terrain" avec le logiciel "IphiGeNie" sur un iPad mini.
Pour en savoir plus (photos, commentaires, liens divers) voir notre site :
http://www.la-marche-au-long-cours.fr/crbst_120.html]]></desc>
  </metadata>
  <trk>
    <name><![CDATA[29 avr. 2016 08:23:47]]></name>
    <cmt><![CDATA[29 avr. 2016 08:23:47]]></cmt>
    <trkseg>
      <trkpt lat="44.37152" lon="3.53321">
        <ele>521</ele>
        <time>2016-04-29T06:23:51Z</time>
      </trkpt>
      <trkpt lat="44.37137" lon="3.53334">
        <ele>519</ele>
        <time>2016-04-29T06:23:53Z</time>
      </trkpt>
      <trkpt lat="44.37148" lon="3.5334">
        <ele>519</ele>
        <time>2016-04-29T06:23:54Z</time>
      </trkpt>
      <trkpt lat="44.37154" lon="3.53349">
        <ele>520</ele>
        <time>2016-04-29T06:28:28Z</time>
      </trkpt>
      <trkpt lat="44.37165" lon="3.53364">
        <ele>520</ele>
        <time>2016-04-29T06:28:54Z</time>
      </trkpt>
      <trkpt lat="44.37173" lon="3.53355">
        <ele>520</ele>
        <time>2016-04-29T06:28:59Z</time>
      </trkpt>
      <trkpt lat="44.37176" lon="3.53344">
        <ele>520</ele>
        <time>2016-04-29T06:29:08Z</time>
      </trkpt>
      <trkpt lat="44.3718" lon="3.53341">
        <ele>520</ele>
        <time>2016-04-29T06:29:15Z</time>
      </trkpt>
      <trkpt lat="44.37188" lon="3.53348">
        <ele>521</ele>
        <time>2016-04-29T06:29:32Z</time>
      </trkpt>
      <trkpt lat="44.37196" lon="3.53342">
        <ele>521</ele>
        <time>2016-04-29T06:29:40Z</time>
      </trkpt>
      <trkpt lat="44.372" lon="3.53335">
        <ele>521</ele>
        <time>2016-04-29T06:29:46Z</time>
      </trkpt>
      <trkpt lat="44.37199" lon="3.53328">
        <ele>521</ele>
        <time>2016-04-29T06:29:54Z</time>
      </trkpt>
      <trkpt lat="44.37202" lon="3.53315">
        <ele>519</ele>
        <time>2016-04-29T06:30:06Z</time>
      </trkpt>
      <trkpt lat="44.37203" lon="3.53309">
        <ele>519</ele>
        <time>2016-04-29T06:30:11Z</time>
      </trkpt>
      <trkpt lat="44.37215" lon="3.53284">
        <ele>517</ele>
        <time>2016-04-29T06:30:32Z</time>
      </trkpt>
      <trkpt lat="44.37216" lon="3.53277">
        <ele>517</ele>
        <time>2016-04-29T06:30:37Z</time>
      </trkpt>
      <trkpt lat="44.37214" lon="3.5327">
        <ele>516</ele>
        <time>2016-04-29T06:30:42Z</time>
      </trkpt>
      <trkpt lat="44.37204" lon="3.53253">
        <ele>515</ele>
        <time>2016-04-29T06:30:58Z</time>
      </trkpt>
      <trkpt lat="44.37204" lon="3.53246">
        <ele>514</ele>
        <time>2016-04-29T06:31:03Z</time>
      </trkpt>
      <trkpt lat="44.37205" lon="3.53225">
        <ele>513</ele>
        <time>2016-04-29T06:31:16Z</time>
      </trkpt>
      <trkpt lat="44.37206" lon="3.53218">
        <ele>513</ele>
        <time>2016-04-29T06:31:20Z</time>
      </trkpt>
      <trkpt lat="44.37206" lon="3.53211">
        <ele>513</ele>
        <time>2016-04-29T06:31:24Z</time>
      </trkpt>
      <trkpt lat="44.37207" lon="3.53205">
        <ele>512</ele>
        <time>2016-04-29T06:31:28Z</time>
      </trkpt>
      <trkpt lat="44.37204" lon="3.53177">
        <ele>511</ele>
        <time>2016-04-29T06:31:46Z</time>
      </trkpt>
      <trkpt lat="44.37203" lon="3.53122">
        <ele>512</ele>
        <time>2016-04-29T06:32:18Z</time>
      </trkpt>
      <trkpt lat="44.37206" lon="3.53109">
        <ele>512</ele>
        <time>2016-04-29T06:32:26Z</time>
      </trkpt>
      <trkpt lat="44.37211" lon="3.53091">
        <ele>509</ele>
        <time>2016-04-29T06:32:38Z</time>
      </trkpt>
      <trkpt lat="44.37211" lon="3.53078">
        <ele>508</ele>
        <time>2016-04-29T06:32:46Z</time>
      </trkpt>
      <trkpt lat="44.37213" lon="3.53071">
        <ele>508</ele>
        <time>2016-04-29T06:32:51Z</time>
      </trkpt>
      <trkpt lat="44.37215" lon="3.53064">
        <ele>508</ele>
        <time>2016-04-29T06:32:56Z</time>
      </trkpt>
      <trkpt lat="44.37219" lon="3.53051">
        <ele>509</ele>
        <time>2016-04-29T06:33:04Z</time>
      </trkpt>
      <trkpt lat="44.37222" lon="3.53038">
        <ele>509</ele>
        <time>2016-04-29T06:33:12Z</time>
      </trkpt>
      <trkpt lat="44.37221" lon="3.53031">
        <ele>509</ele>
        <time>2016-04-29T06:33:18Z</time>
      </trkpt>
      <trkpt lat="44.37228" lon="3.53013">
        <ele>508</ele>
        <time>2016-04-29T06:33:32Z</time>
      </trkpt>
      <trkpt lat="44.37232" lon="3.52984">
        <ele>509</ele>
        <time>2016-04-29T06:33:48Z</time>
      </trkpt>
      <trkpt lat="44.37233" lon="3.52972">
        <ele>508</ele>
        <time>2016-04-29T06:33:56Z</time>
      </trkpt>
      <trkpt lat="44.37235" lon="3.52965">
        <ele>508</ele>
        <time>2016-04-29T06:34:00Z</time>
      </trkpt>
      <trkpt lat="44.37238" lon="3.52959">
        <ele>509</ele>
        <time>2016-04-29T06:34:05Z</time>
      </trkpt>
      <trkpt lat="44.3724" lon="3.52943">
        <ele>510</ele>
        <time>2016-04-29T06:34:25Z</time>
      </trkpt>
      <trkpt lat="44.37243" lon="3.52929">
        <ele>510</ele>
        <time>2016-04-29T06:34:33Z</time>
      </trkpt>
      <trkpt lat="44.37248" lon="3.52908">
        <ele>511</ele>
        <time>2016-04-29T06:34:46Z</time>
      </trkpt>
      <trkpt lat="44.37251" lon="3.52902">
        <ele>511</ele>
        <time>2016-04-29T06:34:50Z</time>
      </trkpt>
      <trkpt lat="44.37254" lon="3.52869">
        <ele>509</ele>
        <time>2016-04-29T06:35:11Z</time>
      </trkpt>
      <trkpt lat="44.37248" lon="3.52851">
        <ele>507</ele>
        <time>2016-04-29T06:35:23Z</time>
      </trkpt>
      <trkpt lat="44.37244" lon="3.52845">
        <ele>508</ele>
        <time>2016-04-29T06:35:27Z</time>
      </trkpt>
      <trkpt lat="44.37231" lon="3.52799">
        <ele>507</ele>
        <time>2016-04-29T06:35:55Z</time>
      </trkpt>
      <trkpt lat="44.37233" lon="3.52792">
        <ele>507</ele>
        <time>2016-04-29T06:35:59Z</time>
      </trkpt>
      <trkpt lat="44.37234" lon="3.52785">
        <ele>507</ele>
        <time>2016-04-29T06:36:03Z</time>
      </trkpt>
      <trkpt lat="44.37236" lon="3.52779">
        <ele>506</ele>
        <time>2016-04-29T06:36:07Z</time>
      </trkpt>
      <trkpt lat="44.37243" lon="3.52769">
        <ele>505</ele>
        <time>2016-04-29T06:36:18Z</time>
      </trkpt>
      <trkpt lat="44.37246" lon="3.52756">
        <ele>503</ele>
        <time>2016-04-29T06:36:31Z</time>
      </trkpt>
      <trkpt lat="44.37248" lon="3.52756">
        <ele>504</ele>
        <time>2016-04-29T06:36:55Z</time>
      </trkpt>
      <trkpt lat="44.37253" lon="3.52752">
        <ele>504</ele>
        <time>2016-04-29T06:37:04Z</time>
      </trkpt>
      <trkpt lat="44.37261" lon="3.52742">
        <ele>503</ele>
        <time>2016-04-29T06:37:15Z</time>
      </trkpt>
      <trkpt lat="44.37266" lon="3.5274">
        <ele>503</ele>
        <time>2016-04-29T06:37:20Z</time>
      </trkpt>
      <trkpt lat="44.3727" lon="3.52735">
        <ele>503</ele>
        <time>2016-04-29T06:37:26Z</time>
      </trkpt>
      <trkpt lat="44.37275" lon="3.52733">
        <ele>503</ele>
        <time>2016-04-29T06:37:31Z</time>
      </trkpt>
      <trkpt lat="44.37287" lon="3.52722">
        <ele>505</ele>
        <time>2016-04-29T06:37:46Z</time>
      </trkpt>
      <trkpt lat="44.37291" lon="3.52717">
        <ele>505</ele>
        <time>2016-04-29T06:37:50Z</time>
      </trkpt>
      <trkpt lat="44.37301" lon="3.52713">
        <ele>505</ele>
        <time>2016-04-29T06:38:00Z</time>
      </trkpt>
      <trkpt lat="44.37312" lon="3.527">
        <ele>506</ele>
        <time>2016-04-29T06:38:12Z</time>
      </trkpt>
      <trkpt lat="44.3732" lon="3.5269">
        <ele>505</ele>
        <time>2016-04-29T06:38:22Z</time>
      </trkpt>
      <trkpt lat="44.37323" lon="3.52685">
        <ele>506</ele>
        <time>2016-04-29T06:38:27Z</time>
      </trkpt>
      <trkpt lat="44.37353" lon="3.5266">
        <ele>504</ele>
        <time>2016-04-29T06:38:54Z</time>
      </trkpt>
      <trkpt lat="44.37354" lon="3.52662">
        <ele>504</ele>
        <time>2016-04-29T06:39:06Z</time>
      </trkpt>
      <trkpt lat="44.37357" lon="3.52657">
        <ele>506</ele>
        <time>2016-04-29T06:39:36Z</time>
      </trkpt>
      <trkpt lat="44.37377" lon="3.52624">
        <ele>505</ele>
        <time>2016-04-29T06:40:04Z</time>
      </trkpt>
      <trkpt lat="44.37376" lon="3.52621">
        <ele>504</ele>
        <time>2016-04-29T06:40:11Z</time>
      </trkpt>
      <trkpt lat="44.3738" lon="3.52619">
        <ele>503</ele>
        <time>2016-04-29T06:40:17Z</time>
      </trkpt>
      <trkpt lat="44.37393" lon="3.5261">
        <ele>503</ele>
        <time>2016-04-29T06:40:32Z</time>
      </trkpt>
      <trkpt lat="44.37403" lon="3.52594">
        <ele>503</ele>
        <time>2016-04-29T06:40:48Z</time>
      </trkpt>
      <trkpt lat="44.37409" lon="3.52576">
        <ele>503</ele>
        <time>2016-04-29T06:41:10Z</time>
      </trkpt>
      <trkpt lat="44.37407" lon="3.5257">
        <ele>502</ele>
        <time>2016-04-29T06:41:19Z</time>
      </trkpt>
      <trkpt lat="44.37403" lon="3.52558">
        <ele>502</ele>
        <time>2016-04-29T06:41:31Z</time>
      </trkpt>
      <trkpt lat="44.37397" lon="3.52547">
        <ele>503</ele>
        <time>2016-04-29T06:41:42Z</time>
      </trkpt>
      <trkpt lat="44.37394" lon="3.52541">
        <ele>502</ele>
        <time>2016-04-29T06:41:48Z</time>
      </trkpt>
      <trkpt lat="44.37387" lon="3.52524">
        <ele>504</ele>
        <time>2016-04-29T06:42:03Z</time>
      </trkpt>
      <trkpt lat="44.3738" lon="3.52504">
        <ele>508</ele>
        <time>2016-04-29T06:42:18Z</time>
      </trkpt>
      <trkpt lat="44.37375" lon="3.52491">
        <ele>508</ele>
        <time>2016-04-29T06:42:28Z</time>
      </trkpt>
      <trkpt lat="44.37369" lon="3.52477">
        <ele>509</ele>
        <time>2016-04-29T06:42:38Z</time>
      </trkpt>
      <trkpt lat="44.37367" lon="3.52471">
        <ele>509</ele>
        <time>2016-04-29T06:42:43Z</time>
      </trkpt>
      <trkpt lat="44.37364" lon="3.52464">
        <ele>508</ele>
        <time>2016-04-29T06:42:48Z</time>
      </trkpt>
      <trkpt lat="44.37361" lon="3.52459">
        <ele>508</ele>
        <time>2016-04-29T06:42:52Z</time>
      </trkpt>
      <trkpt lat="44.3735" lon="3.52447">
        <ele>509</ele>
        <time>2016-04-29T06:43:04Z</time>
      </trkpt>
      <trkpt lat="44.37347" lon="3.52442">
        <ele>509</ele>
        <time>2016-04-29T06:43:08Z</time>
      </trkpt>
      <trkpt lat="44.37339" lon="3.52434">
        <ele>509</ele>
        <time>2016-04-29T06:43:16Z</time>
      </trkpt>
      <trkpt lat="44.37336" lon="3.5243">
        <ele>510</ele>
        <time>2016-04-29T06:43:21Z</time>
      </trkpt>
      <trkpt lat="44.37328" lon="3.52421">
        <ele>510</ele>
        <time>2016-04-29T06:43:36Z</time>
      </trkpt>
      <trkpt lat="44.37325" lon="3.52425">
        <ele>510</ele>
        <time>2016-04-29T06:43:52Z</time>
      </trkpt>
      <trkpt lat="44.3732" lon="3.52438">
        <ele>510</ele>
        <time>2016-04-29T06:44:04Z</time>
      </trkpt>
      <trkpt lat="44.37325" lon="3.52437">
        <ele>510</ele>
        <time>2016-04-29T06:44:11Z</time>
      </trkpt>
      <trkpt lat="44.37326" lon="3.52444">
        <ele>509</ele>
        <time>2016-04-29T06:44:19Z</time>
      </trkpt>
      <trkpt lat="44.37325" lon="3.52451">
        <ele>509</ele>
        <time>2016-04-29T06:44:26Z</time>
      </trkpt>
      <trkpt lat="44.37322" lon="3.52453">
        <ele>508</ele>
        <time>2016-04-29T06:44:46Z</time>
      </trkpt>
      <trkpt lat="44.37319" lon="3.52456">
        <ele>508</ele>
        <time>2016-04-29T06:46:33Z</time>
      </trkpt>
      <trkpt lat="44.37319" lon="3.52446">
        <ele>508</ele>
        <time>2016-04-29T06:46:45Z</time>
      </trkpt>
      <trkpt lat="44.37318" lon="3.52439">
        <ele>509</ele>
        <time>2016-04-29T06:46:51Z</time>
      </trkpt>
      <trkpt lat="44.37319" lon="3.52433">
        <ele>509</ele>
        <time>2016-04-29T06:47:36Z</time>
      </trkpt>
      <trkpt lat="44.37322" lon="3.52428">
        <ele>510</ele>
        <time>2016-04-29T06:47:42Z</time>
      </trkpt>
      <trkpt lat="44.37321" lon="3.52422">
        <ele>509</ele>
        <time>2016-04-29T06:47:48Z</time>
      </trkpt>
      <trkpt lat="44.37318" lon="3.52415">
        <ele>510</ele>
        <time>2016-04-29T06:47:53Z</time>
      </trkpt>
      <trkpt lat="44.37315" lon="3.52395">
        <ele>509</ele>
        <time>2016-04-29T06:48:11Z</time>
      </trkpt>
      <trkpt lat="44.37316" lon="3.52388">
        <ele>508</ele>
        <time>2016-04-29T06:48:17Z</time>
      </trkpt>
      <trkpt lat="44.37315" lon="3.52381">
        <ele>508</ele>
        <time>2016-04-29T06:48:22Z</time>
      </trkpt>
      <trkpt lat="44.37314" lon="3.52368">
        <ele>508</ele>
        <time>2016-04-29T06:48:32Z</time>
      </trkpt>
      <trkpt lat="44.37314" lon="3.52372">
        <ele>509</ele>
        <time>2016-04-29T06:49:00Z</time>
      </trkpt>
      <trkpt lat="44.37313" lon="3.524">
        <ele>509</ele>
        <time>2016-04-29T06:49:20Z</time>
      </trkpt>
      <trkpt lat="44.37308" lon="3.52403">
        <ele>510</ele>
        <time>2016-04-29T06:49:26Z</time>
      </trkpt>
      <trkpt lat="44.37303" lon="3.52401">
        <ele>510</ele>
        <time>2016-04-29T06:49:31Z</time>
      </trkpt>
      <trkpt lat="44.37295" lon="3.52404">
        <ele>511</ele>
        <time>2016-04-29T06:49:45Z</time>
      </trkpt>
      <trkpt lat="44.3729" lon="3.52401">
        <ele>511</ele>
        <time>2016-04-29T06:49:50Z</time>
      </trkpt>
      <trkpt lat="44.37281" lon="3.52403">
        <ele>511</ele>
        <time>2016-04-29T06:50:00Z</time>
      </trkpt>
      <trkpt lat="44.3727" lon="3.52406">
        <ele>512</ele>
        <time>2016-04-29T06:50:10Z</time>
      </trkpt>
      <trkpt lat="44.37267" lon="3.5241">
        <ele>512</ele>
        <time>2016-04-29T06:50:15Z</time>
      </trkpt>
      <trkpt lat="44.37242" lon="3.52422">
        <ele>510</ele>
        <time>2016-04-29T06:50:47Z</time>
      </trkpt>
      <trkpt lat="44.37232" lon="3.52425">
        <ele>509</ele>
        <time>2016-04-29T06:50:55Z</time>
      </trkpt>
      <trkpt lat="44.37202" lon="3.52431">
        <ele>511</ele>
        <time>2016-04-29T06:51:25Z</time>
      </trkpt>
      <trkpt lat="44.37196" lon="3.52432">
        <ele>510</ele>
        <time>2016-04-29T06:51:30Z</time>
      </trkpt>
      <trkpt lat="44.37182" lon="3.52441">
        <ele>510</ele>
        <time>2016-04-29T06:51:42Z</time>
      </trkpt>
      <trkpt lat="44.37176" lon="3.52443">
        <ele>510</ele>
        <time>2016-04-29T06:51:46Z</time>
      </trkpt>
      <trkpt lat="44.37153" lon="3.52458">
        <ele>509</ele>
        <time>2016-04-29T06:52:06Z</time>
      </trkpt>
      <trkpt lat="44.37131" lon="3.52463">
        <ele>511</ele>
        <time>2016-04-29T06:52:26Z</time>
      </trkpt>
      <trkpt lat="44.37117" lon="3.52467">
        <ele>511</ele>
        <time>2016-04-29T06:52:38Z</time>
      </trkpt>
      <trkpt lat="44.37113" lon="3.52467">
        <ele>511</ele>
        <time>2016-04-29T06:52:42Z</time>
      </trkpt>
      <trkpt lat="44.37108" lon="3.52467">
        <ele>511</ele>
        <time>2016-04-29T06:52:46Z</time>
      </trkpt>
      <trkpt lat="44.37103" lon="3.52467">
        <ele>511</ele>
        <time>2016-04-29T06:52:50Z</time>
      </trkpt>
      <trkpt lat="44.3707" lon="3.52472">
        <ele>512</ele>
        <time>2016-04-29T06:53:20Z</time>
      </trkpt>
      <trkpt lat="44.37065" lon="3.52473">
        <ele>513</ele>
        <time>2016-04-29T06:53:24Z</time>
      </trkpt>
      <trkpt lat="44.37055" lon="3.52479">
        <ele>512</ele>
        <time>2016-04-29T06:53:32Z</time>
      </trkpt>
      <trkpt lat="44.37045" lon="3.52482">
        <ele>511</ele>
        <time>2016-04-29T06:53:40Z</time>
      </trkpt>
      <trkpt lat="44.3704" lon="3.52484">
        <ele>511</ele>
        <time>2016-04-29T06:53:44Z</time>
      </trkpt>
      <trkpt lat="44.37035" lon="3.52485">
        <ele>511</ele>
        <time>2016-04-29T06:53:49Z</time>
      </trkpt>
      <trkpt lat="44.3703" lon="3.52485">
        <ele>511</ele>
        <time>2016-04-29T06:53:53Z</time>
      </trkpt>
      <trkpt lat="44.37015" lon="3.52488">
        <ele>510</ele>
        <time>2016-04-29T06:54:06Z</time>
      </trkpt>
      <trkpt lat="44.3701" lon="3.52491">
        <ele>509</ele>
        <time>2016-04-29T06:54:10Z</time>
      </trkpt>
      <trkpt lat="44.37001" lon="3.52494">
        <ele>510</ele>
        <time>2016-04-29T06:54:16Z</time>
      </trkpt>
      <trkpt lat="44.3699" lon="3.52495">
        <ele>510</ele>
        <time>2016-04-29T06:54:23Z</time>
      </trkpt>
      <trkpt lat="44.36972" lon="3.52495">
        <ele>510</ele>
        <time>2016-04-29T06:54:39Z</time>
      </trkpt>
      <trkpt lat="44.36967" lon="3.52495">
        <ele>511</ele>
        <time>2016-04-29T06:54:44Z</time>
      </trkpt>
      <trkpt lat="44.36962" lon="3.52496">
        <ele>511</ele>
        <time>2016-04-29T06:54:49Z</time>
      </trkpt>
      <trkpt lat="44.36958" lon="3.52498">
        <ele>510</ele>
        <time>2016-04-29T06:54:56Z</time>
      </trkpt>
      <trkpt lat="44.36948" lon="3.525">
        <ele>509</ele>
        <time>2016-04-29T06:55:05Z</time>
      </trkpt>
      <trkpt lat="44.36942" lon="3.52501">
        <ele>509</ele>
        <time>2016-04-29T06:55:09Z</time>
      </trkpt>
      <trkpt lat="44.36938" lon="3.52502">
        <ele>509</ele>
        <time>2016-04-29T06:55:12Z</time>
      </trkpt>
      <trkpt lat="44.36932" lon="3.52503">
        <ele>509</ele>
        <time>2016-04-29T06:55:16Z</time>
      </trkpt>
      <trkpt lat="44.36917" lon="3.52503">
        <ele>511</ele>
        <time>2016-04-29T06:55:29Z</time>
      </trkpt>
      <trkpt lat="44.36913" lon="3.52503">
        <ele>511</ele>
        <time>2016-04-29T06:55:33Z</time>
      </trkpt>
      <trkpt lat="44.36908" lon="3.52504">
        <ele>511</ele>
        <time>2016-04-29T06:55:37Z</time>
      </trkpt>
      <trkpt lat="44.36902" lon="3.52505">
        <ele>510</ele>
        <time>2016-04-29T06:55:41Z</time>
      </trkpt>
      <trkpt lat="44.36897" lon="3.52505">
        <ele>510</ele>
        <time>2016-04-29T06:55:45Z</time>
      </trkpt>
      <trkpt lat="44.36892" lon="3.52506">
        <ele>511</ele>
        <time>2016-04-29T06:55:50Z</time>
      </trkpt>
      <trkpt lat="44.36877" lon="3.52507">
        <ele>512</ele>
        <time>2016-04-29T06:56:03Z</time>
      </trkpt>
      <trkpt lat="44.36872" lon="3.52506">
        <ele>513</ele>
        <time>2016-04-29T06:56:08Z</time>
      </trkpt>
      <trkpt lat="44.36868" lon="3.52502">
        <ele>513</ele>
        <time>2016-04-29T06:56:15Z</time>
      </trkpt>
      <trkpt lat="44.36867" lon="3.52495">
        <ele>511</ele>
        <time>2016-04-29T06:56:21Z</time>
      </trkpt>
      <trkpt lat="44.36862" lon="3.52492">
        <ele>511</ele>
        <time>2016-04-29T06:56:29Z</time>
      </trkpt>
      <trkpt lat="44.36859" lon="3.52492">
        <ele>508</ele>
        <time>2016-04-29T06:57:00Z</time>
      </trkpt>
      <trkpt lat="44.3686" lon="3.52486">
        <ele>508</ele>
        <time>2016-04-29T06:57:04Z</time>
      </trkpt>
      <trkpt lat="44.3686" lon="3.52479">
        <ele>508</ele>
        <time>2016-04-29T06:57:14Z</time>
      </trkpt>
      <trkpt lat="44.3686" lon="3.52464">
        <ele>507</ele>
        <time>2016-04-29T06:57:30Z</time>
      </trkpt>
      <trkpt lat="44.36859" lon="3.52457">
        <ele>508</ele>
        <time>2016-04-29T06:57:35Z</time>
      </trkpt>
      <trkpt lat="44.36856" lon="3.52453">
        <ele>508</ele>
        <time>2016-04-29T06:57:40Z</time>
      </trkpt>
      <trkpt lat="44.36851" lon="3.52445">
        <ele>506</ele>
        <time>2016-04-29T06:57:51Z</time>
      </trkpt>
      <trkpt lat="44.36854" lon="3.52446">
        <ele>506</ele>
        <time>2016-04-29T06:58:04Z</time>
      </trkpt>
      <trkpt lat="44.36857" lon="3.52442">
        <ele>506</ele>
        <time>2016-04-29T06:58:09Z</time>
      </trkpt>
      <trkpt lat="44.36861" lon="3.52437">
        <ele>505</ele>
        <time>2016-04-29T06:58:14Z</time>
      </trkpt>
      <trkpt lat="44.36866" lon="3.52434">
        <ele>505</ele>
        <time>2016-04-29T06:58:19Z</time>
      </trkpt>
      <trkpt lat="44.36876" lon="3.52431">
        <ele>506</ele>
        <time>2016-04-29T06:58:29Z</time>
      </trkpt>
      <trkpt lat="44.36886" lon="3.52436">
        <ele>505</ele>
        <time>2016-04-29T06:58:39Z</time>
      </trkpt>
      <trkpt lat="44.3689" lon="3.52439">
        <ele>506</ele>
        <time>2016-04-29T06:58:45Z</time>
      </trkpt>
      <trkpt lat="44.3689" lon="3.52445">
        <ele>506</ele>
        <time>2016-04-29T06:58:51Z</time>
      </trkpt>
      <trkpt lat="44.36891" lon="3.52452">
        <ele>507</ele>
        <time>2016-04-29T06:58:56Z</time>
      </trkpt>
      <trkpt lat="44.36892" lon="3.52459">
        <ele>507</ele>
        <time>2016-04-29T06:59:02Z</time>
      </trkpt>
      <trkpt lat="44.36892" lon="3.52466">
        <ele>506</ele>
        <time>2016-04-29T06:59:08Z</time>
      </trkpt>
      <trkpt lat="44.36889" lon="3.52472">
        <ele>506</ele>
        <time>2016-04-29T06:59:13Z</time>
      </trkpt>
      <trkpt lat="44.36884" lon="3.52476">
        <ele>507</ele>
        <time>2016-04-29T06:59:18Z</time>
      </trkpt>
      <trkpt lat="44.3688" lon="3.52477">
        <ele>509</ele>
        <time>2016-04-29T06:59:23Z</time>
      </trkpt>
      <trkpt lat="44.36878" lon="3.5248">
        <ele>510</ele>
        <time>2016-04-29T06:59:41Z</time>
      </trkpt>
      <trkpt lat="44.36873" lon="3.52479">
        <ele>511</ele>
        <time>2016-04-29T07:00:39Z</time>
      </trkpt>
      <trkpt lat="44.36868" lon="3.52479">
        <ele>512</ele>
        <time>2016-04-29T07:00:45Z</time>
      </trkpt>
      <trkpt lat="44.36863" lon="3.5248">
        <ele>512</ele>
        <time>2016-04-29T07:00:52Z</time>
      </trkpt>
      <trkpt lat="44.3686" lon="3.5248">
        <ele>512</ele>
        <time>2016-04-29T07:00:58Z</time>
      </trkpt>
      <trkpt lat="44.36861" lon="3.52486">
        <ele>511</ele>
        <time>2016-04-29T07:01:06Z</time>
      </trkpt>
      <trkpt lat="44.3686" lon="3.52493">
        <ele>511</ele>
        <time>2016-04-29T07:01:12Z</time>
      </trkpt>
      <trkpt lat="44.36856" lon="3.52505">
        <ele>509</ele>
        <time>2016-04-29T07:01:21Z</time>
      </trkpt>
      <trkpt lat="44.36851" lon="3.52507">
        <ele>509</ele>
        <time>2016-04-29T07:01:25Z</time>
      </trkpt>
      <trkpt lat="44.36845" lon="3.52508">
        <ele>509</ele>
        <time>2016-04-29T07:01:29Z</time>
      </trkpt>
      <trkpt lat="44.36839" lon="3.52508">
        <ele>509</ele>
        <time>2016-04-29T07:01:33Z</time>
      </trkpt>
      <trkpt lat="44.36834" lon="3.5251">
        <ele>509</ele>
        <time>2016-04-29T07:01:37Z</time>
      </trkpt>
      <trkpt lat="44.36822" lon="3.52519">
        <ele>512</ele>
        <time>2016-04-29T07:01:54Z</time>
      </trkpt>
      <trkpt lat="44.36817" lon="3.5252">
        <ele>513</ele>
        <time>2016-04-29T07:02:00Z</time>
      </trkpt>
      <trkpt lat="44.36814" lon="3.52517">
        <ele>514</ele>
        <time>2016-04-29T07:02:12Z</time>
      </trkpt>
      <trkpt lat="44.3681" lon="3.52519">
        <ele>513</ele>
        <time>2016-04-29T07:02:17Z</time>
      </trkpt>
      <trkpt lat="44.36804" lon="3.5252">
        <ele>513</ele>
        <time>2016-04-29T07:02:23Z</time>
      </trkpt>
      <trkpt lat="44.36799" lon="3.52521">
        <ele>514</ele>
        <time>2016-04-29T07:02:28Z</time>
      </trkpt>
      <trkpt lat="44.36794" lon="3.52521">
        <ele>514</ele>
        <time>2016-04-29T07:02:32Z</time>
      </trkpt>
      <trkpt lat="44.36789" lon="3.52521">
        <ele>513</ele>
        <time>2016-04-29T07:02:36Z</time>
      </trkpt>
      <trkpt lat="44.36785" lon="3.52526">
        <ele>513</ele>
        <time>2016-04-29T07:02:40Z</time>
      </trkpt>
      <trkpt lat="44.36781" lon="3.5253">
        <ele>512</ele>
        <time>2016-04-29T07:02:45Z</time>
      </trkpt>
      <trkpt lat="44.36778" lon="3.52535">
        <ele>512</ele>
        <time>2016-04-29T07:02:50Z</time>
      </trkpt>
      <trkpt lat="44.36774" lon="3.52538">
        <ele>513</ele>
        <time>2016-04-29T07:02:56Z</time>
      </trkpt>
      <trkpt lat="44.36775" lon="3.52541">
        <ele>513</ele>
        <time>2016-04-29T07:03:13Z</time>
      </trkpt>
      <trkpt lat="44.3677" lon="3.52542">
        <ele>514</ele>
        <time>2016-04-29T07:03:21Z</time>
      </trkpt>
      <trkpt lat="44.36756" lon="3.5256">
        <ele>515</ele>
        <time>2016-04-29T07:03:53Z</time>
      </trkpt>
      <trkpt lat="44.36742" lon="3.52576">
        <ele>519</ele>
        <time>2016-04-29T07:04:21Z</time>
      </trkpt>
      <trkpt lat="44.36738" lon="3.52581">
        <ele>519</ele>
        <time>2016-04-29T07:04:31Z</time>
      </trkpt>
      <trkpt lat="44.36716" lon="3.52595">
        <ele>527</ele>
        <time>2016-04-29T07:05:10Z</time>
      </trkpt>
      <trkpt lat="44.36711" lon="3.52597">
        <ele>528</ele>
        <time>2016-04-29T07:05:18Z</time>
      </trkpt>
      <trkpt lat="44.36707" lon="3.526">
        <ele>528</ele>
        <time>2016-04-29T07:05:27Z</time>
      </trkpt>
      <trkpt lat="44.36701" lon="3.52603">
        <ele>527</ele>
        <time>2016-04-29T07:05:42Z</time>
      </trkpt>
      <trkpt lat="44.36697" lon="3.52605">
        <ele>527</ele>
        <time>2016-04-29T07:05:48Z</time>
      </trkpt>
      <trkpt lat="44.36688" lon="3.5261">
        <ele>525</ele>
        <time>2016-04-29T07:06:01Z</time>
      </trkpt>
      <trkpt lat="44.36671" lon="3.52623">
        <ele>531</ele>
        <time>2016-04-29T07:06:26Z</time>
      </trkpt>
      <trkpt lat="44.36666" lon="3.52642">
        <ele>532</ele>
        <time>2016-04-29T07:06:47Z</time>
      </trkpt>
      <trkpt lat="44.36661" lon="3.5266">
        <ele>537</ele>
        <time>2016-04-29T07:07:08Z</time>
      </trkpt>
      <trkpt lat="44.36662" lon="3.52666">
        <ele>538</ele>
        <time>2016-04-29T07:07:17Z</time>
      </trkpt>
      <trkpt lat="44.36663" lon="3.52673">
        <ele>540</ele>
        <time>2016-04-29T07:07:26Z</time>
      </trkpt>
      <trkpt lat="44.36661" lon="3.52679">
        <ele>540</ele>
        <time>2016-04-29T07:07:33Z</time>
      </trkpt>
      <trkpt lat="44.36658" lon="3.52684">
        <ele>542</ele>
        <time>2016-04-29T07:07:43Z</time>
      </trkpt>
      <trkpt lat="44.36653" lon="3.52686">
        <ele>542</ele>
        <time>2016-04-29T07:07:50Z</time>
      </trkpt>
      <trkpt lat="44.36648" lon="3.52684">
        <ele>544</ele>
        <time>2016-04-29T07:07:57Z</time>
      </trkpt>
      <trkpt lat="44.36645" lon="3.52678">
        <ele>544</ele>
        <time>2016-04-29T07:08:03Z</time>
      </trkpt>
      <trkpt lat="44.36642" lon="3.52673">
        <ele>543</ele>
        <time>2016-04-29T07:08:08Z</time>
      </trkpt>
      <trkpt lat="44.36638" lon="3.52669">
        <ele>543</ele>
        <time>2016-04-29T07:08:13Z</time>
      </trkpt>
      <trkpt lat="44.3663" lon="3.52661">
        <ele>541</ele>
        <time>2016-04-29T07:08:23Z</time>
      </trkpt>
      <trkpt lat="44.36625" lon="3.5265">
        <ele>541</ele>
        <time>2016-04-29T07:08:33Z</time>
      </trkpt>
      <trkpt lat="44.36618" lon="3.52641">
        <ele>542</ele>
        <time>2016-04-29T07:08:43Z</time>
      </trkpt>
      <trkpt lat="44.36614" lon="3.52637">
        <ele>543</ele>
        <time>2016-04-29T07:08:49Z</time>
      </trkpt>
      <trkpt lat="44.36609" lon="3.52634">
        <ele>543</ele>
        <time>2016-04-29T07:08:55Z</time>
      </trkpt>
      <trkpt lat="44.36605" lon="3.52631">
        <ele>543</ele>
        <time>2016-04-29T07:09:01Z</time>
      </trkpt>
      <trkpt lat="44.36593" lon="3.52629">
        <ele>543</ele>
        <time>2016-04-29T07:09:17Z</time>
      </trkpt>
      <trkpt lat="44.36595" lon="3.5263">
        <ele>543</ele>
        <time>2016-04-29T07:09:23Z</time>
      </trkpt>
      <trkpt lat="44.36598" lon="3.5263">
        <ele>543</ele>
        <time>2016-04-29T07:09:30Z</time>
      </trkpt>
      <trkpt lat="44.36604" lon="3.52633">
        <ele>543</ele>
        <time>2016-04-29T07:09:44Z</time>
      </trkpt>
      <trkpt lat="44.36603" lon="3.52634">
        <ele>546</ele>
        <time>2016-04-29T07:11:39Z</time>
      </trkpt>
      <trkpt lat="44.36597" lon="3.52635">
        <ele>548</ele>
        <time>2016-04-29T07:14:14Z</time>
      </trkpt>
      <trkpt lat="44.36599" lon="3.52643">
        <ele>552</ele>
        <time>2016-04-29T07:14:33Z</time>
      </trkpt>
      <trkpt lat="44.36601" lon="3.52649">
        <ele>554</ele>
        <time>2016-04-29T07:14:40Z</time>
      </trkpt>
      <trkpt lat="44.366" lon="3.52655">
        <ele>555</ele>
        <time>2016-04-29T07:14:49Z</time>
      </trkpt>
      <trkpt lat="44.36603" lon="3.52662">
        <ele>555</ele>
        <time>2016-04-29T07:15:01Z</time>
      </trkpt>
      <trkpt lat="44.36612" lon="3.52678">
        <ele>554</ele>
        <time>2016-04-29T07:15:19Z</time>
      </trkpt>
      <trkpt lat="44.36618" lon="3.52682">
        <ele>553</ele>
        <time>2016-04-29T07:15:33Z</time>
      </trkpt>
      <trkpt lat="44.36617" lon="3.5268">
        <ele>554</ele>
        <time>2016-04-29T07:15:56Z</time>
      </trkpt>
      <trkpt lat="44.36613" lon="3.52676">
        <ele>554</ele>
        <time>2016-04-29T07:16:03Z</time>
      </trkpt>
      <trkpt lat="44.36609" lon="3.52672">
        <ele>555</ele>
        <time>2016-04-29T07:16:10Z</time>
      </trkpt>
      <trkpt lat="44.36606" lon="3.52667">
        <ele>554</ele>
        <time>2016-04-29T07:16:16Z</time>
      </trkpt>
      <trkpt lat="44.36601" lon="3.52655">
        <ele>554</ele>
        <time>2016-04-29T07:16:28Z</time>
      </trkpt>
      <trkpt lat="44.366" lon="3.52651">
        <ele>553</ele>
        <time>2016-04-29T07:16:37Z</time>
      </trkpt>
      <trkpt lat="44.36601" lon="3.52645">
        <ele>552</ele>
        <time>2016-04-29T07:16:46Z</time>
      </trkpt>
      <trkpt lat="44.36598" lon="3.52632">
        <ele>549</ele>
        <time>2016-04-29T07:17:02Z</time>
      </trkpt>
      <trkpt lat="44.36594" lon="3.52629">
        <ele>550</ele>
        <time>2016-04-29T07:17:10Z</time>
      </trkpt>
      <trkpt lat="44.3659" lon="3.52631">
        <ele>550</ele>
        <time>2016-04-29T07:17:19Z</time>
      </trkpt>
      <trkpt lat="44.36591" lon="3.52636">
        <ele>551</ele>
        <time>2016-04-29T07:17:36Z</time>
      </trkpt>
      <trkpt lat="44.36591" lon="3.52643">
        <ele>552</ele>
        <time>2016-04-29T07:17:45Z</time>
      </trkpt>
      <trkpt lat="44.36591" lon="3.52648">
        <ele>552</ele>
        <time>2016-04-29T07:17:56Z</time>
      </trkpt>
      <trkpt lat="44.36591" lon="3.52667">
        <ele>557</ele>
        <time>2016-04-29T07:18:23Z</time>
      </trkpt>
      <trkpt lat="44.36593" lon="3.52673">
        <ele>558</ele>
        <time>2016-04-29T07:18:32Z</time>
      </trkpt>
      <trkpt lat="44.36598" lon="3.52687">
        <ele>559</ele>
        <time>2016-04-29T07:18:53Z</time>
      </trkpt>
      <trkpt lat="44.366" lon="3.52693">
        <ele>559</ele>
        <time>2016-04-29T07:19:00Z</time>
      </trkpt>
      <trkpt lat="44.36605" lon="3.52705">
        <ele>557</ele>
        <time>2016-04-29T07:19:17Z</time>
      </trkpt>
      <trkpt lat="44.36608" lon="3.52711">
        <ele>557</ele>
        <time>2016-04-29T07:19:24Z</time>
      </trkpt>
      <trkpt lat="44.3661" lon="3.52733">
        <ele>562</ele>
        <time>2016-04-29T07:20:00Z</time>
      </trkpt>
      <trkpt lat="44.36609" lon="3.5275">
        <ele>566</ele>
        <time>2016-04-29T07:20:33Z</time>
      </trkpt>
      <trkpt lat="44.36611" lon="3.52756">
        <ele>566</ele>
        <time>2016-04-29T07:20:41Z</time>
      </trkpt>
      <trkpt lat="44.36611" lon="3.52763">
        <ele>566</ele>
        <time>2016-04-29T07:20:47Z</time>
      </trkpt>
      <trkpt lat="44.3661" lon="3.52776">
        <ele>569</ele>
        <time>2016-04-29T07:21:05Z</time>
      </trkpt>
      <trkpt lat="44.36612" lon="3.52781">
        <ele>571</ele>
        <time>2016-04-29T07:21:15Z</time>
      </trkpt>
      <trkpt lat="44.36614" lon="3.5281">
        <ele>575</ele>
        <time>2016-04-29T07:21:46Z</time>
      </trkpt>
      <trkpt lat="44.36614" lon="3.52818">
        <ele>576</ele>
        <time>2016-04-29T07:21:51Z</time>
      </trkpt>
      <trkpt lat="44.36616" lon="3.52839">
        <ele>577</ele>
        <time>2016-04-29T07:22:07Z</time>
      </trkpt>
      <trkpt lat="44.36615" lon="3.52845">
        <ele>577</ele>
        <time>2016-04-29T07:22:12Z</time>
      </trkpt>
      <trkpt lat="44.36616" lon="3.52852">
        <ele>578</ele>
        <time>2016-04-29T07:22:17Z</time>
      </trkpt>
      <trkpt lat="44.36618" lon="3.52858">
        <ele>579</ele>
        <time>2016-04-29T07:22:22Z</time>
      </trkpt>
      <trkpt lat="44.36619" lon="3.52871">
        <ele>580</ele>
        <time>2016-04-29T07:22:33Z</time>
      </trkpt>
      <trkpt lat="44.36621" lon="3.52878">
        <ele>579</ele>
        <time>2016-04-29T07:22:38Z</time>
      </trkpt>
      <trkpt lat="44.3662" lon="3.52885">
        <ele>579</ele>
        <time>2016-04-29T07:22:44Z</time>
      </trkpt>
      <trkpt lat="44.3662" lon="3.52891">
        <ele>579</ele>
        <time>2016-04-29T07:22:50Z</time>
      </trkpt>
      <trkpt lat="44.36621" lon="3.52926">
        <ele>582</ele>
        <time>2016-04-29T07:23:21Z</time>
      </trkpt>
      <trkpt lat="44.36621" lon="3.52932">
        <ele>582</ele>
        <time>2016-04-29T07:23:27Z</time>
      </trkpt>
      <trkpt lat="44.36624" lon="3.52945">
        <ele>583</ele>
        <time>2016-04-29T07:23:39Z</time>
      </trkpt>
      <trkpt lat="44.36626" lon="3.52951">
        <ele>584</ele>
        <time>2016-04-29T07:23:44Z</time>
      </trkpt>
      <trkpt lat="44.3663" lon="3.52955">
        <ele>584</ele>
        <time>2016-04-29T07:23:50Z</time>
      </trkpt>
      <trkpt lat="44.3664" lon="3.52957">
        <ele>584</ele>
        <time>2016-04-29T07:23:59Z</time>
      </trkpt>
      <trkpt lat="44.3665" lon="3.5296">
        <ele>585</ele>
        <time>2016-04-29T07:24:09Z</time>
      </trkpt>
      <trkpt lat="44.36655" lon="3.52961">
        <ele>585</ele>
        <time>2016-04-29T07:24:14Z</time>
      </trkpt>
      <trkpt lat="44.3666" lon="3.52963">
        <ele>586</ele>
        <time>2016-04-29T07:24:20Z</time>
      </trkpt>
      <trkpt lat="44.36665" lon="3.52964">
        <ele>586</ele>
        <time>2016-04-29T07:24:25Z</time>
      </trkpt>
      <trkpt lat="44.36675" lon="3.52967">
        <ele>585</ele>
        <time>2016-04-29T07:24:36Z</time>
      </trkpt>
      <trkpt lat="44.36677" lon="3.52968">
        <ele>586</ele>
        <time>2016-04-29T07:24:44Z</time>
      </trkpt>
      <trkpt lat="44.36681" lon="3.52973">
        <ele>586</ele>
        <time>2016-04-29T07:24:51Z</time>
      </trkpt>
      <trkpt lat="44.36683" lon="3.5298">
        <ele>586</ele>
        <time>2016-04-29T07:24:57Z</time>
      </trkpt>
      <trkpt lat="44.36682" lon="3.52987">
        <ele>586</ele>
        <time>2016-04-29T07:25:02Z</time>
      </trkpt>
      <trkpt lat="44.36676" lon="3.53006">
        <ele>587</ele>
        <time>2016-04-29T07:25:16Z</time>
      </trkpt>
      <trkpt lat="44.36674" lon="3.53013">
        <ele>588</ele>
        <time>2016-04-29T07:25:21Z</time>
      </trkpt>
      <trkpt lat="44.36668" lon="3.53052">
        <ele>592</ele>
        <time>2016-04-29T07:25:57Z</time>
      </trkpt>
      <trkpt lat="44.36659" lon="3.53067">
        <ele>595</ele>
        <time>2016-04-29T07:26:22Z</time>
      </trkpt>
      <trkpt lat="44.36648" lon="3.53097">
        <ele>598</ele>
        <time>2016-04-29T07:26:56Z</time>
      </trkpt>
      <trkpt lat="44.36641" lon="3.53114">
        <ele>601</ele>
        <time>2016-04-29T07:27:33Z</time>
      </trkpt>
      <trkpt lat="44.36637" lon="3.53119">
        <ele>602</ele>
        <time>2016-04-29T07:27:39Z</time>
      </trkpt>
      <trkpt lat="44.3663" lon="3.5313">
        <ele>604</ele>
        <time>2016-04-29T07:27:50Z</time>
      </trkpt>
      <trkpt lat="44.36628" lon="3.53137">
        <ele>604</ele>
        <time>2016-04-29T07:27:56Z</time>
      </trkpt>
      <trkpt lat="44.36611" lon="3.53168">
        <ele>609</ele>
        <time>2016-04-29T07:28:29Z</time>
      </trkpt>
      <trkpt lat="44.36607" lon="3.53172">
        <ele>610</ele>
        <time>2016-04-29T07:28:37Z</time>
      </trkpt>
      <trkpt lat="44.36607" lon="3.53181">
        <ele>609</ele>
        <time>2016-04-29T07:28:56Z</time>
      </trkpt>
      <trkpt lat="44.36604" lon="3.53186">
        <ele>609</ele>
        <time>2016-04-29T07:29:02Z</time>
      </trkpt>
      <trkpt lat="44.36592" lon="3.53208">
        <ele>611</ele>
        <time>2016-04-29T07:29:29Z</time>
      </trkpt>
      <trkpt lat="44.36575" lon="3.53232">
        <ele>618</ele>
        <time>2016-04-29T07:29:58Z</time>
      </trkpt>
      <trkpt lat="44.36571" lon="3.53239">
        <ele>618</ele>
        <time>2016-04-29T07:30:11Z</time>
      </trkpt>
      <trkpt lat="44.36564" lon="3.53247">
        <ele>616</ele>
        <time>2016-04-29T07:30:22Z</time>
      </trkpt>
      <trkpt lat="44.36559" lon="3.53251">
        <ele>616</ele>
        <time>2016-04-29T07:30:27Z</time>
      </trkpt>
      <trkpt lat="44.36552" lon="3.53258">
        <ele>618</ele>
        <time>2016-04-29T07:30:38Z</time>
      </trkpt>
      <trkpt lat="44.36538" lon="3.53265">
        <ele>620</ele>
        <time>2016-04-29T07:30:56Z</time>
      </trkpt>
      <trkpt lat="44.36533" lon="3.5327">
        <ele>621</ele>
        <time>2016-04-29T07:31:02Z</time>
      </trkpt>
      <trkpt lat="44.3652" lon="3.53294">
        <ele>623</ele>
        <time>2016-04-29T07:31:34Z</time>
      </trkpt>
      <trkpt lat="44.36509" lon="3.53307">
        <ele>625</ele>
        <time>2016-04-29T07:31:51Z</time>
      </trkpt>
      <trkpt lat="44.36507" lon="3.5331">
        <ele>625</ele>
        <time>2016-04-29T07:32:03Z</time>
      </trkpt>
      <trkpt lat="44.36506" lon="3.53314">
        <ele>625</ele>
        <time>2016-04-29T07:32:10Z</time>
      </trkpt>
      <trkpt lat="44.36502" lon="3.53317">
        <ele>625</ele>
        <time>2016-04-29T07:32:22Z</time>
      </trkpt>
      <trkpt lat="44.36493" lon="3.53323">
        <ele>624</ele>
        <time>2016-04-29T07:32:35Z</time>
      </trkpt>
      <trkpt lat="44.3649" lon="3.53329">
        <ele>624</ele>
        <time>2016-04-29T07:32:41Z</time>
      </trkpt>
      <trkpt lat="44.36486" lon="3.53331">
        <ele>624</ele>
        <time>2016-04-29T07:32:48Z</time>
      </trkpt>
      <trkpt lat="44.36465" lon="3.53349">
        <ele>630</ele>
        <time>2016-04-29T07:33:20Z</time>
      </trkpt>
      <trkpt lat="44.36456" lon="3.53357">
        <ele>631</ele>
        <time>2016-04-29T07:33:30Z</time>
      </trkpt>
      <trkpt lat="44.36447" lon="3.53361">
        <ele>629</ele>
        <time>2016-04-29T07:33:41Z</time>
      </trkpt>
      <trkpt lat="44.36442" lon="3.53362">
        <ele>630</ele>
        <time>2016-04-29T07:33:48Z</time>
      </trkpt>
      <trkpt lat="44.36433" lon="3.5337">
        <ele>631</ele>
        <time>2016-04-29T07:34:02Z</time>
      </trkpt>
      <trkpt lat="44.36429" lon="3.53373">
        <ele>630</ele>
        <time>2016-04-29T07:34:09Z</time>
      </trkpt>
      <trkpt lat="44.36424" lon="3.53373">
        <ele>630</ele>
        <time>2016-04-29T07:34:16Z</time>
      </trkpt>
      <trkpt lat="44.36416" lon="3.53381">
        <ele>630</ele>
        <time>2016-04-29T07:34:29Z</time>
      </trkpt>
      <trkpt lat="44.36414" lon="3.53388">
        <ele>631</ele>
        <time>2016-04-29T07:34:36Z</time>
      </trkpt>
      <trkpt lat="44.36411" lon="3.53392">
        <ele>632</ele>
        <time>2016-04-29T07:34:43Z</time>
      </trkpt>
      <trkpt lat="44.3641" lon="3.53398">
        <ele>635</ele>
        <time>2016-04-29T07:34:54Z</time>
      </trkpt>
      <trkpt lat="44.36403" lon="3.53408">
        <ele>636</ele>
        <time>2016-04-29T07:35:06Z</time>
      </trkpt>
      <trkpt lat="44.36398" lon="3.5341">
        <ele>636</ele>
        <time>2016-04-29T07:35:15Z</time>
      </trkpt>
      <trkpt lat="44.36396" lon="3.53413">
        <ele>635</ele>
        <time>2016-04-29T07:35:23Z</time>
      </trkpt>
      <trkpt lat="44.36393" lon="3.53419">
        <ele>636</ele>
        <time>2016-04-29T07:35:37Z</time>
      </trkpt>
      <trkpt lat="44.36383" lon="3.53445">
        <ele>641</ele>
        <time>2016-04-29T07:36:11Z</time>
      </trkpt>
      <trkpt lat="44.36379" lon="3.53451">
        <ele>641</ele>
        <time>2016-04-29T07:36:16Z</time>
      </trkpt>
      <trkpt lat="44.36372" lon="3.53459">
        <ele>638</ele>
        <time>2016-04-29T07:36:24Z</time>
      </trkpt>
      <trkpt lat="44.36369" lon="3.53464">
        <ele>638</ele>
        <time>2016-04-29T07:36:31Z</time>
      </trkpt>
      <trkpt lat="44.36372" lon="3.5347">
        <ele>640</ele>
        <time>2016-04-29T07:36:37Z</time>
      </trkpt>
      <trkpt lat="44.36373" lon="3.53476">
        <ele>642</ele>
        <time>2016-04-29T07:36:46Z</time>
      </trkpt>
      <trkpt lat="44.36372" lon="3.53483">
        <ele>645</ele>
        <time>2016-04-29T07:36:54Z</time>
      </trkpt>
      <trkpt lat="44.36369" lon="3.53488">
        <ele>647</ele>
        <time>2016-04-29T07:37:01Z</time>
      </trkpt>
      <trkpt lat="44.36367" lon="3.53491">
        <ele>646</ele>
        <time>2016-04-29T07:37:07Z</time>
      </trkpt>
      <trkpt lat="44.36366" lon="3.53497">
        <ele>645</ele>
        <time>2016-04-29T07:37:13Z</time>
      </trkpt>
      <trkpt lat="44.36368" lon="3.53504">
        <ele>644</ele>
        <time>2016-04-29T07:37:23Z</time>
      </trkpt>
      <trkpt lat="44.36371" lon="3.5351">
        <ele>644</ele>
        <time>2016-04-29T07:37:30Z</time>
      </trkpt>
      <trkpt lat="44.36371" lon="3.53516">
        <ele>645</ele>
        <time>2016-04-29T07:37:37Z</time>
      </trkpt>
      <trkpt lat="44.36375" lon="3.53527">
        <ele>647</ele>
        <time>2016-04-29T07:37:52Z</time>
      </trkpt>
      <trkpt lat="44.36375" lon="3.53554">
        <ele>653</ele>
        <time>2016-04-29T07:38:24Z</time>
      </trkpt>
      <trkpt lat="44.36371" lon="3.53559">
        <ele>653</ele>
        <time>2016-04-29T07:38:30Z</time>
      </trkpt>
      <trkpt lat="44.36371" lon="3.53565">
        <ele>655</ele>
        <time>2016-04-29T07:38:42Z</time>
      </trkpt>
      <trkpt lat="44.36371" lon="3.53571">
        <ele>656</ele>
        <time>2016-04-29T07:38:52Z</time>
      </trkpt>
      <trkpt lat="44.36369" lon="3.53577">
        <ele>656</ele>
        <time>2016-04-29T07:39:00Z</time>
      </trkpt>
      <trkpt lat="44.36365" lon="3.53582">
        <ele>655</ele>
        <time>2016-04-29T07:39:07Z</time>
      </trkpt>
      <trkpt lat="44.36362" lon="3.53587">
        <ele>654</ele>
        <time>2016-04-29T07:39:15Z</time>
      </trkpt>
      <trkpt lat="44.36363" lon="3.53594">
        <ele>655</ele>
        <time>2016-04-29T07:39:25Z</time>
      </trkpt>
      <trkpt lat="44.36361" lon="3.53599">
        <ele>658</ele>
        <time>2016-04-29T07:39:35Z</time>
      </trkpt>
      <trkpt lat="44.3636" lon="3.53614">
        <ele>663</ele>
        <time>2016-04-29T07:40:06Z</time>
      </trkpt>
      <trkpt lat="44.3636" lon="3.53627">
        <ele>667</ele>
        <time>2016-04-29T07:40:21Z</time>
      </trkpt>
      <trkpt lat="44.36357" lon="3.53632">
        <ele>667</ele>
        <time>2016-04-29T07:40:28Z</time>
      </trkpt>
      <trkpt lat="44.36356" lon="3.53638">
        <ele>668</ele>
        <time>2016-04-29T07:40:38Z</time>
      </trkpt>
      <trkpt lat="44.3636" lon="3.53637">
        <ele>668</ele>
        <time>2016-04-29T07:40:45Z</time>
      </trkpt>
      <trkpt lat="44.36364" lon="3.53643">
        <ele>669</ele>
        <time>2016-04-29T07:40:50Z</time>
      </trkpt>
      <trkpt lat="44.36368" lon="3.53648">
        <ele>670</ele>
        <time>2016-04-29T07:40:55Z</time>
      </trkpt>
      <trkpt lat="44.36371" lon="3.53653">
        <ele>669</ele>
        <time>2016-04-29T07:41:00Z</time>
      </trkpt>
      <trkpt lat="44.36374" lon="3.53658">
        <ele>670</ele>
        <time>2016-04-29T07:41:07Z</time>
      </trkpt>
      <trkpt lat="44.36378" lon="3.53662">
        <ele>670</ele>
        <time>2016-04-29T07:41:14Z</time>
      </trkpt>
      <trkpt lat="44.3638" lon="3.53668">
        <ele>670</ele>
        <time>2016-04-29T07:41:21Z</time>
      </trkpt>
      <trkpt lat="44.36383" lon="3.53673">
        <ele>671</ele>
        <time>2016-04-29T07:41:31Z</time>
      </trkpt>
      <trkpt lat="44.36387" lon="3.53677">
        <ele>671</ele>
        <time>2016-04-29T07:41:39Z</time>
      </trkpt>
      <trkpt lat="44.36387" lon="3.53684">
        <ele>671</ele>
        <time>2016-04-29T07:41:48Z</time>
      </trkpt>
      <trkpt lat="44.36392" lon="3.53699">
        <ele>675</ele>
        <time>2016-04-29T07:42:20Z</time>
      </trkpt>
      <trkpt lat="44.36392" lon="3.53709">
        <ele>677</ele>
        <time>2016-04-29T07:42:34Z</time>
      </trkpt>
      <trkpt lat="44.36392" lon="3.53715">
        <ele>677</ele>
        <time>2016-04-29T07:42:44Z</time>
      </trkpt>
      <trkpt lat="44.36392" lon="3.53721">
        <ele>678</ele>
        <time>2016-04-29T07:42:55Z</time>
      </trkpt>
      <trkpt lat="44.36397" lon="3.53735">
        <ele>681</ele>
        <time>2016-04-29T07:43:26Z</time>
      </trkpt>
      <trkpt lat="44.364" lon="3.53748">
        <ele>684</ele>
        <time>2016-04-29T07:43:41Z</time>
      </trkpt>
      <trkpt lat="44.36403" lon="3.53753">
        <ele>684</ele>
        <time>2016-04-29T07:43:49Z</time>
      </trkpt>
      <trkpt lat="44.36407" lon="3.53757">
        <ele>684</ele>
        <time>2016-04-29T07:43:58Z</time>
      </trkpt>
      <trkpt lat="44.36417" lon="3.53781">
        <ele>689</ele>
        <time>2016-04-29T07:44:24Z</time>
      </trkpt>
      <trkpt lat="44.36419" lon="3.53789">
        <ele>689</ele>
        <time>2016-04-29T07:44:31Z</time>
      </trkpt>
      <trkpt lat="44.3642" lon="3.53795">
        <ele>687</ele>
        <time>2016-04-29T07:44:36Z</time>
      </trkpt>
      <trkpt lat="44.36423" lon="3.53801">
        <ele>688</ele>
        <time>2016-04-29T07:44:42Z</time>
      </trkpt>
      <trkpt lat="44.36425" lon="3.53807">
        <ele>688</ele>
        <time>2016-04-29T07:44:47Z</time>
      </trkpt>
      <trkpt lat="44.36436" lon="3.53822">
        <ele>694</ele>
        <time>2016-04-29T07:45:07Z</time>
      </trkpt>
      <trkpt lat="44.3644" lon="3.53825">
        <ele>695</ele>
        <time>2016-04-29T07:45:13Z</time>
      </trkpt>
      <trkpt lat="44.36446" lon="3.53836">
        <ele>695</ele>
        <time>2016-04-29T07:45:23Z</time>
      </trkpt>
      <trkpt lat="44.36449" lon="3.53849">
        <ele>694</ele>
        <time>2016-04-29T07:45:32Z</time>
      </trkpt>
      <trkpt lat="44.36452" lon="3.53862">
        <ele>694</ele>
        <time>2016-04-29T07:45:43Z</time>
      </trkpt>
      <trkpt lat="44.36448" lon="3.53888">
        <ele>691</ele>
        <time>2016-04-29T07:46:03Z</time>
      </trkpt>
      <trkpt lat="44.3645" lon="3.53895">
        <ele>692</ele>
        <time>2016-04-29T07:46:08Z</time>
      </trkpt>
      <trkpt lat="44.36452" lon="3.539">
        <ele>694</ele>
        <time>2016-04-29T07:46:13Z</time>
      </trkpt>
      <trkpt lat="44.3645" lon="3.53907">
        <ele>695</ele>
        <time>2016-04-29T07:46:18Z</time>
      </trkpt>
      <trkpt lat="44.3644" lon="3.53915">
        <ele>695</ele>
        <time>2016-04-29T07:46:27Z</time>
      </trkpt>
      <trkpt lat="44.36435" lon="3.53916">
        <ele>695</ele>
        <time>2016-04-29T07:46:32Z</time>
      </trkpt>
      <trkpt lat="44.36431" lon="3.53916">
        <ele>695</ele>
        <time>2016-04-29T07:46:38Z</time>
      </trkpt>
      <trkpt lat="44.36416" lon="3.53919">
        <ele>699</ele>
        <time>2016-04-29T07:46:59Z</time>
      </trkpt>
      <trkpt lat="44.36412" lon="3.53922">
        <ele>699</ele>
        <time>2016-04-29T07:47:06Z</time>
      </trkpt>
      <trkpt lat="44.36404" lon="3.53929">
        <ele>700</ele>
        <time>2016-04-29T07:47:19Z</time>
      </trkpt>
      <trkpt lat="44.36395" lon="3.53939">
        <ele>700</ele>
        <time>2016-04-29T07:47:43Z</time>
      </trkpt>
      <trkpt lat="44.36396" lon="3.53945">
        <ele>702</ele>
        <time>2016-04-29T07:47:57Z</time>
      </trkpt>
      <trkpt lat="44.36395" lon="3.53952">
        <ele>705</ele>
        <time>2016-04-29T07:48:04Z</time>
      </trkpt>
      <trkpt lat="44.36392" lon="3.53958">
        <ele>705</ele>
        <time>2016-04-29T07:48:10Z</time>
      </trkpt>
      <trkpt lat="44.36389" lon="3.53963">
        <ele>705</ele>
        <time>2016-04-29T07:48:15Z</time>
      </trkpt>
      <trkpt lat="44.36387" lon="3.5397">
        <ele>705</ele>
        <time>2016-04-29T07:48:21Z</time>
      </trkpt>
      <trkpt lat="44.36383" lon="3.53982">
        <ele>706</ele>
        <time>2016-04-29T07:48:37Z</time>
      </trkpt>
      <trkpt lat="44.3638" lon="3.53982">
        <ele>707</ele>
        <time>2016-04-29T07:48:48Z</time>
      </trkpt>
      <trkpt lat="44.36375" lon="3.53984">
        <ele>706</ele>
        <time>2016-04-29T07:48:54Z</time>
      </trkpt>
      <trkpt lat="44.3637" lon="3.53986">
        <ele>707</ele>
        <time>2016-04-29T07:49:03Z</time>
      </trkpt>
      <trkpt lat="44.36366" lon="3.53988">
        <ele>707</ele>
        <time>2016-04-29T07:49:09Z</time>
      </trkpt>
      <trkpt lat="44.36364" lon="3.53992">
        <ele>707</ele>
        <time>2016-04-29T07:49:19Z</time>
      </trkpt>
      <trkpt lat="44.36365" lon="3.53998">
        <ele>708</ele>
        <time>2016-04-29T07:49:28Z</time>
      </trkpt>
      <trkpt lat="44.36367" lon="3.54003">
        <ele>710</ele>
        <time>2016-04-29T07:49:35Z</time>
      </trkpt>
      <trkpt lat="44.36368" lon="3.5401">
        <ele>712</ele>
        <time>2016-04-29T07:49:43Z</time>
      </trkpt>
      <trkpt lat="44.36365" lon="3.54016">
        <ele>712</ele>
        <time>2016-04-29T07:49:48Z</time>
      </trkpt>
      <trkpt lat="44.36365" lon="3.5404">
        <ele>708</ele>
        <time>2016-04-29T07:50:12Z</time>
      </trkpt>
      <trkpt lat="44.36366" lon="3.54047">
        <ele>708</ele>
        <time>2016-04-29T07:50:18Z</time>
      </trkpt>
      <trkpt lat="44.36369" lon="3.54052">
        <ele>708</ele>
        <time>2016-04-29T07:50:24Z</time>
      </trkpt>
      <trkpt lat="44.36374" lon="3.54062">
        <ele>711</ele>
        <time>2016-04-29T07:50:44Z</time>
      </trkpt>
      <trkpt lat="44.36373" lon="3.54068">
        <ele>711</ele>
        <time>2016-04-29T07:50:51Z</time>
      </trkpt>
      <trkpt lat="44.36377" lon="3.5408">
        <ele>714</ele>
        <time>2016-04-29T07:51:06Z</time>
      </trkpt>
      <trkpt lat="44.36381" lon="3.54093">
        <ele>714</ele>
        <time>2016-04-29T07:51:19Z</time>
      </trkpt>
      <trkpt lat="44.36383" lon="3.54099">
        <ele>714</ele>
        <time>2016-04-29T07:51:24Z</time>
      </trkpt>
      <trkpt lat="44.36384" lon="3.54105">
        <ele>714</ele>
        <time>2016-04-29T07:51:29Z</time>
      </trkpt>
      <trkpt lat="44.36383" lon="3.54132">
        <ele>719</ele>
        <time>2016-04-29T07:51:54Z</time>
      </trkpt>
      <trkpt lat="44.36385" lon="3.54139">
        <ele>720</ele>
        <time>2016-04-29T07:52:00Z</time>
      </trkpt>
      <trkpt lat="44.36387" lon="3.54145">
        <ele>720</ele>
        <time>2016-04-29T07:52:06Z</time>
      </trkpt>
      <trkpt lat="44.3639" lon="3.54151">
        <ele>721</ele>
        <time>2016-04-29T07:52:13Z</time>
      </trkpt>
      <trkpt lat="44.36387" lon="3.54157">
        <ele>722</ele>
        <time>2016-04-29T07:52:18Z</time>
      </trkpt>
      <trkpt lat="44.36379" lon="3.54168">
        <ele>722</ele>
        <time>2016-04-29T07:52:28Z</time>
      </trkpt>
      <trkpt lat="44.36369" lon="3.54184">
        <ele>719</ele>
        <time>2016-04-29T07:52:42Z</time>
      </trkpt>
      <trkpt lat="44.36367" lon="3.54191">
        <ele>720</ele>
        <time>2016-04-29T07:52:48Z</time>
      </trkpt>
      <trkpt lat="44.36364" lon="3.54196">
        <ele>721</ele>
        <time>2016-04-29T07:52:54Z</time>
      </trkpt>
      <trkpt lat="44.36366" lon="3.54202">
        <ele>722</ele>
        <time>2016-04-29T07:53:01Z</time>
      </trkpt>
      <trkpt lat="44.36368" lon="3.54208">
        <ele>724</ele>
        <time>2016-04-29T07:53:07Z</time>
      </trkpt>
      <trkpt lat="44.36367" lon="3.54215">
        <ele>723</ele>
        <time>2016-04-29T07:53:14Z</time>
      </trkpt>
      <trkpt lat="44.36365" lon="3.54221">
        <ele>721</ele>
        <time>2016-04-29T07:53:19Z</time>
      </trkpt>
      <trkpt lat="44.36363" lon="3.54235">
        <ele>722</ele>
        <time>2016-04-29T07:53:31Z</time>
      </trkpt>
      <trkpt lat="44.36361" lon="3.54247">
        <ele>719</ele>
        <time>2016-04-29T07:53:41Z</time>
      </trkpt>
      <trkpt lat="44.36362" lon="3.54254">
        <ele>719</ele>
        <time>2016-04-29T07:53:47Z</time>
      </trkpt>
      <trkpt lat="44.36367" lon="3.54257">
        <ele>719</ele>
        <time>2016-04-29T07:53:53Z</time>
      </trkpt>
      <trkpt lat="44.36369" lon="3.54262">
        <ele>719</ele>
        <time>2016-04-29T07:53:58Z</time>
      </trkpt>
      <trkpt lat="44.36373" lon="3.54267">
        <ele>719</ele>
        <time>2016-04-29T07:54:04Z</time>
      </trkpt>
      <trkpt lat="44.36376" lon="3.54272">
        <ele>720</ele>
        <time>2016-04-29T07:54:11Z</time>
      </trkpt>
      <trkpt lat="44.36378" lon="3.54279">
        <ele>720</ele>
        <time>2016-04-29T07:54:20Z</time>
      </trkpt>
      <trkpt lat="44.3638" lon="3.54284">
        <ele>719</ele>
        <time>2016-04-29T07:54:28Z</time>
      </trkpt>
      <trkpt lat="44.36379" lon="3.54288">
        <ele>720</ele>
        <time>2016-04-29T07:54:34Z</time>
      </trkpt>
      <trkpt lat="44.36376" lon="3.54301">
        <ele>722</ele>
        <time>2016-04-29T07:54:49Z</time>
      </trkpt>
      <trkpt lat="44.36378" lon="3.54307">
        <ele>723</ele>
        <time>2016-04-29T07:54:56Z</time>
      </trkpt>
      <trkpt lat="44.36379" lon="3.54314">
        <ele>725</ele>
        <time>2016-04-29T07:55:04Z</time>
      </trkpt>
      <trkpt lat="44.36378" lon="3.54321">
        <ele>725</ele>
        <time>2016-04-29T07:55:14Z</time>
      </trkpt>
      <trkpt lat="44.36376" lon="3.54327">
        <ele>725</ele>
        <time>2016-04-29T07:55:26Z</time>
      </trkpt>
      <trkpt lat="44.36377" lon="3.54354">
        <ele>728</ele>
        <time>2016-04-29T07:55:52Z</time>
      </trkpt>
      <trkpt lat="44.36374" lon="3.54359">
        <ele>729</ele>
        <time>2016-04-29T07:55:58Z</time>
      </trkpt>
      <trkpt lat="44.36373" lon="3.54366">
        <ele>728</ele>
        <time>2016-04-29T07:56:03Z</time>
      </trkpt>
      <trkpt lat="44.36372" lon="3.54373">
        <ele>727</ele>
        <time>2016-04-29T07:56:08Z</time>
      </trkpt>
      <trkpt lat="44.36371" lon="3.54387">
        <ele>728</ele>
        <time>2016-04-29T07:56:20Z</time>
      </trkpt>
      <trkpt lat="44.36374" lon="3.54391">
        <ele>729</ele>
        <time>2016-04-29T07:56:26Z</time>
      </trkpt>
      <trkpt lat="44.36372" lon="3.54398">
        <ele>732</ele>
        <time>2016-04-29T07:56:33Z</time>
      </trkpt>
      <trkpt lat="44.36374" lon="3.54412">
        <ele>734</ele>
        <time>2016-04-29T07:56:45Z</time>
      </trkpt>
      <trkpt lat="44.36374" lon="3.54418">
        <ele>735</ele>
        <time>2016-04-29T07:56:51Z</time>
      </trkpt>
      <trkpt lat="44.36375" lon="3.54425">
        <ele>734</ele>
        <time>2016-04-29T07:56:56Z</time>
      </trkpt>
      <trkpt lat="44.36378" lon="3.5443">
        <ele>734</ele>
        <time>2016-04-29T07:57:02Z</time>
      </trkpt>
      <trkpt lat="44.36377" lon="3.54437">
        <ele>734</ele>
        <time>2016-04-29T07:57:09Z</time>
      </trkpt>
      <trkpt lat="44.36379" lon="3.54442">
        <ele>732</ele>
        <time>2016-04-29T07:57:14Z</time>
      </trkpt>
      <trkpt lat="44.3638" lon="3.54484">
        <ele>724</ele>
        <time>2016-04-29T07:57:48Z</time>
      </trkpt>
      <trkpt lat="44.3638" lon="3.5449">
        <ele>724</ele>
        <time>2016-04-29T07:57:54Z</time>
      </trkpt>
      <trkpt lat="44.36384" lon="3.54502">
        <ele>726</ele>
        <time>2016-04-29T07:58:07Z</time>
      </trkpt>
      <trkpt lat="44.36387" lon="3.54508">
        <ele>726</ele>
        <time>2016-04-29T07:58:14Z</time>
      </trkpt>
      <trkpt lat="44.36391" lon="3.54521">
        <ele>727</ele>
        <time>2016-04-29T07:58:25Z</time>
      </trkpt>
      <trkpt lat="44.36394" lon="3.54527">
        <ele>728</ele>
        <time>2016-04-29T07:58:30Z</time>
      </trkpt>
      <trkpt lat="44.36397" lon="3.54532">
        <ele>728</ele>
        <time>2016-04-29T07:58:35Z</time>
      </trkpt>
      <trkpt lat="44.36399" lon="3.54538">
        <ele>729</ele>
        <time>2016-04-29T07:58:43Z</time>
      </trkpt>
      <trkpt lat="44.36404" lon="3.5454">
        <ele>729</ele>
        <time>2016-04-29T07:58:52Z</time>
      </trkpt>
      <trkpt lat="44.36408" lon="3.54542">
        <ele>731</ele>
        <time>2016-04-29T07:58:56Z</time>
      </trkpt>
      <trkpt lat="44.36414" lon="3.54543">
        <ele>731</ele>
        <time>2016-04-29T07:59:01Z</time>
      </trkpt>
      <trkpt lat="44.36416" lon="3.54549">
        <ele>731</ele>
        <time>2016-04-29T07:59:06Z</time>
      </trkpt>
      <trkpt lat="44.36412" lon="3.54554">
        <ele>731</ele>
        <time>2016-04-29T07:59:15Z</time>
      </trkpt>
      <trkpt lat="44.36409" lon="3.54571">
        <ele>735</ele>
        <time>2016-04-29T07:59:44Z</time>
      </trkpt>
      <trkpt lat="44.36405" lon="3.54574">
        <ele>735</ele>
        <time>2016-04-29T07:59:51Z</time>
      </trkpt>
      <trkpt lat="44.364" lon="3.54578">
        <ele>736</ele>
        <time>2016-04-29T07:59:59Z</time>
      </trkpt>
      <trkpt lat="44.36393" lon="3.54593">
        <ele>745</ele>
        <time>2016-04-29T08:00:31Z</time>
      </trkpt>
      <trkpt lat="44.36391" lon="3.54599">
        <ele>745</ele>
        <time>2016-04-29T08:00:39Z</time>
      </trkpt>
      <trkpt lat="44.36387" lon="3.54604">
        <ele>745</ele>
        <time>2016-04-29T08:00:47Z</time>
      </trkpt>
      <trkpt lat="44.36376" lon="3.54633">
        <ele>749</ele>
        <time>2016-04-29T08:01:22Z</time>
      </trkpt>
      <trkpt lat="44.36374" lon="3.54639">
        <ele>750</ele>
        <time>2016-04-29T08:01:28Z</time>
      </trkpt>
      <trkpt lat="44.36375" lon="3.54644">
        <ele>749</ele>
        <time>2016-04-29T08:01:36Z</time>
      </trkpt>
      <trkpt lat="44.3637" lon="3.54648">
        <ele>748</ele>
        <time>2016-04-29T08:01:49Z</time>
      </trkpt>
      <trkpt lat="44.36373" lon="3.54656">
        <ele>748</ele>
        <time>2016-04-29T08:02:01Z</time>
      </trkpt>
      <trkpt lat="44.36375" lon="3.54662">
        <ele>748</ele>
        <time>2016-04-29T08:02:08Z</time>
      </trkpt>
      <trkpt lat="44.36375" lon="3.54657">
        <ele>748</ele>
        <time>2016-04-29T08:02:22Z</time>
      </trkpt>
      <trkpt lat="44.36366" lon="3.5465">
        <ele>748</ele>
        <time>2016-04-29T08:02:34Z</time>
      </trkpt>
      <trkpt lat="44.36365" lon="3.54653">
        <ele>749</ele>
        <time>2016-04-29T08:02:46Z</time>
      </trkpt>
      <trkpt lat="44.3636" lon="3.54654">
        <ele>748</ele>
        <time>2016-04-29T08:02:53Z</time>
      </trkpt>
      <trkpt lat="44.36358" lon="3.54657">
        <ele>748</ele>
        <time>2016-04-29T08:09:55Z</time>
      </trkpt>
      <trkpt lat="44.36336" lon="3.54678">
        <ele>741</ele>
        <time>2016-04-29T08:10:28Z</time>
      </trkpt>
      <trkpt lat="44.36331" lon="3.54678">
        <ele>741</ele>
        <time>2016-04-29T08:10:36Z</time>
      </trkpt>
      <trkpt lat="44.36327" lon="3.5468">
        <ele>739</ele>
        <time>2016-04-29T08:10:44Z</time>
      </trkpt>
      <trkpt lat="44.36323" lon="3.54684">
        <ele>739</ele>
        <time>2016-04-29T08:10:50Z</time>
      </trkpt>
      <trkpt lat="44.3632" lon="3.54689">
        <ele>740</ele>
        <time>2016-04-29T08:10:56Z</time>
      </trkpt>
      <trkpt lat="44.36319" lon="3.54696">
        <ele>740</ele>
        <time>2016-04-29T08:11:01Z</time>
      </trkpt>
      <trkpt lat="44.3632" lon="3.54702">
        <ele>740</ele>
        <time>2016-04-29T08:11:06Z</time>
      </trkpt>
      <trkpt lat="44.36322" lon="3.54708">
        <ele>739</ele>
        <time>2016-04-29T08:11:13Z</time>
      </trkpt>
      <trkpt lat="44.36325" lon="3.54713">
        <ele>740</ele>
        <time>2016-04-29T08:11:19Z</time>
      </trkpt>
      <trkpt lat="44.36328" lon="3.54735">
        <ele>744</ele>
        <time>2016-04-29T08:11:35Z</time>
      </trkpt>
      <trkpt lat="44.36327" lon="3.54742">
        <ele>744</ele>
        <time>2016-04-29T08:11:40Z</time>
      </trkpt>
      <trkpt lat="44.36327" lon="3.5475">
        <ele>744</ele>
        <time>2016-04-29T08:11:45Z</time>
      </trkpt>
      <trkpt lat="44.36324" lon="3.54771">
        <ele>738</ele>
        <time>2016-04-29T08:11:58Z</time>
      </trkpt>
      <trkpt lat="44.36323" lon="3.54779">
        <ele>738</ele>
        <time>2016-04-29T08:12:04Z</time>
      </trkpt>
      <trkpt lat="44.3632" lon="3.54784">
        <ele>738</ele>
        <time>2016-04-29T08:12:07Z</time>
      </trkpt>
      <trkpt lat="44.36315" lon="3.54786">
        <ele>738</ele>
        <time>2016-04-29T08:12:10Z</time>
      </trkpt>
      <trkpt lat="44.36313" lon="3.54792">
        <ele>738</ele>
        <time>2016-04-29T08:12:15Z</time>
      </trkpt>
      <trkpt lat="44.36317" lon="3.54805">
        <ele>739</ele>
        <time>2016-04-29T08:12:26Z</time>
      </trkpt>
      <trkpt lat="44.36314" lon="3.54818">
        <ele>736</ele>
        <time>2016-04-29T08:12:35Z</time>
      </trkpt>
      <trkpt lat="44.36316" lon="3.54826">
        <ele>735</ele>
        <time>2016-04-29T08:12:40Z</time>
      </trkpt>
      <trkpt lat="44.36313" lon="3.54831">
        <ele>733</ele>
        <time>2016-04-29T08:12:45Z</time>
      </trkpt>
      <trkpt lat="44.36309" lon="3.54837">
        <ele>733</ele>
        <time>2016-04-29T08:12:49Z</time>
      </trkpt>
      <trkpt lat="44.36307" lon="3.54843">
        <ele>732</ele>
        <time>2016-04-29T08:12:53Z</time>
      </trkpt>
      <trkpt lat="44.3631" lon="3.5485">
        <ele>732</ele>
        <time>2016-04-29T08:12:57Z</time>
      </trkpt>
      <trkpt lat="44.36312" lon="3.54863">
        <ele>731</ele>
        <time>2016-04-29T08:13:07Z</time>
      </trkpt>
      <trkpt lat="44.36315" lon="3.54869">
        <ele>731</ele>
        <time>2016-04-29T08:13:13Z</time>
      </trkpt>
      <trkpt lat="44.36313" lon="3.54876">
        <ele>730</ele>
        <time>2016-04-29T08:13:18Z</time>
      </trkpt>
      <trkpt lat="44.36309" lon="3.5488">
        <ele>729</ele>
        <time>2016-04-29T08:13:21Z</time>
      </trkpt>
      <trkpt lat="44.36291" lon="3.54896">
        <ele>730</ele>
        <time>2016-04-29T08:13:37Z</time>
      </trkpt>
      <trkpt lat="44.36286" lon="3.54898">
        <ele>729</ele>
        <time>2016-04-29T08:13:41Z</time>
      </trkpt>
      <trkpt lat="44.36281" lon="3.54901">
        <ele>730</ele>
        <time>2016-04-29T08:13:45Z</time>
      </trkpt>
      <trkpt lat="44.36272" lon="3.54905">
        <ele>730</ele>
        <time>2016-04-29T08:13:53Z</time>
      </trkpt>
      <trkpt lat="44.36263" lon="3.54908">
        <ele>728</ele>
        <time>2016-04-29T08:14:04Z</time>
      </trkpt>
      <trkpt lat="44.36257" lon="3.5491">
        <ele>728</ele>
        <time>2016-04-29T08:14:10Z</time>
      </trkpt>
      <trkpt lat="44.36247" lon="3.54914">
        <ele>730</ele>
        <time>2016-04-29T08:14:20Z</time>
      </trkpt>
      <trkpt lat="44.36238" lon="3.54917">
        <ele>730</ele>
        <time>2016-04-29T08:14:29Z</time>
      </trkpt>
      <trkpt lat="44.36227" lon="3.54919">
        <ele>729</ele>
        <time>2016-04-29T08:14:37Z</time>
      </trkpt>
      <trkpt lat="44.36222" lon="3.5492">
        <ele>729</ele>
        <time>2016-04-29T08:14:41Z</time>
      </trkpt>
      <trkpt lat="44.36218" lon="3.54924">
        <ele>729</ele>
        <time>2016-04-29T08:14:45Z</time>
      </trkpt>
      <trkpt lat="44.36196" lon="3.54931">
        <ele>726</ele>
        <time>2016-04-29T08:15:05Z</time>
      </trkpt>
      <trkpt lat="44.36186" lon="3.54933">
        <ele>727</ele>
        <time>2016-04-29T08:15:14Z</time>
      </trkpt>
      <trkpt lat="44.36181" lon="3.54934">
        <ele>727</ele>
        <time>2016-04-29T08:15:19Z</time>
      </trkpt>
      <trkpt lat="44.36166" lon="3.5493">
        <ele>724</ele>
        <time>2016-04-29T08:15:34Z</time>
      </trkpt>
      <trkpt lat="44.36161" lon="3.5493">
        <ele>724</ele>
        <time>2016-04-29T08:15:39Z</time>
      </trkpt>
      <trkpt lat="44.36151" lon="3.54934">
        <ele>724</ele>
        <time>2016-04-29T08:15:49Z</time>
      </trkpt>
      <trkpt lat="44.36147" lon="3.54935">
        <ele>724</ele>
        <time>2016-04-29T08:15:54Z</time>
      </trkpt>
      <trkpt lat="44.36141" lon="3.54936">
        <ele>724</ele>
        <time>2016-04-29T08:15:59Z</time>
      </trkpt>
      <trkpt lat="44.36136" lon="3.54937">
        <ele>723</ele>
        <time>2016-04-29T08:16:05Z</time>
      </trkpt>
      <trkpt lat="44.36136" lon="3.54944">
        <ele>723</ele>
        <time>2016-04-29T08:16:13Z</time>
      </trkpt>
      <trkpt lat="44.3614" lon="3.54943">
        <ele>724</ele>
        <time>2016-04-29T08:16:20Z</time>
      </trkpt>
      <trkpt lat="44.36142" lon="3.54946">
        <ele>722</ele>
        <time>2016-04-29T08:16:53Z</time>
      </trkpt>
      <trkpt lat="44.36145" lon="3.54947">
        <ele>723</ele>
        <time>2016-04-29T08:17:10Z</time>
      </trkpt>
      <trkpt lat="44.3615" lon="3.5495">
        <ele>721</ele>
        <time>2016-04-29T08:17:27Z</time>
      </trkpt>
      <trkpt lat="44.36168" lon="3.54968">
        <ele>708</ele>
        <time>2016-04-29T08:18:01Z</time>
      </trkpt>
      <trkpt lat="44.36186" lon="3.54988">
        <ele>702</ele>
        <time>2016-04-29T08:18:35Z</time>
      </trkpt>
      <trkpt lat="44.3619" lon="3.54989">
        <ele>701</ele>
        <time>2016-04-29T08:18:44Z</time>
      </trkpt>
      <trkpt lat="44.36206" lon="3.55002">
        <ele>699</ele>
        <time>2016-04-29T08:19:15Z</time>
      </trkpt>
      <trkpt lat="44.3621" lon="3.55004">
        <ele>699</ele>
        <time>2016-04-29T08:19:21Z</time>
      </trkpt>
      <trkpt lat="44.36215" lon="3.55006">
        <ele>698</ele>
        <time>2016-04-29T08:19:27Z</time>
      </trkpt>
      <trkpt lat="44.36223" lon="3.55012">
        <ele>692</ele>
        <time>2016-04-29T08:19:37Z</time>
      </trkpt>
      <trkpt lat="44.36226" lon="3.55017">
        <ele>688</ele>
        <time>2016-04-29T08:19:43Z</time>
      </trkpt>
      <trkpt lat="44.36229" lon="3.55023">
        <ele>688</ele>
        <time>2016-04-29T08:19:49Z</time>
      </trkpt>
      <trkpt lat="44.36239" lon="3.55062">
        <ele>693</ele>
        <time>2016-04-29T08:20:22Z</time>
      </trkpt>
      <trkpt lat="44.3624" lon="3.5507">
        <ele>693</ele>
        <time>2016-04-29T08:20:27Z</time>
      </trkpt>
      <trkpt lat="44.36241" lon="3.55116">
        <ele>685</ele>
        <time>2016-04-29T08:20:59Z</time>
      </trkpt>
      <trkpt lat="44.36243" lon="3.55122">
        <ele>684</ele>
        <time>2016-04-29T08:21:03Z</time>
      </trkpt>
      <trkpt lat="44.36249" lon="3.55129">
        <ele>683</ele>
        <time>2016-04-29T08:21:20Z</time>
      </trkpt>
      <trkpt lat="44.36253" lon="3.55127">
        <ele>681</ele>
        <time>2016-04-29T08:21:26Z</time>
      </trkpt>
      <trkpt lat="44.36267" lon="3.55119">
        <ele>678</ele>
        <time>2016-04-29T08:21:39Z</time>
      </trkpt>
      <trkpt lat="44.36271" lon="3.55118">
        <ele>678</ele>
        <time>2016-04-29T08:21:43Z</time>
      </trkpt>
      <trkpt lat="44.36279" lon="3.55109">
        <ele>679</ele>
        <time>2016-04-29T08:21:53Z</time>
      </trkpt>
      <trkpt lat="44.36284" lon="3.55106">
        <ele>679</ele>
        <time>2016-04-29T08:21:58Z</time>
      </trkpt>
      <trkpt lat="44.36292" lon="3.55099">
        <ele>676</ele>
        <time>2016-04-29T08:22:10Z</time>
      </trkpt>
      <trkpt lat="44.36296" lon="3.55096">
        <ele>676</ele>
        <time>2016-04-29T08:22:15Z</time>
      </trkpt>
      <trkpt lat="44.36306" lon="3.55091">
        <ele>676</ele>
        <time>2016-04-29T08:22:25Z</time>
      </trkpt>
      <trkpt lat="44.36316" lon="3.55089">
        <ele>675</ele>
        <time>2016-04-29T08:22:36Z</time>
      </trkpt>
      <trkpt lat="44.3632" lon="3.55086">
        <ele>675</ele>
        <time>2016-04-29T08:22:42Z</time>
      </trkpt>
      <trkpt lat="44.36325" lon="3.55085">
        <ele>675</ele>
        <time>2016-04-29T08:22:49Z</time>
      </trkpt>
      <trkpt lat="44.3633" lon="3.55081">
        <ele>676</ele>
        <time>2016-04-29T08:22:56Z</time>
      </trkpt>
      <trkpt lat="44.36334" lon="3.55083">
        <ele>676</ele>
        <time>2016-04-29T08:23:02Z</time>
      </trkpt>
      <trkpt lat="44.36336" lon="3.55087">
        <ele>676</ele>
        <time>2016-04-29T08:23:14Z</time>
      </trkpt>
      <trkpt lat="44.36337" lon="3.55097">
        <ele>672</ele>
        <time>2016-04-29T08:23:27Z</time>
      </trkpt>
      <trkpt lat="44.36339" lon="3.55102">
        <ele>672</ele>
        <time>2016-04-29T08:23:33Z</time>
      </trkpt>
      <trkpt lat="44.36343" lon="3.55108">
        <ele>673</ele>
        <time>2016-04-29T08:23:39Z</time>
      </trkpt>
      <trkpt lat="44.36345" lon="3.55113">
        <ele>673</ele>
        <time>2016-04-29T08:23:46Z</time>
      </trkpt>
      <trkpt lat="44.36346" lon="3.5512">
        <ele>673</ele>
        <time>2016-04-29T08:23:56Z</time>
      </trkpt>
      <trkpt lat="44.36351" lon="3.5512">
        <ele>673</ele>
        <time>2016-04-29T08:24:00Z</time>
      </trkpt>
      <trkpt lat="44.36355" lon="3.55119">
        <ele>673</ele>
        <time>2016-04-29T08:24:04Z</time>
      </trkpt>
      <trkpt lat="44.36374" lon="3.55115">
        <ele>665</ele>
        <time>2016-04-29T08:24:31Z</time>
      </trkpt>
      <trkpt lat="44.36395" lon="3.55121">
        <ele>655</ele>
        <time>2016-04-29T08:25:03Z</time>
      </trkpt>
      <trkpt lat="44.364" lon="3.55121">
        <ele>656</ele>
        <time>2016-04-29T08:25:08Z</time>
      </trkpt>
      <trkpt lat="44.36404" lon="3.55119">
        <ele>656</ele>
        <time>2016-04-29T08:25:14Z</time>
      </trkpt>
      <trkpt lat="44.36424" lon="3.55115">
        <ele>653</ele>
        <time>2016-04-29T08:25:38Z</time>
      </trkpt>
      <trkpt lat="44.36429" lon="3.55113">
        <ele>653</ele>
        <time>2016-04-29T08:25:44Z</time>
      </trkpt>
      <trkpt lat="44.36434" lon="3.55111">
        <ele>652</ele>
        <time>2016-04-29T08:25:50Z</time>
      </trkpt>
      <trkpt lat="44.36444" lon="3.5511">
        <ele>649</ele>
        <time>2016-04-29T08:26:02Z</time>
      </trkpt>
      <trkpt lat="44.36449" lon="3.55109">
        <ele>648</ele>
        <time>2016-04-29T08:26:09Z</time>
      </trkpt>
      <trkpt lat="44.36454" lon="3.55107">
        <ele>649</ele>
        <time>2016-04-29T08:26:15Z</time>
      </trkpt>
      <trkpt lat="44.36459" lon="3.55105">
        <ele>648</ele>
        <time>2016-04-29T08:26:20Z</time>
      </trkpt>
      <trkpt lat="44.36464" lon="3.55105">
        <ele>648</ele>
        <time>2016-04-29T08:26:25Z</time>
      </trkpt>
      <trkpt lat="44.36469" lon="3.55105">
        <ele>648</ele>
        <time>2016-04-29T08:26:30Z</time>
      </trkpt>
      <trkpt lat="44.36474" lon="3.55103">
        <ele>647</ele>
        <time>2016-04-29T08:26:35Z</time>
      </trkpt>
      <trkpt lat="44.36483" lon="3.55101">
        <ele>648</ele>
        <time>2016-04-29T08:26:47Z</time>
      </trkpt>
      <trkpt lat="44.36501" lon="3.55094">
        <ele>642</ele>
        <time>2016-04-29T08:27:14Z</time>
      </trkpt>
      <trkpt lat="44.36507" lon="3.55094">
        <ele>642</ele>
        <time>2016-04-29T08:27:19Z</time>
      </trkpt>
      <trkpt lat="44.36532" lon="3.55098">
        <ele>636</ele>
        <time>2016-04-29T08:27:41Z</time>
      </trkpt>
      <trkpt lat="44.36537" lon="3.551">
        <ele>636</ele>
        <time>2016-04-29T08:27:46Z</time>
      </trkpt>
      <trkpt lat="44.36557" lon="3.55101">
        <ele>631</ele>
        <time>2016-04-29T08:28:04Z</time>
      </trkpt>
      <trkpt lat="44.36562" lon="3.55101">
        <ele>631</ele>
        <time>2016-04-29T08:28:08Z</time>
      </trkpt>
      <trkpt lat="44.36572" lon="3.55099">
        <ele>633</ele>
        <time>2016-04-29T08:28:19Z</time>
      </trkpt>
      <trkpt lat="44.36576" lon="3.55102">
        <ele>633</ele>
        <time>2016-04-29T08:28:25Z</time>
      </trkpt>
      <trkpt lat="44.36581" lon="3.55099">
        <ele>632</ele>
        <time>2016-04-29T08:28:31Z</time>
      </trkpt>
      <trkpt lat="44.36584" lon="3.55102">
        <ele>630</ele>
        <time>2016-04-29T08:28:55Z</time>
      </trkpt>
      <trkpt lat="44.36589" lon="3.55101">
        <ele>630</ele>
        <time>2016-04-29T08:29:01Z</time>
      </trkpt>
      <trkpt lat="44.36598" lon="3.55103">
        <ele>631</ele>
        <time>2016-04-29T08:29:17Z</time>
      </trkpt>
      <trkpt lat="44.36601" lon="3.55108">
        <ele>632</ele>
        <time>2016-04-29T08:29:25Z</time>
      </trkpt>
      <trkpt lat="44.36607" lon="3.5511">
        <ele>631</ele>
        <time>2016-04-29T08:29:32Z</time>
      </trkpt>
      <trkpt lat="44.36629" lon="3.55124">
        <ele>625</ele>
        <time>2016-04-29T08:30:04Z</time>
      </trkpt>
      <trkpt lat="44.36636" lon="3.55126">
        <ele>624</ele>
        <time>2016-04-29T08:30:16Z</time>
      </trkpt>
      <trkpt lat="44.36639" lon="3.55129">
        <ele>621</ele>
        <time>2016-04-29T08:30:45Z</time>
      </trkpt>
      <trkpt lat="44.36651" lon="3.55154">
        <ele>615</ele>
        <time>2016-04-29T08:31:36Z</time>
      </trkpt>
      <trkpt lat="44.36648" lon="3.55155">
        <ele>615</ele>
        <time>2016-04-29T08:31:44Z</time>
      </trkpt>
      <trkpt lat="44.36643" lon="3.55157">
        <ele>615</ele>
        <time>2016-04-29T08:31:49Z</time>
      </trkpt>
      <trkpt lat="44.36631" lon="3.55168">
        <ele>610</ele>
        <time>2016-04-29T08:32:21Z</time>
      </trkpt>
      <trkpt lat="44.36631" lon="3.55172">
        <ele>609</ele>
        <time>2016-04-29T08:32:28Z</time>
      </trkpt>
      <trkpt lat="44.36628" lon="3.55174">
        <ele>608</ele>
        <time>2016-04-29T08:32:34Z</time>
      </trkpt>
      <trkpt lat="44.36625" lon="3.55178">
        <ele>607</ele>
        <time>2016-04-29T08:32:41Z</time>
      </trkpt>
      <trkpt lat="44.36622" lon="3.55175">
        <ele>607</ele>
        <time>2016-04-29T08:33:01Z</time>
      </trkpt>
      <trkpt lat="44.36625" lon="3.55172">
        <ele>610</ele>
        <time>2016-04-29T08:34:37Z</time>
      </trkpt>
      <trkpt lat="44.36628" lon="3.55177">
        <ele>609</ele>
        <time>2016-04-29T08:34:46Z</time>
      </trkpt>
      <trkpt lat="44.36631" lon="3.55181">
        <ele>609</ele>
        <time>2016-04-29T08:34:58Z</time>
      </trkpt>
      <trkpt lat="44.36633" lon="3.55187">
        <ele>609</ele>
        <time>2016-04-29T08:35:07Z</time>
      </trkpt>
      <trkpt lat="44.36632" lon="3.55186">
        <ele>609</ele>
        <time>2016-04-29T08:35:23Z</time>
      </trkpt>
      <trkpt lat="44.36628" lon="3.55182">
        <ele>610</ele>
        <time>2016-04-29T08:35:31Z</time>
      </trkpt>
      <trkpt lat="44.36625" lon="3.55178">
        <ele>609</ele>
        <time>2016-04-29T08:35:39Z</time>
      </trkpt>
      <trkpt lat="44.36623" lon="3.55172">
        <ele>608</ele>
        <time>2016-04-29T08:35:47Z</time>
      </trkpt>
      <trkpt lat="44.36628" lon="3.55169">
        <ele>608</ele>
        <time>2016-04-29T08:35:59Z</time>
      </trkpt>
      <trkpt lat="44.36632" lon="3.55172">
        <ele>608</ele>
        <time>2016-04-29T08:36:08Z</time>
      </trkpt>
      <trkpt lat="44.36657" lon="3.55173">
        <ele>612</ele>
        <time>2016-04-29T08:36:42Z</time>
      </trkpt>
      <trkpt lat="44.36672" lon="3.55173">
        <ele>613</ele>
        <time>2016-04-29T08:37:01Z</time>
      </trkpt>
      <trkpt lat="44.36677" lon="3.55169">
        <ele>613</ele>
        <time>2016-04-29T08:37:07Z</time>
      </trkpt>
      <trkpt lat="44.36681" lon="3.55166">
        <ele>613</ele>
        <time>2016-04-29T08:37:11Z</time>
      </trkpt>
      <trkpt lat="44.36686" lon="3.55164">
        <ele>613</ele>
        <time>2016-04-29T08:37:16Z</time>
      </trkpt>
      <trkpt lat="44.36691" lon="3.55164">
        <ele>613</ele>
        <time>2016-04-29T08:37:21Z</time>
      </trkpt>
      <trkpt lat="44.3669" lon="3.55171">
        <ele>613</ele>
        <time>2016-04-29T08:37:29Z</time>
      </trkpt>
      <trkpt lat="44.36677" lon="3.55191">
        <ele>611</ele>
        <time>2016-04-29T08:38:04Z</time>
      </trkpt>
      <trkpt lat="44.36666" lon="3.55207">
        <ele>605</ele>
        <time>2016-04-29T08:38:22Z</time>
      </trkpt>
      <trkpt lat="44.36649" lon="3.55219">
        <ele>600</ele>
        <time>2016-04-29T08:38:39Z</time>
      </trkpt>
      <trkpt lat="44.36644" lon="3.55223">
        <ele>600</ele>
        <time>2016-04-29T08:38:44Z</time>
      </trkpt>
      <trkpt lat="44.36639" lon="3.55224">
        <ele>599</ele>
        <time>2016-04-29T08:38:49Z</time>
      </trkpt>
      <trkpt lat="44.36634" lon="3.55223">
        <ele>600</ele>
        <time>2016-04-29T08:38:54Z</time>
      </trkpt>
      <trkpt lat="44.36629" lon="3.55223">
        <ele>599</ele>
        <time>2016-04-29T08:38:57Z</time>
      </trkpt>
      <trkpt lat="44.36614" lon="3.55217">
        <ele>600</ele>
        <time>2016-04-29T08:39:09Z</time>
      </trkpt>
      <trkpt lat="44.36606" lon="3.55211">
        <ele>601</ele>
        <time>2016-04-29T08:39:22Z</time>
      </trkpt>
      <trkpt lat="44.3659" lon="3.5521">
        <ele>602</ele>
        <time>2016-04-29T08:39:36Z</time>
      </trkpt>
      <trkpt lat="44.36576" lon="3.55208">
        <ele>602</ele>
        <time>2016-04-29T08:39:49Z</time>
      </trkpt>
      <trkpt lat="44.36571" lon="3.55209">
        <ele>602</ele>
        <time>2016-04-29T08:39:54Z</time>
      </trkpt>
      <trkpt lat="44.36566" lon="3.55211">
        <ele>602</ele>
        <time>2016-04-29T08:39:59Z</time>
      </trkpt>
      <trkpt lat="44.36561" lon="3.55212">
        <ele>602</ele>
        <time>2016-04-29T08:40:04Z</time>
      </trkpt>
      <trkpt lat="44.36545" lon="3.55211">
        <ele>602</ele>
        <time>2016-04-29T08:40:19Z</time>
      </trkpt>
      <trkpt lat="44.36512" lon="3.5521">
        <ele>599</ele>
        <time>2016-04-29T08:40:42Z</time>
      </trkpt>
      <trkpt lat="44.36507" lon="3.55213">
        <ele>600</ele>
        <time>2016-04-29T08:40:47Z</time>
      </trkpt>
      <trkpt lat="44.36503" lon="3.55217">
        <ele>599</ele>
        <time>2016-04-29T08:40:52Z</time>
      </trkpt>
      <trkpt lat="44.36478" lon="3.55253">
        <ele>595</ele>
        <time>2016-04-29T08:41:25Z</time>
      </trkpt>
      <trkpt lat="44.36474" lon="3.55256">
        <ele>594</ele>
        <time>2016-04-29T08:41:29Z</time>
      </trkpt>
      <trkpt lat="44.36468" lon="3.55267">
        <ele>596</ele>
        <time>2016-04-29T08:41:37Z</time>
      </trkpt>
      <trkpt lat="44.36446" lon="3.55285">
        <ele>596</ele>
        <time>2016-04-29T08:42:01Z</time>
      </trkpt>
      <trkpt lat="44.3643" lon="3.55301">
        <ele>593</ele>
        <time>2016-04-29T08:42:20Z</time>
      </trkpt>
      <trkpt lat="44.36425" lon="3.55304">
        <ele>593</ele>
        <time>2016-04-29T08:42:32Z</time>
      </trkpt>
      <trkpt lat="44.36421" lon="3.55307">
        <ele>593</ele>
        <time>2016-04-29T08:42:36Z</time>
      </trkpt>
      <trkpt lat="44.36416" lon="3.5531">
        <ele>591</ele>
        <time>2016-04-29T08:42:41Z</time>
      </trkpt>
      <trkpt lat="44.36405" lon="3.55325">
        <ele>589</ele>
        <time>2016-04-29T08:42:55Z</time>
      </trkpt>
      <trkpt lat="44.36399" lon="3.55336">
        <ele>586</ele>
        <time>2016-04-29T08:43:05Z</time>
      </trkpt>
      <trkpt lat="44.36369" lon="3.55373">
        <ele>576</ele>
        <time>2016-04-29T08:43:37Z</time>
      </trkpt>
      <trkpt lat="44.36365" lon="3.55378">
        <ele>576</ele>
        <time>2016-04-29T08:43:41Z</time>
      </trkpt>
      <trkpt lat="44.36352" lon="3.55392">
        <ele>577</ele>
        <time>2016-04-29T08:43:53Z</time>
      </trkpt>
      <trkpt lat="44.36336" lon="3.55408">
        <ele>575</ele>
        <time>2016-04-29T08:44:11Z</time>
      </trkpt>
      <trkpt lat="44.36331" lon="3.55413">
        <ele>575</ele>
        <time>2016-04-29T08:44:16Z</time>
      </trkpt>
      <trkpt lat="44.36307" lon="3.55415">
        <ele>575</ele>
        <time>2016-04-29T08:44:36Z</time>
      </trkpt>
      <trkpt lat="44.36303" lon="3.55419">
        <ele>575</ele>
        <time>2016-04-29T08:44:41Z</time>
      </trkpt>
      <trkpt lat="44.36297" lon="3.55421">
        <ele>576</ele>
        <time>2016-04-29T08:44:46Z</time>
      </trkpt>
      <trkpt lat="44.36295" lon="3.55421">
        <ele>577</ele>
        <time>2016-04-29T08:44:52Z</time>
      </trkpt>
      <trkpt lat="44.36293" lon="3.55427">
        <ele>580</ele>
        <time>2016-04-29T08:45:01Z</time>
      </trkpt>
      <trkpt lat="44.36287" lon="3.55427">
        <ele>580</ele>
        <time>2016-04-29T08:45:06Z</time>
      </trkpt>
      <trkpt lat="44.36262" lon="3.55431">
        <ele>574</ele>
        <time>2016-04-29T08:45:26Z</time>
      </trkpt>
      <trkpt lat="44.36258" lon="3.55437">
        <ele>574</ele>
        <time>2016-04-29T08:45:32Z</time>
      </trkpt>
      <trkpt lat="44.36254" lon="3.5544">
        <ele>574</ele>
        <time>2016-04-29T08:45:36Z</time>
      </trkpt>
      <trkpt lat="44.36246" lon="3.5545">
        <ele>569</ele>
        <time>2016-04-29T08:45:45Z</time>
      </trkpt>
      <trkpt lat="44.36242" lon="3.55463">
        <ele>564</ele>
        <time>2016-04-29T08:45:56Z</time>
      </trkpt>
      <trkpt lat="44.36242" lon="3.5547">
        <ele>563</ele>
        <time>2016-04-29T08:46:01Z</time>
      </trkpt>
      <trkpt lat="44.36242" lon="3.55476">
        <ele>564</ele>
        <time>2016-04-29T08:46:06Z</time>
      </trkpt>
      <trkpt lat="44.36239" lon="3.55482">
        <ele>563</ele>
        <time>2016-04-29T08:46:11Z</time>
      </trkpt>
      <trkpt lat="44.36235" lon="3.55485">
        <ele>563</ele>
        <time>2016-04-29T08:46:15Z</time>
      </trkpt>
      <trkpt lat="44.36226" lon="3.55492">
        <ele>560</ele>
        <time>2016-04-29T08:46:23Z</time>
      </trkpt>
      <trkpt lat="44.36214" lon="3.55507">
        <ele>559</ele>
        <time>2016-04-29T08:46:36Z</time>
      </trkpt>
      <trkpt lat="44.36209" lon="3.55511">
        <ele>559</ele>
        <time>2016-04-29T08:46:40Z</time>
      </trkpt>
      <trkpt lat="44.36204" lon="3.55512">
        <ele>559</ele>
        <time>2016-04-29T08:46:44Z</time>
      </trkpt>
      <trkpt lat="44.36199" lon="3.55511">
        <ele>559</ele>
        <time>2016-04-29T08:46:50Z</time>
      </trkpt>
      <trkpt lat="44.3618" lon="3.5549">
        <ele>555</ele>
        <time>2016-04-29T08:47:11Z</time>
      </trkpt>
      <trkpt lat="44.36177" lon="3.55485">
        <ele>555</ele>
        <time>2016-04-29T08:47:15Z</time>
      </trkpt>
      <trkpt lat="44.36173" lon="3.55481">
        <ele>555</ele>
        <time>2016-04-29T08:47:19Z</time>
      </trkpt>
      <trkpt lat="44.36152" lon="3.55465">
        <ele>559</ele>
        <time>2016-04-29T08:47:41Z</time>
      </trkpt>
      <trkpt lat="44.36147" lon="3.55464">
        <ele>559</ele>
        <time>2016-04-29T08:47:47Z</time>
      </trkpt>
      <trkpt lat="44.36146" lon="3.5547">
        <ele>559</ele>
        <time>2016-04-29T08:47:54Z</time>
      </trkpt>
      <trkpt lat="44.36143" lon="3.55483">
        <ele>558</ele>
        <time>2016-04-29T08:48:08Z</time>
      </trkpt>
      <trkpt lat="44.36139" lon="3.55488">
        <ele>556</ele>
        <time>2016-04-29T08:48:13Z</time>
      </trkpt>
      <trkpt lat="44.36135" lon="3.55491">
        <ele>556</ele>
        <time>2016-04-29T08:48:17Z</time>
      </trkpt>
      <trkpt lat="44.36121" lon="3.5551">
        <ele>559</ele>
        <time>2016-04-29T08:48:36Z</time>
      </trkpt>
      <trkpt lat="44.36123" lon="3.55516">
        <ele>560</ele>
        <time>2016-04-29T08:48:42Z</time>
      </trkpt>
      <trkpt lat="44.36125" lon="3.55522">
        <ele>560</ele>
        <time>2016-04-29T08:48:46Z</time>
      </trkpt>
      <trkpt lat="44.36126" lon="3.55528">
        <ele>559</ele>
        <time>2016-04-29T08:48:50Z</time>
      </trkpt>
      <trkpt lat="44.36123" lon="3.55535">
        <ele>560</ele>
        <time>2016-04-29T08:48:54Z</time>
      </trkpt>
      <trkpt lat="44.36119" lon="3.55538">
        <ele>561</ele>
        <time>2016-04-29T08:48:59Z</time>
      </trkpt>
      <trkpt lat="44.36116" lon="3.55543">
        <ele>560</ele>
        <time>2016-04-29T08:49:04Z</time>
      </trkpt>
      <trkpt lat="44.36111" lon="3.55547">
        <ele>560</ele>
        <time>2016-04-29T08:49:09Z</time>
      </trkpt>
      <trkpt lat="44.36107" lon="3.55551">
        <ele>561</ele>
        <time>2016-04-29T08:49:14Z</time>
      </trkpt>
      <trkpt lat="44.36102" lon="3.55554">
        <ele>560</ele>
        <time>2016-04-29T08:49:18Z</time>
      </trkpt>
      <trkpt lat="44.36091" lon="3.55567">
        <ele>562</ele>
        <time>2016-04-29T08:49:31Z</time>
      </trkpt>
      <trkpt lat="44.36084" lon="3.55585">
        <ele>559</ele>
        <time>2016-04-29T08:49:43Z</time>
      </trkpt>
      <trkpt lat="44.36081" lon="3.55591">
        <ele>559</ele>
        <time>2016-04-29T08:49:47Z</time>
      </trkpt>
      <trkpt lat="44.36077" lon="3.55596">
        <ele>559</ele>
        <time>2016-04-29T08:49:52Z</time>
      </trkpt>
      <trkpt lat="44.36073" lon="3.55599">
        <ele>560</ele>
        <time>2016-04-29T08:49:56Z</time>
      </trkpt>
      <trkpt lat="44.36069" lon="3.55601">
        <ele>560</ele>
        <time>2016-04-29T08:50:00Z</time>
      </trkpt>
      <trkpt lat="44.36064" lon="3.55604">
        <ele>559</ele>
        <time>2016-04-29T08:50:04Z</time>
      </trkpt>
      <trkpt lat="44.3606" lon="3.55607">
        <ele>559</ele>
        <time>2016-04-29T08:50:08Z</time>
      </trkpt>
      <trkpt lat="44.36049" lon="3.55621">
        <ele>561</ele>
        <time>2016-04-29T08:50:23Z</time>
      </trkpt>
      <trkpt lat="44.36046" lon="3.55626">
        <ele>561</ele>
        <time>2016-04-29T08:50:29Z</time>
      </trkpt>
      <trkpt lat="44.36038" lon="3.55635">
        <ele>561</ele>
        <time>2016-04-29T08:50:39Z</time>
      </trkpt>
      <trkpt lat="44.36033" lon="3.55639">
        <ele>559</ele>
        <time>2016-04-29T08:50:43Z</time>
      </trkpt>
      <trkpt lat="44.36028" lon="3.55642">
        <ele>558</ele>
        <time>2016-04-29T08:50:47Z</time>
      </trkpt>
      <trkpt lat="44.36024" lon="3.55645">
        <ele>559</ele>
        <time>2016-04-29T08:50:52Z</time>
      </trkpt>
      <trkpt lat="44.3602" lon="3.55648">
        <ele>558</ele>
        <time>2016-04-29T08:50:57Z</time>
      </trkpt>
      <trkpt lat="44.36015" lon="3.5565">
        <ele>559</ele>
        <time>2016-04-29T08:51:01Z</time>
      </trkpt>
      <trkpt lat="44.3601" lon="3.55653">
        <ele>558</ele>
        <time>2016-04-29T08:51:05Z</time>
      </trkpt>
      <trkpt lat="44.36007" lon="3.55658">
        <ele>557</ele>
        <time>2016-04-29T08:51:10Z</time>
      </trkpt>
      <trkpt lat="44.36002" lon="3.55661">
        <ele>557</ele>
        <time>2016-04-29T08:51:15Z</time>
      </trkpt>
      <trkpt lat="44.35998" lon="3.55665">
        <ele>557</ele>
        <time>2016-04-29T08:51:21Z</time>
      </trkpt>
      <trkpt lat="44.35994" lon="3.55668">
        <ele>557</ele>
        <time>2016-04-29T08:51:27Z</time>
      </trkpt>
      <trkpt lat="44.35983" lon="3.55668">
        <ele>557</ele>
        <time>2016-04-29T08:51:35Z</time>
      </trkpt>
      <trkpt lat="44.35978" lon="3.55667">
        <ele>558</ele>
        <time>2016-04-29T08:51:39Z</time>
      </trkpt>
      <trkpt lat="44.35973" lon="3.55666">
        <ele>559</ele>
        <time>2016-04-29T08:51:44Z</time>
      </trkpt>
      <trkpt lat="44.35968" lon="3.55664">
        <ele>559</ele>
        <time>2016-04-29T08:51:49Z</time>
      </trkpt>
      <trkpt lat="44.35958" lon="3.55661">
        <ele>559</ele>
        <time>2016-04-29T08:51:59Z</time>
      </trkpt>
      <trkpt lat="44.35939" lon="3.55666">
        <ele>556</ele>
        <time>2016-04-29T08:52:16Z</time>
      </trkpt>
      <trkpt lat="44.35925" lon="3.55684">
        <ele>553</ele>
        <time>2016-04-29T08:52:30Z</time>
      </trkpt>
      <trkpt lat="44.35925" lon="3.55691">
        <ele>553</ele>
        <time>2016-04-29T08:52:35Z</time>
      </trkpt>
      <trkpt lat="44.35929" lon="3.55696">
        <ele>553</ele>
        <time>2016-04-29T08:52:41Z</time>
      </trkpt>
      <trkpt lat="44.35933" lon="3.557">
        <ele>552</ele>
        <time>2016-04-29T08:52:46Z</time>
      </trkpt>
      <trkpt lat="44.35938" lon="3.55703">
        <ele>552</ele>
        <time>2016-04-29T08:52:54Z</time>
      </trkpt>
      <trkpt lat="44.35941" lon="3.55708">
        <ele>552</ele>
        <time>2016-04-29T08:52:58Z</time>
      </trkpt>
      <trkpt lat="44.35944" lon="3.55714">
        <ele>552</ele>
        <time>2016-04-29T08:53:02Z</time>
      </trkpt>
      <trkpt lat="44.35949" lon="3.55726">
        <ele>553</ele>
        <time>2016-04-29T08:53:12Z</time>
      </trkpt>
      <trkpt lat="44.35949" lon="3.55734">
        <ele>553</ele>
        <time>2016-04-29T08:53:17Z</time>
      </trkpt>
      <trkpt lat="44.35952" lon="3.55739">
        <ele>554</ele>
        <time>2016-04-29T08:53:22Z</time>
      </trkpt>
      <trkpt lat="44.35952" lon="3.55753">
        <ele>554</ele>
        <time>2016-04-29T08:53:33Z</time>
      </trkpt>
      <trkpt lat="44.35951" lon="3.55761">
        <ele>554</ele>
        <time>2016-04-29T08:53:38Z</time>
      </trkpt>
      <trkpt lat="44.35948" lon="3.55767">
        <ele>553</ele>
        <time>2016-04-29T08:53:42Z</time>
      </trkpt>
      <trkpt lat="44.35947" lon="3.55773">
        <ele>553</ele>
        <time>2016-04-29T08:53:46Z</time>
      </trkpt>
      <trkpt lat="44.35945" lon="3.55779">
        <ele>553</ele>
        <time>2016-04-29T08:53:50Z</time>
      </trkpt>
      <trkpt lat="44.35943" lon="3.55792">
        <ele>552</ele>
        <time>2016-04-29T08:54:00Z</time>
      </trkpt>
      <trkpt lat="44.35944" lon="3.55799">
        <ele>552</ele>
        <time>2016-04-29T08:54:06Z</time>
      </trkpt>
      <trkpt lat="44.35944" lon="3.55803">
        <ele>553</ele>
        <time>2016-04-29T08:54:13Z</time>
      </trkpt>
      <trkpt lat="44.3594" lon="3.55809">
        <ele>552</ele>
        <time>2016-04-29T08:54:24Z</time>
      </trkpt>
      <trkpt lat="44.35938" lon="3.55815">
        <ele>552</ele>
        <time>2016-04-29T08:54:28Z</time>
      </trkpt>
      <trkpt lat="44.35935" lon="3.55822">
        <ele>552</ele>
        <time>2016-04-29T08:54:32Z</time>
      </trkpt>
      <trkpt lat="44.35932" lon="3.55834">
        <ele>553</ele>
        <time>2016-04-29T08:54:41Z</time>
      </trkpt>
      <trkpt lat="44.35929" lon="3.5584">
        <ele>553</ele>
        <time>2016-04-29T08:54:46Z</time>
      </trkpt>
      <trkpt lat="44.3593" lon="3.55847">
        <ele>553</ele>
        <time>2016-04-29T08:54:51Z</time>
      </trkpt>
      <trkpt lat="44.35933" lon="3.55853">
        <ele>555</ele>
        <time>2016-04-29T08:54:56Z</time>
      </trkpt>
      <trkpt lat="44.35933" lon="3.5586">
        <ele>555</ele>
        <time>2016-04-29T08:55:01Z</time>
      </trkpt>
      <trkpt lat="44.35933" lon="3.55867">
        <ele>554</ele>
        <time>2016-04-29T08:55:06Z</time>
      </trkpt>
      <trkpt lat="44.35919" lon="3.55902">
        <ele>555</ele>
        <time>2016-04-29T08:55:35Z</time>
      </trkpt>
      <trkpt lat="44.35902" lon="3.55918">
        <ele>558</ele>
        <time>2016-04-29T08:55:54Z</time>
      </trkpt>
      <trkpt lat="44.35895" lon="3.55936">
        <ele>557</ele>
        <time>2016-04-29T08:56:09Z</time>
      </trkpt>
      <trkpt lat="44.35891" lon="3.55948">
        <ele>558</ele>
        <time>2016-04-29T08:56:19Z</time>
      </trkpt>
      <trkpt lat="44.35887" lon="3.55953">
        <ele>557</ele>
        <time>2016-04-29T08:56:25Z</time>
      </trkpt>
      <trkpt lat="44.35876" lon="3.55966">
        <ele>559</ele>
        <time>2016-04-29T08:56:40Z</time>
      </trkpt>
      <trkpt lat="44.35867" lon="3.55972">
        <ele>557</ele>
        <time>2016-04-29T08:56:50Z</time>
      </trkpt>
      <trkpt lat="44.35844" lon="3.55984">
        <ele>563</ele>
        <time>2016-04-29T08:57:19Z</time>
      </trkpt>
      <trkpt lat="44.35834" lon="3.55986">
        <ele>563</ele>
        <time>2016-04-29T08:57:30Z</time>
      </trkpt>
      <trkpt lat="44.35824" lon="3.55991">
        <ele>563</ele>
        <time>2016-04-29T08:57:42Z</time>
      </trkpt>
      <trkpt lat="44.35814" lon="3.56014">
        <ele>567</ele>
        <time>2016-04-29T08:58:10Z</time>
      </trkpt>
      <trkpt lat="44.35813" lon="3.56021">
        <ele>568</ele>
        <time>2016-04-29T08:58:17Z</time>
      </trkpt>
      <trkpt lat="44.35807" lon="3.56032">
        <ele>569</ele>
        <time>2016-04-29T08:58:29Z</time>
      </trkpt>
      <trkpt lat="44.35793" lon="3.56059">
        <ele>576</ele>
        <time>2016-04-29T08:59:02Z</time>
      </trkpt>
      <trkpt lat="44.35791" lon="3.56066">
        <ele>576</ele>
        <time>2016-04-29T08:59:09Z</time>
      </trkpt>
      <trkpt lat="44.3579" lon="3.56073">
        <ele>577</ele>
        <time>2016-04-29T08:59:18Z</time>
      </trkpt>
      <trkpt lat="44.3579" lon="3.56081">
        <ele>577</ele>
        <time>2016-04-29T08:59:30Z</time>
      </trkpt>
      <trkpt lat="44.35791" lon="3.56087">
        <ele>579</ele>
        <time>2016-04-29T08:59:36Z</time>
      </trkpt>
      <trkpt lat="44.35792" lon="3.56091">
        <ele>579</ele>
        <time>2016-04-29T08:59:42Z</time>
      </trkpt>
      <trkpt lat="44.35795" lon="3.56097">
        <ele>579</ele>
        <time>2016-04-29T08:59:54Z</time>
      </trkpt>
      <trkpt lat="44.35808" lon="3.56107">
        <ele>583</ele>
        <time>2016-04-29T09:00:15Z</time>
      </trkpt>
      <trkpt lat="44.35813" lon="3.5611">
        <ele>583</ele>
        <time>2016-04-29T09:00:24Z</time>
      </trkpt>
      <trkpt lat="44.35823" lon="3.56111">
        <ele>581</ele>
        <time>2016-04-29T09:00:33Z</time>
      </trkpt>
      <trkpt lat="44.3583" lon="3.56121">
        <ele>586</ele>
        <time>2016-04-29T09:00:46Z</time>
      </trkpt>
      <trkpt lat="44.35833" lon="3.56127">
        <ele>588</ele>
        <time>2016-04-29T09:00:53Z</time>
      </trkpt>
      <trkpt lat="44.35833" lon="3.56133">
        <ele>589</ele>
        <time>2016-04-29T09:00:59Z</time>
      </trkpt>
      <trkpt lat="44.35837" lon="3.56136">
        <ele>589</ele>
        <time>2016-04-29T09:01:08Z</time>
      </trkpt>
      <trkpt lat="44.35841" lon="3.56135">
        <ele>589</ele>
        <time>2016-04-29T09:01:14Z</time>
      </trkpt>
      <trkpt lat="44.35844" lon="3.5613">
        <ele>588</ele>
        <time>2016-04-29T09:01:23Z</time>
      </trkpt>
      <trkpt lat="44.35842" lon="3.5613">
        <ele>586</ele>
        <time>2016-04-29T09:01:57Z</time>
      </trkpt>
      <trkpt lat="44.35838" lon="3.56135">
        <ele>587</ele>
        <time>2016-04-29T09:02:48Z</time>
      </trkpt>
      <trkpt lat="44.35834" lon="3.56129">
        <ele>586</ele>
        <time>2016-04-29T09:03:10Z</time>
      </trkpt>
      <trkpt lat="44.35831" lon="3.56124">
        <ele>585</ele>
        <time>2016-04-29T09:03:14Z</time>
      </trkpt>
      <trkpt lat="44.35827" lon="3.56119">
        <ele>585</ele>
        <time>2016-04-29T09:03:19Z</time>
      </trkpt>
      <trkpt lat="44.35818" lon="3.56119">
        <ele>584</ele>
        <time>2016-04-29T09:03:29Z</time>
      </trkpt>
      <trkpt lat="44.35813" lon="3.56112">
        <ele>583</ele>
        <time>2016-04-29T09:03:37Z</time>
      </trkpt>
      <trkpt lat="44.35809" lon="3.56108">
        <ele>583</ele>
        <time>2016-04-29T09:03:42Z</time>
      </trkpt>
      <trkpt lat="44.358" lon="3.56102">
        <ele>584</ele>
        <time>2016-04-29T09:03:51Z</time>
      </trkpt>
      <trkpt lat="44.35796" lon="3.561">
        <ele>584</ele>
        <time>2016-04-29T09:03:55Z</time>
      </trkpt>
      <trkpt lat="44.35788" lon="3.56092">
        <ele>581</ele>
        <time>2016-04-29T09:04:05Z</time>
      </trkpt>
      <trkpt lat="44.35784" lon="3.56089">
        <ele>581</ele>
        <time>2016-04-29T09:04:10Z</time>
      </trkpt>
      <trkpt lat="44.3577" lon="3.5607">
        <ele>578</ele>
        <time>2016-04-29T09:04:34Z</time>
      </trkpt>
      <trkpt lat="44.35764" lon="3.56058">
        <ele>579</ele>
        <time>2016-04-29T09:04:44Z</time>
      </trkpt>
      <trkpt lat="44.35756" lon="3.5605">
        <ele>580</ele>
        <time>2016-04-29T09:04:54Z</time>
      </trkpt>
      <trkpt lat="44.35751" lon="3.56048">
        <ele>580</ele>
        <time>2016-04-29T09:05:01Z</time>
      </trkpt>
      <trkpt lat="44.35748" lon="3.56043">
        <ele>580</ele>
        <time>2016-04-29T09:05:08Z</time>
      </trkpt>
      <trkpt lat="44.35746" lon="3.56037">
        <ele>580</ele>
        <time>2016-04-29T09:05:13Z</time>
      </trkpt>
      <trkpt lat="44.35743" lon="3.56033">
        <ele>580</ele>
        <time>2016-04-29T09:05:21Z</time>
      </trkpt>
      <trkpt lat="44.35742" lon="3.56032">
        <ele>580</ele>
        <time>2016-04-29T09:05:39Z</time>
      </trkpt>
      <trkpt lat="44.35738" lon="3.56028">
        <ele>581</ele>
        <time>2016-04-29T09:05:51Z</time>
      </trkpt>
      <trkpt lat="44.35735" lon="3.56023">
        <ele>582</ele>
        <time>2016-04-29T09:05:57Z</time>
      </trkpt>
      <trkpt lat="44.35732" lon="3.56019">
        <ele>584</ele>
        <time>2016-04-29T09:06:05Z</time>
      </trkpt>
      <trkpt lat="44.35724" lon="3.56012">
        <ele>586</ele>
        <time>2016-04-29T09:06:18Z</time>
      </trkpt>
      <trkpt lat="44.35723" lon="3.56007">
        <ele>587</ele>
        <time>2016-04-29T09:06:27Z</time>
      </trkpt>
      <trkpt lat="44.35718" lon="3.56006">
        <ele>588</ele>
        <time>2016-04-29T09:06:59Z</time>
      </trkpt>
      <trkpt lat="44.35696" lon="3.55993">
        <ele>597</ele>
        <time>2016-04-29T09:07:36Z</time>
      </trkpt>
      <trkpt lat="44.35692" lon="3.55991">
        <ele>598</ele>
        <time>2016-04-29T09:07:43Z</time>
      </trkpt>
      <trkpt lat="44.3569" lon="3.55988">
        <ele>599</ele>
        <time>2016-04-29T09:07:54Z</time>
      </trkpt>
      <trkpt lat="44.35686" lon="3.55987">
        <ele>601</ele>
        <time>2016-04-29T09:07:59Z</time>
      </trkpt>
      <trkpt lat="44.35676" lon="3.55988">
        <ele>601</ele>
        <time>2016-04-29T09:08:09Z</time>
      </trkpt>
      <trkpt lat="44.35656" lon="3.55983">
        <ele>600</ele>
        <time>2016-04-29T09:08:30Z</time>
      </trkpt>
      <trkpt lat="44.35645" lon="3.55983">
        <ele>601</ele>
        <time>2016-04-29T09:08:37Z</time>
      </trkpt>
      <trkpt lat="44.3564" lon="3.55982">
        <ele>602</ele>
        <time>2016-04-29T09:08:41Z</time>
      </trkpt>
      <trkpt lat="44.3563" lon="3.55979">
        <ele>603</ele>
        <time>2016-04-29T09:08:52Z</time>
      </trkpt>
      <trkpt lat="44.35625" lon="3.55979">
        <ele>603</ele>
        <time>2016-04-29T09:08:56Z</time>
      </trkpt>
      <trkpt lat="44.3562" lon="3.55978">
        <ele>602</ele>
        <time>2016-04-29T09:09:00Z</time>
      </trkpt>
      <trkpt lat="44.35615" lon="3.55977">
        <ele>603</ele>
        <time>2016-04-29T09:09:05Z</time>
      </trkpt>
      <trkpt lat="44.35605" lon="3.55978">
        <ele>603</ele>
        <time>2016-04-29T09:09:16Z</time>
      </trkpt>
      <trkpt lat="44.356" lon="3.55979">
        <ele>603</ele>
        <time>2016-04-29T09:09:24Z</time>
      </trkpt>
      <trkpt lat="44.35595" lon="3.55978">
        <ele>603</ele>
        <time>2016-04-29T09:09:29Z</time>
      </trkpt>
      <trkpt lat="44.35584" lon="3.5598">
        <ele>604</ele>
        <time>2016-04-29T09:09:37Z</time>
      </trkpt>
      <trkpt lat="44.35564" lon="3.55984">
        <ele>605</ele>
        <time>2016-04-29T09:09:53Z</time>
      </trkpt>
      <trkpt lat="44.35538" lon="3.55985">
        <ele>601</ele>
        <time>2016-04-29T09:10:16Z</time>
      </trkpt>
      <trkpt lat="44.35534" lon="3.55989">
        <ele>602</ele>
        <time>2016-04-29T09:10:21Z</time>
      </trkpt>
      <trkpt lat="44.35514" lon="3.55999">
        <ele>599</ele>
        <time>2016-04-29T09:10:39Z</time>
      </trkpt>
      <trkpt lat="44.35499" lon="3.56003">
        <ele>599</ele>
        <time>2016-04-29T09:10:57Z</time>
      </trkpt>
      <trkpt lat="44.35493" lon="3.56005">
        <ele>600</ele>
        <time>2016-04-29T09:11:04Z</time>
      </trkpt>
      <trkpt lat="44.35459" lon="3.55993">
        <ele>602</ele>
        <time>2016-04-29T09:11:28Z</time>
      </trkpt>
      <trkpt lat="44.3545" lon="3.55991">
        <ele>604</ele>
        <time>2016-04-29T09:11:34Z</time>
      </trkpt>
      <trkpt lat="44.35446" lon="3.55995">
        <ele>607</ele>
        <time>2016-04-29T09:11:42Z</time>
      </trkpt>
      <trkpt lat="44.35447" lon="3.56002">
        <ele>607</ele>
        <time>2016-04-29T09:11:48Z</time>
      </trkpt>
      <trkpt lat="44.35446" lon="3.56009">
        <ele>605</ele>
        <time>2016-04-29T09:11:54Z</time>
      </trkpt>
      <trkpt lat="44.35446" lon="3.56016">
        <ele>606</ele>
        <time>2016-04-29T09:12:00Z</time>
      </trkpt>
      <trkpt lat="44.35453" lon="3.56041">
        <ele>605</ele>
        <time>2016-04-29T09:12:24Z</time>
      </trkpt>
      <trkpt lat="44.3546" lon="3.56059">
        <ele>601</ele>
        <time>2016-04-29T09:12:42Z</time>
      </trkpt>
      <trkpt lat="44.35459" lon="3.56063">
        <ele>599</ele>
        <time>2016-04-29T09:13:00Z</time>
      </trkpt>
      <trkpt lat="44.35454" lon="3.56066">
        <ele>597</ele>
        <time>2016-04-29T09:13:32Z</time>
      </trkpt>
      <trkpt lat="44.3545" lon="3.56072">
        <ele>594</ele>
        <time>2016-04-29T09:13:59Z</time>
      </trkpt>
      <trkpt lat="44.3544" lon="3.56073">
        <ele>595</ele>
        <time>2016-04-29T09:14:10Z</time>
      </trkpt>
      <trkpt lat="44.35433" lon="3.56074">
        <ele>595</ele>
        <time>2016-04-29T09:14:21Z</time>
      </trkpt>
      <trkpt lat="44.35418" lon="3.56077">
        <ele>595</ele>
        <time>2016-04-29T09:14:36Z</time>
      </trkpt>
      <trkpt lat="44.35413" lon="3.56074">
        <ele>595</ele>
        <time>2016-04-29T09:14:42Z</time>
      </trkpt>
      <trkpt lat="44.35409" lon="3.5607">
        <ele>594</ele>
        <time>2016-04-29T09:14:48Z</time>
      </trkpt>
      <trkpt lat="44.35383" lon="3.56067">
        <ele>585</ele>
        <time>2016-04-29T09:15:13Z</time>
      </trkpt>
      <trkpt lat="44.35379" lon="3.56063">
        <ele>586</ele>
        <time>2016-04-29T09:15:17Z</time>
      </trkpt>
      <trkpt lat="44.35369" lon="3.56066">
        <ele>588</ele>
        <time>2016-04-29T09:15:25Z</time>
      </trkpt>
      <trkpt lat="44.35361" lon="3.56075">
        <ele>591</ele>
        <time>2016-04-29T09:15:37Z</time>
      </trkpt>
      <trkpt lat="44.35355" lon="3.56075">
        <ele>592</ele>
        <time>2016-04-29T09:15:42Z</time>
      </trkpt>
      <trkpt lat="44.35344" lon="3.56075">
        <ele>594</ele>
        <time>2016-04-29T09:15:53Z</time>
      </trkpt>
      <trkpt lat="44.35343" lon="3.56082">
        <ele>595</ele>
        <time>2016-04-29T09:15:58Z</time>
      </trkpt>
      <trkpt lat="44.35346" lon="3.56087">
        <ele>595</ele>
        <time>2016-04-29T09:16:02Z</time>
      </trkpt>
      <trkpt lat="44.35351" lon="3.56091">
        <ele>593</ele>
        <time>2016-04-29T09:16:06Z</time>
      </trkpt>
      <trkpt lat="44.35353" lon="3.56098">
        <ele>591</ele>
        <time>2016-04-29T09:16:11Z</time>
      </trkpt>
      <trkpt lat="44.35354" lon="3.56105">
        <ele>591</ele>
        <time>2016-04-29T09:16:16Z</time>
      </trkpt>
      <trkpt lat="44.35353" lon="3.56111">
        <ele>590</ele>
        <time>2016-04-29T09:16:20Z</time>
      </trkpt>
      <trkpt lat="44.35352" lon="3.56119">
        <ele>590</ele>
        <time>2016-04-29T09:16:25Z</time>
      </trkpt>
      <trkpt lat="44.35353" lon="3.56127">
        <ele>589</ele>
        <time>2016-04-29T09:16:30Z</time>
      </trkpt>
      <trkpt lat="44.35361" lon="3.56137">
        <ele>589</ele>
        <time>2016-04-29T09:16:38Z</time>
      </trkpt>
      <trkpt lat="44.35364" lon="3.56141">
        <ele>589</ele>
        <time>2016-04-29T09:16:41Z</time>
      </trkpt>
      <trkpt lat="44.35367" lon="3.56147">
        <ele>589</ele>
        <time>2016-04-29T09:16:45Z</time>
      </trkpt>
      <trkpt lat="44.3537" lon="3.56153">
        <ele>590</ele>
        <time>2016-04-29T09:16:50Z</time>
      </trkpt>
      <trkpt lat="44.35367" lon="3.56167">
        <ele>589</ele>
        <time>2016-04-29T09:17:03Z</time>
      </trkpt>
      <trkpt lat="44.35367" lon="3.56172">
        <ele>589</ele>
        <time>2016-04-29T09:17:16Z</time>
      </trkpt>
      <trkpt lat="44.35367" lon="3.5618">
        <ele>590</ele>
        <time>2016-04-29T09:17:22Z</time>
      </trkpt>
      <trkpt lat="44.35362" lon="3.56184">
        <ele>590</ele>
        <time>2016-04-29T09:17:26Z</time>
      </trkpt>
      <trkpt lat="44.35357" lon="3.56188">
        <ele>590</ele>
        <time>2016-04-29T09:17:29Z</time>
      </trkpt>
      <trkpt lat="44.35353" lon="3.56194">
        <ele>591</ele>
        <time>2016-04-29T09:17:34Z</time>
      </trkpt>
      <trkpt lat="44.35341" lon="3.56206">
        <ele>591</ele>
        <time>2016-04-29T09:17:43Z</time>
      </trkpt>
      <trkpt lat="44.35333" lon="3.56214">
        <ele>591</ele>
        <time>2016-04-29T09:17:48Z</time>
      </trkpt>
      <trkpt lat="44.35331" lon="3.56221">
        <ele>590</ele>
        <time>2016-04-29T09:17:52Z</time>
      </trkpt>
      <trkpt lat="44.35331" lon="3.56229">
        <ele>589</ele>
        <time>2016-04-29T09:17:56Z</time>
      </trkpt>
      <trkpt lat="44.35335" lon="3.56241">
        <ele>588</ele>
        <time>2016-04-29T09:18:03Z</time>
      </trkpt>
      <trkpt lat="44.35338" lon="3.56248">
        <ele>589</ele>
        <time>2016-04-29T09:18:07Z</time>
      </trkpt>
      <trkpt lat="44.35338" lon="3.56255">
        <ele>589</ele>
        <time>2016-04-29T09:18:11Z</time>
      </trkpt>
      <trkpt lat="44.35334" lon="3.56261">
        <ele>590</ele>
        <time>2016-04-29T09:18:15Z</time>
      </trkpt>
      <trkpt lat="44.35331" lon="3.56266">
        <ele>590</ele>
        <time>2016-04-29T09:18:19Z</time>
      </trkpt>
      <trkpt lat="44.35331" lon="3.56274">
        <ele>590</ele>
        <time>2016-04-29T09:18:23Z</time>
      </trkpt>
      <trkpt lat="44.35331" lon="3.56281">
        <ele>591</ele>
        <time>2016-04-29T09:18:28Z</time>
      </trkpt>
      <trkpt lat="44.35324" lon="3.56299">
        <ele>593</ele>
        <time>2016-04-29T09:18:41Z</time>
      </trkpt>
      <trkpt lat="44.35321" lon="3.56306">
        <ele>592</ele>
        <time>2016-04-29T09:18:46Z</time>
      </trkpt>
      <trkpt lat="44.35319" lon="3.56328">
        <ele>589</ele>
        <time>2016-04-29T09:18:58Z</time>
      </trkpt>
      <trkpt lat="44.35318" lon="3.56341">
        <ele>589</ele>
        <time>2016-04-29T09:19:06Z</time>
      </trkpt>
      <trkpt lat="44.353" lon="3.56393">
        <ele>577</ele>
        <time>2016-04-29T09:19:39Z</time>
      </trkpt>
      <trkpt lat="44.35302" lon="3.56413">
        <ele>575</ele>
        <time>2016-04-29T09:19:51Z</time>
      </trkpt>
      <trkpt lat="44.35305" lon="3.56426">
        <ele>576</ele>
        <time>2016-04-29T09:19:59Z</time>
      </trkpt>
      <trkpt lat="44.35308" lon="3.56431">
        <ele>577</ele>
        <time>2016-04-29T09:20:05Z</time>
      </trkpt>
      <trkpt lat="44.35308" lon="3.56437">
        <ele>578</ele>
        <time>2016-04-29T09:20:13Z</time>
      </trkpt>
      <trkpt lat="44.35304" lon="3.56437">
        <ele>578</ele>
        <time>2016-04-29T09:20:24Z</time>
      </trkpt>
      <trkpt lat="44.35304" lon="3.56445">
        <ele>578</ele>
        <time>2016-04-29T09:20:32Z</time>
      </trkpt>
      <trkpt lat="44.35305" lon="3.56452">
        <ele>577</ele>
        <time>2016-04-29T09:20:39Z</time>
      </trkpt>
      <trkpt lat="44.35302" lon="3.56457">
        <ele>576</ele>
        <time>2016-04-29T09:20:45Z</time>
      </trkpt>
      <trkpt lat="44.35301" lon="3.56463">
        <ele>577</ele>
        <time>2016-04-29T09:21:31Z</time>
      </trkpt>
      <trkpt lat="44.353" lon="3.56469">
        <ele>577</ele>
        <time>2016-04-29T09:21:36Z</time>
      </trkpt>
      <trkpt lat="44.35296" lon="3.56497">
        <ele>574</ele>
        <time>2016-04-29T09:21:55Z</time>
      </trkpt>
      <trkpt lat="44.35292" lon="3.56502">
        <ele>573</ele>
        <time>2016-04-29T09:22:00Z</time>
      </trkpt>
      <trkpt lat="44.35288" lon="3.56506">
        <ele>572</ele>
        <time>2016-04-29T09:22:05Z</time>
      </trkpt>
      <trkpt lat="44.35283" lon="3.56508">
        <ele>572</ele>
        <time>2016-04-29T09:22:10Z</time>
      </trkpt>
      <trkpt lat="44.35274" lon="3.56511">
        <ele>569</ele>
        <time>2016-04-29T09:22:20Z</time>
      </trkpt>
      <trkpt lat="44.35269" lon="3.56511">
        <ele>569</ele>
        <time>2016-04-29T09:22:24Z</time>
      </trkpt>
      <trkpt lat="44.35264" lon="3.56512">
        <ele>569</ele>
        <time>2016-04-29T09:22:28Z</time>
      </trkpt>
      <trkpt lat="44.35258" lon="3.56512">
        <ele>569</ele>
        <time>2016-04-29T09:22:33Z</time>
      </trkpt>
      <trkpt lat="44.35254" lon="3.56515">
        <ele>568</ele>
        <time>2016-04-29T09:22:38Z</time>
      </trkpt>
      <trkpt lat="44.35249" lon="3.56514">
        <ele>567</ele>
        <time>2016-04-29T09:22:43Z</time>
      </trkpt>
      <trkpt lat="44.35244" lon="3.56515">
        <ele>567</ele>
        <time>2016-04-29T09:22:47Z</time>
      </trkpt>
      <trkpt lat="44.35234" lon="3.56519">
        <ele>566</ele>
        <time>2016-04-29T09:22:57Z</time>
      </trkpt>
      <trkpt lat="44.3523" lon="3.56523">
        <ele>566</ele>
        <time>2016-04-29T09:23:03Z</time>
      </trkpt>
      <trkpt lat="44.35226" lon="3.56528">
        <ele>566</ele>
        <time>2016-04-29T09:23:08Z</time>
      </trkpt>
      <trkpt lat="44.35223" lon="3.56532">
        <ele>566</ele>
        <time>2016-04-29T09:23:12Z</time>
      </trkpt>
      <trkpt lat="44.3522" lon="3.56538">
        <ele>566</ele>
        <time>2016-04-29T09:23:16Z</time>
      </trkpt>
      <trkpt lat="44.3522" lon="3.56545">
        <ele>566</ele>
        <time>2016-04-29T09:23:20Z</time>
      </trkpt>
      <trkpt lat="44.35222" lon="3.56551">
        <ele>566</ele>
        <time>2016-04-29T09:23:24Z</time>
      </trkpt>
      <trkpt lat="44.3523" lon="3.56559">
        <ele>566</ele>
        <time>2016-04-29T09:23:35Z</time>
      </trkpt>
      <trkpt lat="44.35234" lon="3.56564">
        <ele>567</ele>
        <time>2016-04-29T09:23:40Z</time>
      </trkpt>
      <trkpt lat="44.35249" lon="3.56582">
        <ele>567</ele>
        <time>2016-04-29T09:23:58Z</time>
      </trkpt>
      <trkpt lat="44.35252" lon="3.56595">
        <ele>567</ele>
        <time>2016-04-29T09:24:09Z</time>
      </trkpt>
      <trkpt lat="44.35254" lon="3.56602">
        <ele>568</ele>
        <time>2016-04-29T09:24:14Z</time>
      </trkpt>
      <trkpt lat="44.35258" lon="3.56608">
        <ele>568</ele>
        <time>2016-04-29T09:24:19Z</time>
      </trkpt>
      <trkpt lat="44.35268" lon="3.56613">
        <ele>570</ele>
        <time>2016-04-29T09:24:26Z</time>
      </trkpt>
      <trkpt lat="44.35272" lon="3.56617">
        <ele>570</ele>
        <time>2016-04-29T09:24:31Z</time>
      </trkpt>
      <trkpt lat="44.35276" lon="3.56619">
        <ele>570</ele>
        <time>2016-04-29T09:24:39Z</time>
      </trkpt>
      <trkpt lat="44.35279" lon="3.56624">
        <ele>570</ele>
        <time>2016-04-29T09:24:47Z</time>
      </trkpt>
      <trkpt lat="44.35284" lon="3.56636">
        <ele>569</ele>
        <time>2016-04-29T09:25:00Z</time>
      </trkpt>
      <trkpt lat="44.35299" lon="3.56656">
        <ele>571</ele>
        <time>2016-04-29T09:25:16Z</time>
      </trkpt>
      <trkpt lat="44.353" lon="3.56662">
        <ele>572</ele>
        <time>2016-04-29T09:25:21Z</time>
      </trkpt>
      <trkpt lat="44.35301" lon="3.56676">
        <ele>570</ele>
        <time>2016-04-29T09:25:32Z</time>
      </trkpt>
      <trkpt lat="44.35304" lon="3.56705">
        <ele>571</ele>
        <time>2016-04-29T09:25:52Z</time>
      </trkpt>
      <trkpt lat="44.35295" lon="3.56729">
        <ele>575</ele>
        <time>2016-04-29T09:26:09Z</time>
      </trkpt>
      <trkpt lat="44.35295" lon="3.56742">
        <ele>576</ele>
        <time>2016-04-29T09:26:17Z</time>
      </trkpt>
      <trkpt lat="44.35293" lon="3.56748">
        <ele>576</ele>
        <time>2016-04-29T09:26:21Z</time>
      </trkpt>
      <trkpt lat="44.35294" lon="3.56754">
        <ele>577</ele>
        <time>2016-04-29T09:26:25Z</time>
      </trkpt>
      <trkpt lat="44.35293" lon="3.5676">
        <ele>577</ele>
        <time>2016-04-29T09:26:30Z</time>
      </trkpt>
      <trkpt lat="44.35292" lon="3.56767">
        <ele>578</ele>
        <time>2016-04-29T09:26:35Z</time>
      </trkpt>
      <trkpt lat="44.35284" lon="3.56794">
        <ele>580</ele>
        <time>2016-04-29T09:26:53Z</time>
      </trkpt>
      <trkpt lat="44.35286" lon="3.56822">
        <ele>585</ele>
        <time>2016-04-29T09:27:13Z</time>
      </trkpt>
      <trkpt lat="44.35289" lon="3.56828">
        <ele>585</ele>
        <time>2016-04-29T09:27:18Z</time>
      </trkpt>
      <trkpt lat="44.3529" lon="3.56834">
        <ele>584</ele>
        <time>2016-04-29T09:27:23Z</time>
      </trkpt>
      <trkpt lat="44.35292" lon="3.56848">
        <ele>584</ele>
        <time>2016-04-29T09:27:32Z</time>
      </trkpt>
      <trkpt lat="44.35297" lon="3.5686">
        <ele>583</ele>
        <time>2016-04-29T09:27:41Z</time>
      </trkpt>
      <trkpt lat="44.35296" lon="3.56866">
        <ele>583</ele>
        <time>2016-04-29T09:27:45Z</time>
      </trkpt>
      <trkpt lat="44.35295" lon="3.56873">
        <ele>583</ele>
        <time>2016-04-29T09:27:49Z</time>
      </trkpt>
      <trkpt lat="44.35294" lon="3.56886">
        <ele>585</ele>
        <time>2016-04-29T09:27:57Z</time>
      </trkpt>
      <trkpt lat="44.35295" lon="3.56893">
        <ele>584</ele>
        <time>2016-04-29T09:28:02Z</time>
      </trkpt>
      <trkpt lat="44.35295" lon="3.569">
        <ele>584</ele>
        <time>2016-04-29T09:28:06Z</time>
      </trkpt>
      <trkpt lat="44.35296" lon="3.56908">
        <ele>583</ele>
        <time>2016-04-29T09:28:21Z</time>
      </trkpt>
      <trkpt lat="44.35296" lon="3.56916">
        <ele>583</ele>
        <time>2016-04-29T09:28:26Z</time>
      </trkpt>
      <trkpt lat="44.35299" lon="3.56922">
        <ele>583</ele>
        <time>2016-04-29T09:28:30Z</time>
      </trkpt>
      <trkpt lat="44.35298" lon="3.56936">
        <ele>582</ele>
        <time>2016-04-29T09:28:40Z</time>
      </trkpt>
      <trkpt lat="44.35298" lon="3.5694">
        <ele>582</ele>
        <time>2016-04-29T09:28:47Z</time>
      </trkpt>
      <trkpt lat="44.35297" lon="3.56962">
        <ele>579</ele>
        <time>2016-04-29T09:29:07Z</time>
      </trkpt>
      <trkpt lat="44.35298" lon="3.56969">
        <ele>579</ele>
        <time>2016-04-29T09:29:12Z</time>
      </trkpt>
      <trkpt lat="44.35296" lon="3.56976">
        <ele>580</ele>
        <time>2016-04-29T09:29:17Z</time>
      </trkpt>
      <trkpt lat="44.35294" lon="3.57005">
        <ele>584</ele>
        <time>2016-04-29T09:29:35Z</time>
      </trkpt>
      <trkpt lat="44.35295" lon="3.57011">
        <ele>584</ele>
        <time>2016-04-29T09:29:39Z</time>
      </trkpt>
      <trkpt lat="44.35295" lon="3.57017">
        <ele>584</ele>
        <time>2016-04-29T09:29:43Z</time>
      </trkpt>
      <trkpt lat="44.35292" lon="3.57024">
        <ele>584</ele>
        <time>2016-04-29T09:29:47Z</time>
      </trkpt>
      <trkpt lat="44.35288" lon="3.57037">
        <ele>585</ele>
        <time>2016-04-29T09:29:57Z</time>
      </trkpt>
      <trkpt lat="44.35288" lon="3.57045">
        <ele>585</ele>
        <time>2016-04-29T09:30:02Z</time>
      </trkpt>
      <trkpt lat="44.3529" lon="3.57059">
        <ele>585</ele>
        <time>2016-04-29T09:30:12Z</time>
      </trkpt>
      <trkpt lat="44.35285" lon="3.57072">
        <ele>585</ele>
        <time>2016-04-29T09:30:20Z</time>
      </trkpt>
      <trkpt lat="44.35284" lon="3.57079">
        <ele>585</ele>
        <time>2016-04-29T09:30:24Z</time>
      </trkpt>
      <trkpt lat="44.35282" lon="3.57091">
        <ele>585</ele>
        <time>2016-04-29T09:30:32Z</time>
      </trkpt>
      <trkpt lat="44.35284" lon="3.57098">
        <ele>585</ele>
        <time>2016-04-29T09:30:36Z</time>
      </trkpt>
      <trkpt lat="44.35284" lon="3.57106">
        <ele>585</ele>
        <time>2016-04-29T09:30:41Z</time>
      </trkpt>
      <trkpt lat="44.35286" lon="3.57113">
        <ele>586</ele>
        <time>2016-04-29T09:30:46Z</time>
      </trkpt>
      <trkpt lat="44.35284" lon="3.57126">
        <ele>586</ele>
        <time>2016-04-29T09:30:54Z</time>
      </trkpt>
      <trkpt lat="44.35285" lon="3.57134">
        <ele>585</ele>
        <time>2016-04-29T09:30:59Z</time>
      </trkpt>
      <trkpt lat="44.35282" lon="3.57139">
        <ele>585</ele>
        <time>2016-04-29T09:31:04Z</time>
      </trkpt>
      <trkpt lat="44.35281" lon="3.57147">
        <ele>585</ele>
        <time>2016-04-29T09:31:09Z</time>
      </trkpt>
      <trkpt lat="44.35281" lon="3.57154">
        <ele>585</ele>
        <time>2016-04-29T09:31:13Z</time>
      </trkpt>
      <trkpt lat="44.35279" lon="3.5716">
        <ele>586</ele>
        <time>2016-04-29T09:31:17Z</time>
      </trkpt>
      <trkpt lat="44.35275" lon="3.57173">
        <ele>586</ele>
        <time>2016-04-29T09:31:25Z</time>
      </trkpt>
      <trkpt lat="44.35275" lon="3.57181">
        <ele>586</ele>
        <time>2016-04-29T09:31:30Z</time>
      </trkpt>
      <trkpt lat="44.35274" lon="3.57188">
        <ele>586</ele>
        <time>2016-04-29T09:31:35Z</time>
      </trkpt>
      <trkpt lat="44.35274" lon="3.57194">
        <ele>587</ele>
        <time>2016-04-29T09:31:42Z</time>
      </trkpt>
      <trkpt lat="44.35278" lon="3.57192">
        <ele>588</ele>
        <time>2016-04-29T09:31:53Z</time>
      </trkpt>
      <trkpt lat="44.35281" lon="3.57195">
        <ele>588</ele>
        <time>2016-04-29T09:40:13Z</time>
      </trkpt>
      <trkpt lat="44.35283" lon="3.57201">
        <ele>589</ele>
        <time>2016-04-29T09:40:20Z</time>
      </trkpt>
      <trkpt lat="44.35285" lon="3.57208">
        <ele>589</ele>
        <time>2016-04-29T09:40:27Z</time>
      </trkpt>
      <trkpt lat="44.35286" lon="3.57215">
        <ele>589</ele>
        <time>2016-04-29T09:40:32Z</time>
      </trkpt>
      <trkpt lat="44.35292" lon="3.57233">
        <ele>585</ele>
        <time>2016-04-29T09:40:46Z</time>
      </trkpt>
      <trkpt lat="44.35293" lon="3.57252">
        <ele>580</ele>
        <time>2016-04-29T09:41:01Z</time>
      </trkpt>
      <trkpt lat="44.35295" lon="3.57259">
        <ele>580</ele>
        <time>2016-04-29T09:41:07Z</time>
      </trkpt>
      <trkpt lat="44.35297" lon="3.57266">
        <ele>580</ele>
        <time>2016-04-29T09:41:12Z</time>
      </trkpt>
      <trkpt lat="44.35305" lon="3.5729">
        <ele>573</ele>
        <time>2016-04-29T09:41:29Z</time>
      </trkpt>
      <trkpt lat="44.35301" lon="3.57296">
        <ele>571</ele>
        <time>2016-04-29T09:41:40Z</time>
      </trkpt>
      <trkpt lat="44.35296" lon="3.57299">
        <ele>570</ele>
        <time>2016-04-29T09:41:44Z</time>
      </trkpt>
      <trkpt lat="44.35291" lon="3.57299">
        <ele>569</ele>
        <time>2016-04-29T09:41:49Z</time>
      </trkpt>
      <trkpt lat="44.35281" lon="3.57298">
        <ele>569</ele>
        <time>2016-04-29T09:41:58Z</time>
      </trkpt>
      <trkpt lat="44.35264" lon="3.57296">
        <ele>567</ele>
        <time>2016-04-29T09:42:13Z</time>
      </trkpt>
      <trkpt lat="44.35249" lon="3.57301">
        <ele>567</ele>
        <time>2016-04-29T09:42:25Z</time>
      </trkpt>
      <trkpt lat="44.35244" lon="3.57303">
        <ele>568</ele>
        <time>2016-04-29T09:42:30Z</time>
      </trkpt>
      <trkpt lat="44.35235" lon="3.57307">
        <ele>567</ele>
        <time>2016-04-29T09:42:37Z</time>
      </trkpt>
      <trkpt lat="44.35228" lon="3.57316">
        <ele>567</ele>
        <time>2016-04-29T09:42:49Z</time>
      </trkpt>
      <trkpt lat="44.35224" lon="3.57318">
        <ele>568</ele>
        <time>2016-04-29T09:42:57Z</time>
      </trkpt>
      <trkpt lat="44.35219" lon="3.57319">
        <ele>568</ele>
        <time>2016-04-29T09:43:01Z</time>
      </trkpt>
      <trkpt lat="44.35203" lon="3.57326">
        <ele>568</ele>
        <time>2016-04-29T09:43:13Z</time>
      </trkpt>
      <trkpt lat="44.35192" lon="3.57331">
        <ele>567</ele>
        <time>2016-04-29T09:43:23Z</time>
      </trkpt>
      <trkpt lat="44.35187" lon="3.57332">
        <ele>566</ele>
        <time>2016-04-29T09:43:28Z</time>
      </trkpt>
      <trkpt lat="44.35171" lon="3.57328">
        <ele>565</ele>
        <time>2016-04-29T09:43:40Z</time>
      </trkpt>
      <trkpt lat="44.35166" lon="3.57327">
        <ele>566</ele>
        <time>2016-04-29T09:43:44Z</time>
      </trkpt>
      <trkpt lat="44.35156" lon="3.57322">
        <ele>566</ele>
        <time>2016-04-29T09:43:53Z</time>
      </trkpt>
      <trkpt lat="44.35152" lon="3.57321">
        <ele>566</ele>
        <time>2016-04-29T09:43:57Z</time>
      </trkpt>
      <trkpt lat="44.35146" lon="3.57323">
        <ele>566</ele>
        <time>2016-04-29T09:44:00Z</time>
      </trkpt>
      <trkpt lat="44.35136" lon="3.57323">
        <ele>568</ele>
        <time>2016-04-29T09:44:09Z</time>
      </trkpt>
      <trkpt lat="44.35131" lon="3.5732">
        <ele>569</ele>
        <time>2016-04-29T09:44:14Z</time>
      </trkpt>
      <trkpt lat="44.35127" lon="3.57316">
        <ele>568</ele>
        <time>2016-04-29T09:44:21Z</time>
      </trkpt>
      <trkpt lat="44.35123" lon="3.5732">
        <ele>569</ele>
        <time>2016-04-29T09:44:26Z</time>
      </trkpt>
      <trkpt lat="44.35109" lon="3.57323">
        <ele>568</ele>
        <time>2016-04-29T09:44:36Z</time>
      </trkpt>
      <trkpt lat="44.35105" lon="3.57319">
        <ele>568</ele>
        <time>2016-04-29T09:44:41Z</time>
      </trkpt>
      <trkpt lat="44.35089" lon="3.57313">
        <ele>568</ele>
        <time>2016-04-29T09:44:52Z</time>
      </trkpt>
      <trkpt lat="44.35084" lon="3.57313">
        <ele>568</ele>
        <time>2016-04-29T09:44:56Z</time>
      </trkpt>
      <trkpt lat="44.35079" lon="3.57309">
        <ele>568</ele>
        <time>2016-04-29T09:45:01Z</time>
      </trkpt>
      <trkpt lat="44.35064" lon="3.57304">
        <ele>570</ele>
        <time>2016-04-29T09:45:15Z</time>
      </trkpt>
      <trkpt lat="44.35055" lon="3.57299">
        <ele>569</ele>
        <time>2016-04-29T09:45:22Z</time>
      </trkpt>
      <trkpt lat="44.35045" lon="3.57298">
        <ele>569</ele>
        <time>2016-04-29T09:45:28Z</time>
      </trkpt>
      <trkpt lat="44.35039" lon="3.57294">
        <ele>569</ele>
        <time>2016-04-29T09:45:32Z</time>
      </trkpt>
      <trkpt lat="44.3503" lon="3.5729">
        <ele>568</ele>
        <time>2016-04-29T09:45:39Z</time>
      </trkpt>
      <trkpt lat="44.35026" lon="3.57286">
        <ele>568</ele>
        <time>2016-04-29T09:45:43Z</time>
      </trkpt>
      <trkpt lat="44.35019" lon="3.57277">
        <ele>567</ele>
        <time>2016-04-29T09:45:52Z</time>
      </trkpt>
      <trkpt lat="44.35015" lon="3.57275">
        <ele>567</ele>
        <time>2016-04-29T09:45:56Z</time>
      </trkpt>
      <trkpt lat="44.3501" lon="3.57275">
        <ele>567</ele>
        <time>2016-04-29T09:45:59Z</time>
      </trkpt>
      <trkpt lat="44.35006" lon="3.57272">
        <ele>567</ele>
        <time>2016-04-29T09:46:03Z</time>
      </trkpt>
      <trkpt lat="44.34992" lon="3.57262">
        <ele>570</ele>
        <time>2016-04-29T09:46:17Z</time>
      </trkpt>
      <trkpt lat="44.34983" lon="3.57263">
        <ele>574</ele>
        <time>2016-04-29T09:46:27Z</time>
      </trkpt>
      <trkpt lat="44.34979" lon="3.57259">
        <ele>574</ele>
        <time>2016-04-29T09:46:34Z</time>
      </trkpt>
      <trkpt lat="44.34976" lon="3.57253">
        <ele>574</ele>
        <time>2016-04-29T09:46:40Z</time>
      </trkpt>
      <trkpt lat="44.34972" lon="3.57249">
        <ele>574</ele>
        <time>2016-04-29T09:46:47Z</time>
      </trkpt>
      <trkpt lat="44.34967" lon="3.57247">
        <ele>575</ele>
        <time>2016-04-29T09:46:55Z</time>
      </trkpt>
      <trkpt lat="44.34959" lon="3.57241">
        <ele>575</ele>
        <time>2016-04-29T09:47:05Z</time>
      </trkpt>
      <trkpt lat="44.34945" lon="3.57235">
        <ele>578</ele>
        <time>2016-04-29T09:47:19Z</time>
      </trkpt>
      <trkpt lat="44.34933" lon="3.57221">
        <ele>579</ele>
        <time>2016-04-29T09:47:33Z</time>
      </trkpt>
      <trkpt lat="44.34928" lon="3.57217">
        <ele>579</ele>
        <time>2016-04-29T09:47:37Z</time>
      </trkpt>
      <trkpt lat="44.34926" lon="3.57211">
        <ele>578</ele>
        <time>2016-04-29T09:47:42Z</time>
      </trkpt>
      <trkpt lat="44.34922" lon="3.57207">
        <ele>578</ele>
        <time>2016-04-29T09:47:48Z</time>
      </trkpt>
      <trkpt lat="44.34918" lon="3.57205">
        <ele>578</ele>
        <time>2016-04-29T09:47:52Z</time>
      </trkpt>
      <trkpt lat="44.34907" lon="3.57204">
        <ele>575</ele>
        <time>2016-04-29T09:48:00Z</time>
      </trkpt>
      <trkpt lat="44.34895" lon="3.57195">
        <ele>572</ele>
        <time>2016-04-29T09:48:16Z</time>
      </trkpt>
      <trkpt lat="44.34885" lon="3.57194">
        <ele>570</ele>
        <time>2016-04-29T09:48:27Z</time>
      </trkpt>
      <trkpt lat="44.3488" lon="3.57195">
        <ele>569</ele>
        <time>2016-04-29T09:48:34Z</time>
      </trkpt>
      <trkpt lat="44.34875" lon="3.57197">
        <ele>570</ele>
        <time>2016-04-29T09:48:39Z</time>
      </trkpt>
      <trkpt lat="44.3487" lon="3.57197">
        <ele>569</ele>
        <time>2016-04-29T09:48:43Z</time>
      </trkpt>
      <trkpt lat="44.34866" lon="3.57194">
        <ele>568</ele>
        <time>2016-04-29T09:48:47Z</time>
      </trkpt>
      <trkpt lat="44.34854" lon="3.57195">
        <ele>569</ele>
        <time>2016-04-29T09:48:54Z</time>
      </trkpt>
      <trkpt lat="44.34829" lon="3.57188">
        <ele>567</ele>
        <time>2016-04-29T09:49:11Z</time>
      </trkpt>
      <trkpt lat="44.34824" lon="3.57188">
        <ele>567</ele>
        <time>2016-04-29T09:49:15Z</time>
      </trkpt>
      <trkpt lat="44.34821" lon="3.57183">
        <ele>568</ele>
        <time>2016-04-29T09:49:20Z</time>
      </trkpt>
      <trkpt lat="44.34817" lon="3.5718">
        <ele>568</ele>
        <time>2016-04-29T09:49:26Z</time>
      </trkpt>
      <trkpt lat="44.34812" lon="3.57181">
        <ele>569</ele>
        <time>2016-04-29T09:49:30Z</time>
      </trkpt>
      <trkpt lat="44.34807" lon="3.5718">
        <ele>569</ele>
        <time>2016-04-29T09:49:34Z</time>
      </trkpt>
      <trkpt lat="44.34802" lon="3.57178">
        <ele>568</ele>
        <time>2016-04-29T09:49:37Z</time>
      </trkpt>
      <trkpt lat="44.34798" lon="3.57176">
        <ele>568</ele>
        <time>2016-04-29T09:49:40Z</time>
      </trkpt>
      <trkpt lat="44.3478" lon="3.57168">
        <ele>566</ele>
        <time>2016-04-29T09:49:59Z</time>
      </trkpt>
      <trkpt lat="44.34775" lon="3.57168">
        <ele>564</ele>
        <time>2016-04-29T09:50:05Z</time>
      </trkpt>
      <trkpt lat="44.34771" lon="3.57169">
        <ele>564</ele>
        <time>2016-04-29T09:50:09Z</time>
      </trkpt>
      <trkpt lat="44.34765" lon="3.57171">
        <ele>564</ele>
        <time>2016-04-29T09:50:13Z</time>
      </trkpt>
      <trkpt lat="44.34761" lon="3.57175">
        <ele>565</ele>
        <time>2016-04-29T09:50:17Z</time>
      </trkpt>
      <trkpt lat="44.34756" lon="3.57177">
        <ele>565</ele>
        <time>2016-04-29T09:50:21Z</time>
      </trkpt>
      <trkpt lat="44.34746" lon="3.57177">
        <ele>564</ele>
        <time>2016-04-29T09:50:29Z</time>
      </trkpt>
      <trkpt lat="44.34717" lon="3.57169">
        <ele>558</ele>
        <time>2016-04-29T09:50:51Z</time>
      </trkpt>
      <trkpt lat="44.34712" lon="3.57169">
        <ele>559</ele>
        <time>2016-04-29T09:50:55Z</time>
      </trkpt>
      <trkpt lat="44.34706" lon="3.57172">
        <ele>560</ele>
        <time>2016-04-29T09:51:00Z</time>
      </trkpt>
      <trkpt lat="44.347" lon="3.57172">
        <ele>562</ele>
        <time>2016-04-29T09:51:06Z</time>
      </trkpt>
      <trkpt lat="44.34695" lon="3.57174">
        <ele>563</ele>
        <time>2016-04-29T09:51:12Z</time>
      </trkpt>
      <trkpt lat="44.3469" lon="3.57173">
        <ele>563</ele>
        <time>2016-04-29T09:51:18Z</time>
      </trkpt>
      <trkpt lat="44.34684" lon="3.57172">
        <ele>562</ele>
        <time>2016-04-29T09:51:23Z</time>
      </trkpt>
      <trkpt lat="44.3468" lon="3.57177">
        <ele>562</ele>
        <time>2016-04-29T09:51:32Z</time>
      </trkpt>
      <trkpt lat="44.34669" lon="3.57177">
        <ele>564</ele>
        <time>2016-04-29T09:51:40Z</time>
      </trkpt>
      <trkpt lat="44.34664" lon="3.57177">
        <ele>563</ele>
        <time>2016-04-29T09:51:44Z</time>
      </trkpt>
      <trkpt lat="44.34659" lon="3.57178">
        <ele>564</ele>
        <time>2016-04-29T09:51:50Z</time>
      </trkpt>
      <trkpt lat="44.34648" lon="3.57178">
        <ele>564</ele>
        <time>2016-04-29T09:51:58Z</time>
      </trkpt>
      <trkpt lat="44.34643" lon="3.57178">
        <ele>565</ele>
        <time>2016-04-29T09:52:03Z</time>
      </trkpt>
      <trkpt lat="44.34639" lon="3.5718">
        <ele>564</ele>
        <time>2016-04-29T09:52:08Z</time>
      </trkpt>
      <trkpt lat="44.34632" lon="3.57177">
        <ele>562</ele>
        <time>2016-04-29T09:52:19Z</time>
      </trkpt>
      <trkpt lat="44.34628" lon="3.57178">
        <ele>562</ele>
        <time>2016-04-29T09:52:24Z</time>
      </trkpt>
      <trkpt lat="44.34623" lon="3.57179">
        <ele>562</ele>
        <time>2016-04-29T09:52:28Z</time>
      </trkpt>
      <trkpt lat="44.34619" lon="3.57181">
        <ele>563</ele>
        <time>2016-04-29T09:52:32Z</time>
      </trkpt>
      <trkpt lat="44.34615" lon="3.57177">
        <ele>564</ele>
        <time>2016-04-29T09:52:40Z</time>
      </trkpt>
      <trkpt lat="44.3461" lon="3.57176">
        <ele>563</ele>
        <time>2016-04-29T09:52:45Z</time>
      </trkpt>
      <trkpt lat="44.34605" lon="3.57175">
        <ele>563</ele>
        <time>2016-04-29T09:52:49Z</time>
      </trkpt>
      <trkpt lat="44.346" lon="3.57173">
        <ele>564</ele>
        <time>2016-04-29T09:52:53Z</time>
      </trkpt>
      <trkpt lat="44.34577" lon="3.57167">
        <ele>573</ele>
        <time>2016-04-29T09:53:21Z</time>
      </trkpt>
      <trkpt lat="44.34574" lon="3.57161">
        <ele>573</ele>
        <time>2016-04-29T09:53:26Z</time>
      </trkpt>
      <trkpt lat="44.34571" lon="3.57154">
        <ele>574</ele>
        <time>2016-04-29T09:53:33Z</time>
      </trkpt>
      <trkpt lat="44.34568" lon="3.57149">
        <ele>578</ele>
        <time>2016-04-29T09:53:44Z</time>
      </trkpt>
      <trkpt lat="44.34572" lon="3.57144">
        <ele>578</ele>
        <time>2016-04-29T09:53:50Z</time>
      </trkpt>
      <trkpt lat="44.34567" lon="3.57141">
        <ele>577</ele>
        <time>2016-04-29T09:53:57Z</time>
      </trkpt>
      <trkpt lat="44.34561" lon="3.57148">
        <ele>574</ele>
        <time>2016-04-29T09:54:07Z</time>
      </trkpt>
      <trkpt lat="44.34557" lon="3.57151">
        <ele>574</ele>
        <time>2016-04-29T09:54:19Z</time>
      </trkpt>
      <trkpt lat="44.34556" lon="3.57168">
        <ele>575</ele>
        <time>2016-04-29T09:54:32Z</time>
      </trkpt>
      <trkpt lat="44.34557" lon="3.57175">
        <ele>574</ele>
        <time>2016-04-29T09:54:38Z</time>
      </trkpt>
      <trkpt lat="44.34556" lon="3.57181">
        <ele>574</ele>
        <time>2016-04-29T09:54:43Z</time>
      </trkpt>
      <trkpt lat="44.34554" lon="3.57187">
        <ele>574</ele>
        <time>2016-04-29T09:54:47Z</time>
      </trkpt>
      <trkpt lat="44.34538" lon="3.57205">
        <ele>573</ele>
        <time>2016-04-29T09:55:00Z</time>
      </trkpt>
      <trkpt lat="44.34523" lon="3.57212">
        <ele>575</ele>
        <time>2016-04-29T09:55:12Z</time>
      </trkpt>
      <trkpt lat="44.34513" lon="3.57217">
        <ele>574</ele>
        <time>2016-04-29T09:55:20Z</time>
      </trkpt>
      <trkpt lat="44.34507" lon="3.57219">
        <ele>574</ele>
        <time>2016-04-29T09:55:23Z</time>
      </trkpt>
      <trkpt lat="44.34488" lon="3.57231">
        <ele>577</ele>
        <time>2016-04-29T09:55:39Z</time>
      </trkpt>
      <trkpt lat="44.34484" lon="3.57234">
        <ele>577</ele>
        <time>2016-04-29T09:55:42Z</time>
      </trkpt>
      <trkpt lat="44.3448" lon="3.57241">
        <ele>577</ele>
        <time>2016-04-29T09:55:46Z</time>
      </trkpt>
      <trkpt lat="44.34477" lon="3.57245">
        <ele>575</ele>
        <time>2016-04-29T09:55:50Z</time>
      </trkpt>
      <trkpt lat="44.34472" lon="3.5725">
        <ele>575</ele>
        <time>2016-04-29T09:55:56Z</time>
      </trkpt>
      <trkpt lat="44.34469" lon="3.57255">
        <ele>573</ele>
        <time>2016-04-29T09:56:03Z</time>
      </trkpt>
      <trkpt lat="44.34467" lon="3.57262">
        <ele>573</ele>
        <time>2016-04-29T09:56:08Z</time>
      </trkpt>
      <trkpt lat="44.34454" lon="3.57281">
        <ele>576</ele>
        <time>2016-04-29T09:56:31Z</time>
      </trkpt>
      <trkpt lat="44.34451" lon="3.57286">
        <ele>575</ele>
        <time>2016-04-29T09:56:46Z</time>
      </trkpt>
      <trkpt lat="44.34439" lon="3.57284">
        <ele>577</ele>
        <time>2016-04-29T09:56:56Z</time>
      </trkpt>
      <trkpt lat="44.3442" lon="3.57284">
        <ele>583</ele>
        <time>2016-04-29T09:57:09Z</time>
      </trkpt>
      <trkpt lat="44.3441" lon="3.57282">
        <ele>581</ele>
        <time>2016-04-29T09:57:17Z</time>
      </trkpt>
      <trkpt lat="44.34412" lon="3.57287">
        <ele>580</ele>
        <time>2016-04-29T09:57:24Z</time>
      </trkpt>
      <trkpt lat="44.34418" lon="3.57298">
        <ele>576</ele>
        <time>2016-04-29T09:57:35Z</time>
      </trkpt>
      <trkpt lat="44.34417" lon="3.57305">
        <ele>573</ele>
        <time>2016-04-29T09:57:40Z</time>
      </trkpt>
      <trkpt lat="44.34413" lon="3.57309">
        <ele>572</ele>
        <time>2016-04-29T09:57:43Z</time>
      </trkpt>
      <trkpt lat="44.34404" lon="3.57319">
        <ele>571</ele>
        <time>2016-04-29T09:57:49Z</time>
      </trkpt>
      <trkpt lat="44.34403" lon="3.57325">
        <ele>570</ele>
        <time>2016-04-29T09:57:52Z</time>
      </trkpt>
      <trkpt lat="44.34402" lon="3.57334">
        <ele>571</ele>
        <time>2016-04-29T09:57:56Z</time>
      </trkpt>
      <trkpt lat="44.34394" lon="3.57343">
        <ele>571</ele>
        <time>2016-04-29T09:58:04Z</time>
      </trkpt>
      <trkpt lat="44.34389" lon="3.57348">
        <ele>571</ele>
        <time>2016-04-29T09:58:08Z</time>
      </trkpt>
      <trkpt lat="44.34384" lon="3.57352">
        <ele>570</ele>
        <time>2016-04-29T09:58:12Z</time>
      </trkpt>
      <trkpt lat="44.3438" lon="3.57356">
        <ele>570</ele>
        <time>2016-04-29T09:58:17Z</time>
      </trkpt>
      <trkpt lat="44.34353" lon="3.57369">
        <ele>576</ele>
        <time>2016-04-29T09:58:51Z</time>
      </trkpt>
      <trkpt lat="44.34343" lon="3.57374">
        <ele>578</ele>
        <time>2016-04-29T09:59:00Z</time>
      </trkpt>
      <trkpt lat="44.34341" lon="3.5738">
        <ele>578</ele>
        <time>2016-04-29T09:59:04Z</time>
      </trkpt>
      <trkpt lat="44.34337" lon="3.57386">
        <ele>578</ele>
        <time>2016-04-29T09:59:09Z</time>
      </trkpt>
      <trkpt lat="44.34333" lon="3.57388">
        <ele>578</ele>
        <time>2016-04-29T09:59:13Z</time>
      </trkpt>
      <trkpt lat="44.34328" lon="3.5739">
        <ele>579</ele>
        <time>2016-04-29T09:59:18Z</time>
      </trkpt>
      <trkpt lat="44.34316" lon="3.57401">
        <ele>577</ele>
        <time>2016-04-29T09:59:28Z</time>
      </trkpt>
      <trkpt lat="44.34313" lon="3.57406">
        <ele>578</ele>
        <time>2016-04-29T09:59:32Z</time>
      </trkpt>
      <trkpt lat="44.34313" lon="3.57413">
        <ele>578</ele>
        <time>2016-04-29T09:59:36Z</time>
      </trkpt>
      <trkpt lat="44.34294" lon="3.57459">
        <ele>568</ele>
        <time>2016-04-29T10:00:04Z</time>
      </trkpt>
      <trkpt lat="44.34293" lon="3.57466">
        <ele>569</ele>
        <time>2016-04-29T10:00:08Z</time>
      </trkpt>
      <trkpt lat="44.34293" lon="3.57473">
        <ele>570</ele>
        <time>2016-04-29T10:00:12Z</time>
      </trkpt>
      <trkpt lat="44.34292" lon="3.57481">
        <ele>570</ele>
        <time>2016-04-29T10:00:16Z</time>
      </trkpt>
      <trkpt lat="44.34292" lon="3.57488">
        <ele>570</ele>
        <time>2016-04-29T10:00:20Z</time>
      </trkpt>
      <trkpt lat="44.34293" lon="3.57495">
        <ele>571</ele>
        <time>2016-04-29T10:00:24Z</time>
      </trkpt>
      <trkpt lat="44.34296" lon="3.575">
        <ele>571</ele>
        <time>2016-04-29T10:00:28Z</time>
      </trkpt>
      <trkpt lat="44.34296" lon="3.57514">
        <ele>572</ele>
        <time>2016-04-29T10:00:36Z</time>
      </trkpt>
      <trkpt lat="44.34297" lon="3.57521">
        <ele>573</ele>
        <time>2016-04-29T10:00:40Z</time>
      </trkpt>
      <trkpt lat="44.34297" lon="3.57528">
        <ele>572</ele>
        <time>2016-04-29T10:00:44Z</time>
      </trkpt>
      <trkpt lat="44.34297" lon="3.57536">
        <ele>572</ele>
        <time>2016-04-29T10:00:48Z</time>
      </trkpt>
      <trkpt lat="44.34296" lon="3.57543">
        <ele>573</ele>
        <time>2016-04-29T10:00:53Z</time>
      </trkpt>
      <trkpt lat="44.34296" lon="3.57551">
        <ele>573</ele>
        <time>2016-04-29T10:00:58Z</time>
      </trkpt>
      <trkpt lat="44.34296" lon="3.57558">
        <ele>574</ele>
        <time>2016-04-29T10:01:02Z</time>
      </trkpt>
      <trkpt lat="44.34292" lon="3.57588">
        <ele>568</ele>
        <time>2016-04-29T10:01:19Z</time>
      </trkpt>
      <trkpt lat="44.34291" lon="3.57594">
        <ele>568</ele>
        <time>2016-04-29T10:01:23Z</time>
      </trkpt>
      <trkpt lat="44.34285" lon="3.57605">
        <ele>567</ele>
        <time>2016-04-29T10:01:31Z</time>
      </trkpt>
      <trkpt lat="44.34281" lon="3.5761">
        <ele>567</ele>
        <time>2016-04-29T10:01:35Z</time>
      </trkpt>
      <trkpt lat="44.34273" lon="3.5762">
        <ele>568</ele>
        <time>2016-04-29T10:01:43Z</time>
      </trkpt>
      <trkpt lat="44.34265" lon="3.57646">
        <ele>563</ele>
        <time>2016-04-29T10:02:00Z</time>
      </trkpt>
      <trkpt lat="44.34265" lon="3.57653">
        <ele>562</ele>
        <time>2016-04-29T10:02:04Z</time>
      </trkpt>
      <trkpt lat="44.34256" lon="3.57671">
        <ele>559</ele>
        <time>2016-04-29T10:02:16Z</time>
      </trkpt>
      <trkpt lat="44.34253" lon="3.57676">
        <ele>559</ele>
        <time>2016-04-29T10:02:20Z</time>
      </trkpt>
      <trkpt lat="44.34247" lon="3.57702">
        <ele>556</ele>
        <time>2016-04-29T10:02:37Z</time>
      </trkpt>
      <trkpt lat="44.34248" lon="3.57709">
        <ele>555</ele>
        <time>2016-04-29T10:02:41Z</time>
      </trkpt>
      <trkpt lat="44.34245" lon="3.57722">
        <ele>555</ele>
        <time>2016-04-29T10:02:49Z</time>
      </trkpt>
      <trkpt lat="44.34244" lon="3.57728">
        <ele>554</ele>
        <time>2016-04-29T10:02:55Z</time>
      </trkpt>
      <trkpt lat="44.34244" lon="3.57735">
        <ele>553</ele>
        <time>2016-04-29T10:03:03Z</time>
      </trkpt>
      <trkpt lat="44.34242" lon="3.5774">
        <ele>553</ele>
        <time>2016-04-29T10:03:08Z</time>
      </trkpt>
      <trkpt lat="44.34234" lon="3.57749">
        <ele>553</ele>
        <time>2016-04-29T10:03:16Z</time>
      </trkpt>
      <trkpt lat="44.34234" lon="3.57756">
        <ele>554</ele>
        <time>2016-04-29T10:03:20Z</time>
      </trkpt>
      <trkpt lat="44.34234" lon="3.57764">
        <ele>555</ele>
        <time>2016-04-29T10:03:24Z</time>
      </trkpt>
      <trkpt lat="44.34234" lon="3.57772">
        <ele>554</ele>
        <time>2016-04-29T10:03:28Z</time>
      </trkpt>
      <trkpt lat="44.34237" lon="3.57778">
        <ele>554</ele>
        <time>2016-04-29T10:03:33Z</time>
      </trkpt>
      <trkpt lat="44.3424" lon="3.57783">
        <ele>554</ele>
        <time>2016-04-29T10:03:37Z</time>
      </trkpt>
      <trkpt lat="44.34243" lon="3.57788">
        <ele>554</ele>
        <time>2016-04-29T10:03:41Z</time>
      </trkpt>
      <trkpt lat="44.34243" lon="3.57795">
        <ele>553</ele>
        <time>2016-04-29T10:03:46Z</time>
      </trkpt>
      <trkpt lat="44.3424" lon="3.57801">
        <ele>553</ele>
        <time>2016-04-29T10:03:50Z</time>
      </trkpt>
      <trkpt lat="44.34231" lon="3.57818">
        <ele>556</ele>
        <time>2016-04-29T10:04:02Z</time>
      </trkpt>
      <trkpt lat="44.34229" lon="3.57824">
        <ele>556</ele>
        <time>2016-04-29T10:04:06Z</time>
      </trkpt>
      <trkpt lat="44.34209" lon="3.57861">
        <ele>559</ele>
        <time>2016-04-29T10:04:35Z</time>
      </trkpt>
      <trkpt lat="44.34205" lon="3.57865">
        <ele>558</ele>
        <time>2016-04-29T10:04:39Z</time>
      </trkpt>
      <trkpt lat="44.34202" lon="3.5787">
        <ele>557</ele>
        <time>2016-04-29T10:04:43Z</time>
      </trkpt>
      <trkpt lat="44.34181" lon="3.57887">
        <ele>556</ele>
        <time>2016-04-29T10:05:03Z</time>
      </trkpt>
      <trkpt lat="44.34172" lon="3.57896">
        <ele>554</ele>
        <time>2016-04-29T10:05:11Z</time>
      </trkpt>
      <trkpt lat="44.3417" lon="3.57902">
        <ele>554</ele>
        <time>2016-04-29T10:05:15Z</time>
      </trkpt>
      <trkpt lat="44.34163" lon="3.57913">
        <ele>555</ele>
        <time>2016-04-29T10:05:24Z</time>
      </trkpt>
      <trkpt lat="44.34161" lon="3.5792">
        <ele>556</ele>
        <time>2016-04-29T10:05:29Z</time>
      </trkpt>
      <trkpt lat="44.34157" lon="3.57925">
        <ele>556</ele>
        <time>2016-04-29T10:05:33Z</time>
      </trkpt>
      <trkpt lat="44.34145" lon="3.5794">
        <ele>554</ele>
        <time>2016-04-29T10:05:45Z</time>
      </trkpt>
      <trkpt lat="44.34135" lon="3.57955">
        <ele>555</ele>
        <time>2016-04-29T10:05:57Z</time>
      </trkpt>
      <trkpt lat="44.3412" lon="3.57963">
        <ele>554</ele>
        <time>2016-04-29T10:06:09Z</time>
      </trkpt>
      <trkpt lat="44.34115" lon="3.57964">
        <ele>554</ele>
        <time>2016-04-29T10:06:13Z</time>
      </trkpt>
      <trkpt lat="44.34106" lon="3.57966">
        <ele>553</ele>
        <time>2016-04-29T10:06:21Z</time>
      </trkpt>
      <trkpt lat="44.34101" lon="3.57968">
        <ele>553</ele>
        <time>2016-04-29T10:06:25Z</time>
      </trkpt>
      <trkpt lat="44.34097" lon="3.5797">
        <ele>554</ele>
        <time>2016-04-29T10:06:30Z</time>
      </trkpt>
      <trkpt lat="44.34088" lon="3.57978">
        <ele>554</ele>
        <time>2016-04-29T10:06:40Z</time>
      </trkpt>
      <trkpt lat="44.34077" lon="3.5799">
        <ele>554</ele>
        <time>2016-04-29T10:06:53Z</time>
      </trkpt>
      <trkpt lat="44.34073" lon="3.57995">
        <ele>554</ele>
        <time>2016-04-29T10:06:58Z</time>
      </trkpt>
      <trkpt lat="44.34068" lon="3.57999">
        <ele>554</ele>
        <time>2016-04-29T10:07:03Z</time>
      </trkpt>
      <trkpt lat="44.34041" lon="3.58038">
        <ele>550</ele>
        <time>2016-04-29T10:07:37Z</time>
      </trkpt>
      <trkpt lat="44.34029" lon="3.58059">
        <ele>545</ele>
        <time>2016-04-29T10:07:53Z</time>
      </trkpt>
      <trkpt lat="44.34025" lon="3.58065">
        <ele>545</ele>
        <time>2016-04-29T10:07:58Z</time>
      </trkpt>
      <trkpt lat="44.34007" lon="3.58089">
        <ele>542</ele>
        <time>2016-04-29T10:08:19Z</time>
      </trkpt>
      <trkpt lat="44.34003" lon="3.58093">
        <ele>543</ele>
        <time>2016-04-29T10:08:23Z</time>
      </trkpt>
      <trkpt lat="44.34001" lon="3.581">
        <ele>544</ele>
        <time>2016-04-29T10:08:28Z</time>
      </trkpt>
      <trkpt lat="44.33997" lon="3.58103">
        <ele>543</ele>
        <time>2016-04-29T10:08:32Z</time>
      </trkpt>
      <trkpt lat="44.33987" lon="3.58114">
        <ele>540</ele>
        <time>2016-04-29T10:08:48Z</time>
      </trkpt>
      <trkpt lat="44.33974" lon="3.58138">
        <ele>539</ele>
        <time>2016-04-29T10:09:07Z</time>
      </trkpt>
      <trkpt lat="44.33969" lon="3.58155">
        <ele>540</ele>
        <time>2016-04-29T10:09:28Z</time>
      </trkpt>
      <trkpt lat="44.33964" lon="3.58159">
        <ele>539</ele>
        <time>2016-04-29T10:09:32Z</time>
      </trkpt>
      <trkpt lat="44.33961" lon="3.58164">
        <ele>538</ele>
        <time>2016-04-29T10:09:36Z</time>
      </trkpt>
      <trkpt lat="44.33959" lon="3.58171">
        <ele>539</ele>
        <time>2016-04-29T10:09:40Z</time>
      </trkpt>
      <trkpt lat="44.3395" lon="3.58183">
        <ele>539</ele>
        <time>2016-04-29T10:09:55Z</time>
      </trkpt>
      <trkpt lat="44.33938" lon="3.58196">
        <ele>538</ele>
        <time>2016-04-29T10:10:08Z</time>
      </trkpt>
      <trkpt lat="44.33934" lon="3.58201">
        <ele>538</ele>
        <time>2016-04-29T10:10:12Z</time>
      </trkpt>
      <trkpt lat="44.3393" lon="3.58206">
        <ele>539</ele>
        <time>2016-04-29T10:10:16Z</time>
      </trkpt>
      <trkpt lat="44.33903" lon="3.58231">
        <ele>540</ele>
        <time>2016-04-29T10:10:40Z</time>
      </trkpt>
      <trkpt lat="44.33899" lon="3.58235">
        <ele>540</ele>
        <time>2016-04-29T10:10:44Z</time>
      </trkpt>
      <trkpt lat="44.33894" lon="3.58239">
        <ele>540</ele>
        <time>2016-04-29T10:10:48Z</time>
      </trkpt>
      <trkpt lat="44.33887" lon="3.58248">
        <ele>537</ele>
        <time>2016-04-29T10:10:56Z</time>
      </trkpt>
      <trkpt lat="44.33875" lon="3.58272">
        <ele>538</ele>
        <time>2016-04-29T10:11:12Z</time>
      </trkpt>
      <trkpt lat="44.33871" lon="3.58275">
        <ele>539</ele>
        <time>2016-04-29T10:11:16Z</time>
      </trkpt>
      <trkpt lat="44.33865" lon="3.58278">
        <ele>539</ele>
        <time>2016-04-29T10:11:20Z</time>
      </trkpt>
      <trkpt lat="44.33861" lon="3.5828">
        <ele>539</ele>
        <time>2016-04-29T10:11:23Z</time>
      </trkpt>
      <trkpt lat="44.33853" lon="3.58289">
        <ele>538</ele>
        <time>2016-04-29T10:11:31Z</time>
      </trkpt>
      <trkpt lat="44.33849" lon="3.58293">
        <ele>538</ele>
        <time>2016-04-29T10:11:35Z</time>
      </trkpt>
      <trkpt lat="44.33821" lon="3.58309">
        <ele>542</ele>
        <time>2016-04-29T10:11:59Z</time>
      </trkpt>
      <trkpt lat="44.33817" lon="3.58312">
        <ele>542</ele>
        <time>2016-04-29T10:12:02Z</time>
      </trkpt>
      <trkpt lat="44.33812" lon="3.58315">
        <ele>542</ele>
        <time>2016-04-29T10:12:05Z</time>
      </trkpt>
      <trkpt lat="44.33807" lon="3.58317">
        <ele>543</ele>
        <time>2016-04-29T10:12:08Z</time>
      </trkpt>
      <trkpt lat="44.33796" lon="3.5832">
        <ele>543</ele>
        <time>2016-04-29T10:12:16Z</time>
      </trkpt>
      <trkpt lat="44.33792" lon="3.58322">
        <ele>542</ele>
        <time>2016-04-29T10:12:20Z</time>
      </trkpt>
      <trkpt lat="44.33788" lon="3.58326">
        <ele>542</ele>
        <time>2016-04-29T10:12:24Z</time>
      </trkpt>
      <trkpt lat="44.33778" lon="3.58329">
        <ele>542</ele>
        <time>2016-04-29T10:12:30Z</time>
      </trkpt>
      <trkpt lat="44.33774" lon="3.58331">
        <ele>543</ele>
        <time>2016-04-29T10:12:33Z</time>
      </trkpt>
      <trkpt lat="44.33769" lon="3.58332">
        <ele>543</ele>
        <time>2016-04-29T10:12:37Z</time>
      </trkpt>
      <trkpt lat="44.33764" lon="3.58336">
        <ele>543</ele>
        <time>2016-04-29T10:12:42Z</time>
      </trkpt>
      <trkpt lat="44.3376" lon="3.5834">
        <ele>543</ele>
        <time>2016-04-29T10:12:47Z</time>
      </trkpt>
      <trkpt lat="44.33757" lon="3.58345">
        <ele>545</ele>
        <time>2016-04-29T10:12:53Z</time>
      </trkpt>
      <trkpt lat="44.33753" lon="3.58349">
        <ele>546</ele>
        <time>2016-04-29T10:12:57Z</time>
      </trkpt>
      <trkpt lat="44.33743" lon="3.58355">
        <ele>546</ele>
        <time>2016-04-29T10:13:05Z</time>
      </trkpt>
      <trkpt lat="44.33734" lon="3.58357">
        <ele>543</ele>
        <time>2016-04-29T10:13:12Z</time>
      </trkpt>
      <trkpt lat="44.3373" lon="3.5836">
        <ele>542</ele>
        <time>2016-04-29T10:13:16Z</time>
      </trkpt>
      <trkpt lat="44.3372" lon="3.58362">
        <ele>540</ele>
        <time>2016-04-29T10:13:23Z</time>
      </trkpt>
      <trkpt lat="44.33716" lon="3.58365">
        <ele>541</ele>
        <time>2016-04-29T10:13:28Z</time>
      </trkpt>
      <trkpt lat="44.33697" lon="3.58383">
        <ele>547</ele>
        <time>2016-04-29T10:13:44Z</time>
      </trkpt>
      <trkpt lat="44.33694" lon="3.58387">
        <ele>546</ele>
        <time>2016-04-29T10:13:54Z</time>
      </trkpt>
      <trkpt lat="44.33685" lon="3.58388">
        <ele>543</ele>
        <time>2016-04-29T10:14:03Z</time>
      </trkpt>
      <trkpt lat="44.33685" lon="3.58392">
        <ele>543</ele>
        <time>2016-04-29T10:14:13Z</time>
      </trkpt>
      <trkpt lat="44.33676" lon="3.58397">
        <ele>543</ele>
        <time>2016-04-29T10:14:20Z</time>
      </trkpt>
      <trkpt lat="44.33661" lon="3.58404">
        <ele>545</ele>
        <time>2016-04-29T10:14:34Z</time>
      </trkpt>
      <trkpt lat="44.33656" lon="3.58404">
        <ele>545</ele>
        <time>2016-04-29T10:14:38Z</time>
      </trkpt>
      <trkpt lat="44.33646" lon="3.58407">
        <ele>546</ele>
        <time>2016-04-29T10:14:45Z</time>
      </trkpt>
      <trkpt lat="44.33637" lon="3.58414">
        <ele>545</ele>
        <time>2016-04-29T10:14:54Z</time>
      </trkpt>
      <trkpt lat="44.33631" lon="3.58416">
        <ele>546</ele>
        <time>2016-04-29T10:14:58Z</time>
      </trkpt>
      <trkpt lat="44.3362" lon="3.5843">
        <ele>549</ele>
        <time>2016-04-29T10:15:10Z</time>
      </trkpt>
      <trkpt lat="44.33615" lon="3.58432">
        <ele>548</ele>
        <time>2016-04-29T10:15:13Z</time>
      </trkpt>
      <trkpt lat="44.33609" lon="3.58429">
        <ele>546</ele>
        <time>2016-04-29T10:15:17Z</time>
      </trkpt>
      <trkpt lat="44.33606" lon="3.58424">
        <ele>543</ele>
        <time>2016-04-29T10:15:22Z</time>
      </trkpt>
      <trkpt lat="44.33601" lon="3.58425">
        <ele>541</ele>
        <time>2016-04-29T10:15:26Z</time>
      </trkpt>
      <trkpt lat="44.33596" lon="3.58425">
        <ele>541</ele>
        <time>2016-04-29T10:15:30Z</time>
      </trkpt>
      <trkpt lat="44.33587" lon="3.58431">
        <ele>541</ele>
        <time>2016-04-29T10:15:37Z</time>
      </trkpt>
      <trkpt lat="44.33575" lon="3.5843">
        <ele>539</ele>
        <time>2016-04-29T10:15:45Z</time>
      </trkpt>
      <trkpt lat="44.3357" lon="3.5843">
        <ele>539</ele>
        <time>2016-04-29T10:15:49Z</time>
      </trkpt>
      <trkpt lat="44.33562" lon="3.58437">
        <ele>541</ele>
        <time>2016-04-29T10:15:55Z</time>
      </trkpt>
      <trkpt lat="44.33551" lon="3.58437">
        <ele>542</ele>
        <time>2016-04-29T10:16:04Z</time>
      </trkpt>
      <trkpt lat="44.33545" lon="3.58436">
        <ele>542</ele>
        <time>2016-04-29T10:16:08Z</time>
      </trkpt>
      <trkpt lat="44.3354" lon="3.58437">
        <ele>543</ele>
        <time>2016-04-29T10:16:12Z</time>
      </trkpt>
      <trkpt lat="44.33535" lon="3.58435">
        <ele>544</ele>
        <time>2016-04-29T10:16:16Z</time>
      </trkpt>
      <trkpt lat="44.3353" lon="3.58432">
        <ele>544</ele>
        <time>2016-04-29T10:16:20Z</time>
      </trkpt>
      <trkpt lat="44.33527" lon="3.58429">
        <ele>543</ele>
        <time>2016-04-29T10:16:40Z</time>
      </trkpt>
      <trkpt lat="44.33525" lon="3.58423">
        <ele>541</ele>
        <time>2016-04-29T10:17:07Z</time>
      </trkpt>
      <trkpt lat="44.3352" lon="3.58421">
        <ele>541</ele>
        <time>2016-04-29T10:17:12Z</time>
      </trkpt>
      <trkpt lat="44.33509" lon="3.58419">
        <ele>541</ele>
        <time>2016-04-29T10:17:20Z</time>
      </trkpt>
      <trkpt lat="44.33494" lon="3.58427">
        <ele>543</ele>
        <time>2016-04-29T10:17:32Z</time>
      </trkpt>
      <trkpt lat="44.33492" lon="3.58432">
        <ele>545</ele>
        <time>2016-04-29T10:17:38Z</time>
      </trkpt>
      <trkpt lat="44.33489" lon="3.5843">
        <ele>545</ele>
        <time>2016-04-29T10:17:51Z</time>
      </trkpt>
      <trkpt lat="44.3349" lon="3.58422">
        <ele>544</ele>
        <time>2016-04-29T10:17:55Z</time>
      </trkpt>
      <trkpt lat="44.33486" lon="3.58419">
        <ele>542</ele>
        <time>2016-04-29T10:18:01Z</time>
      </trkpt>
      <trkpt lat="44.33482" lon="3.58416">
        <ele>542</ele>
        <time>2016-04-29T10:18:06Z</time>
      </trkpt>
      <trkpt lat="44.33477" lon="3.58415">
        <ele>542</ele>
        <time>2016-04-29T10:18:10Z</time>
      </trkpt>
      <trkpt lat="44.33462" lon="3.58412">
        <ele>539</ele>
        <time>2016-04-29T10:18:24Z</time>
      </trkpt>
      <trkpt lat="44.33446" lon="3.58415">
        <ele>540</ele>
        <time>2016-04-29T10:18:35Z</time>
      </trkpt>
      <trkpt lat="44.33441" lon="3.58411">
        <ele>540</ele>
        <time>2016-04-29T10:18:38Z</time>
      </trkpt>
      <trkpt lat="44.33431" lon="3.58411">
        <ele>540</ele>
        <time>2016-04-29T10:18:44Z</time>
      </trkpt>
      <trkpt lat="44.33421" lon="3.58409">
        <ele>538</ele>
        <time>2016-04-29T10:18:53Z</time>
      </trkpt>
      <trkpt lat="44.33416" lon="3.58412">
        <ele>536</ele>
        <time>2016-04-29T10:18:59Z</time>
      </trkpt>
      <trkpt lat="44.33413" lon="3.58415">
        <ele>535</ele>
        <time>2016-04-29T10:19:04Z</time>
      </trkpt>
      <trkpt lat="44.33407" lon="3.58416">
        <ele>536</ele>
        <time>2016-04-29T10:19:09Z</time>
      </trkpt>
      <trkpt lat="44.33404" lon="3.5842">
        <ele>536</ele>
        <time>2016-04-29T10:19:13Z</time>
      </trkpt>
      <trkpt lat="44.33405" lon="3.58427">
        <ele>534</ele>
        <time>2016-04-29T10:19:20Z</time>
      </trkpt>
      <trkpt lat="44.33401" lon="3.58431">
        <ele>534</ele>
        <time>2016-04-29T10:19:25Z</time>
      </trkpt>
      <trkpt lat="44.33395" lon="3.58433">
        <ele>534</ele>
        <time>2016-04-29T10:19:29Z</time>
      </trkpt>
      <trkpt lat="44.33391" lon="3.58437">
        <ele>534</ele>
        <time>2016-04-29T10:19:32Z</time>
      </trkpt>
      <trkpt lat="44.33381" lon="3.58451">
        <ele>534</ele>
        <time>2016-04-29T10:19:42Z</time>
      </trkpt>
      <trkpt lat="44.33376" lon="3.58463">
        <ele>533</ele>
        <time>2016-04-29T10:19:50Z</time>
      </trkpt>
      <trkpt lat="44.33374" lon="3.5847">
        <ele>533</ele>
        <time>2016-04-29T10:19:55Z</time>
      </trkpt>
      <trkpt lat="44.33371" lon="3.58475">
        <ele>534</ele>
        <time>2016-04-29T10:19:59Z</time>
      </trkpt>
      <trkpt lat="44.33368" lon="3.58479">
        <ele>534</ele>
        <time>2016-04-29T10:20:02Z</time>
      </trkpt>
      <trkpt lat="44.33365" lon="3.58486">
        <ele>536</ele>
        <time>2016-04-29T10:20:07Z</time>
      </trkpt>
      <trkpt lat="44.33362" lon="3.58492">
        <ele>536</ele>
        <time>2016-04-29T10:20:11Z</time>
      </trkpt>
      <trkpt lat="44.33358" lon="3.58497">
        <ele>536</ele>
        <time>2016-04-29T10:20:15Z</time>
      </trkpt>
      <trkpt lat="44.33354" lon="3.58502">
        <ele>536</ele>
        <time>2016-04-29T10:20:18Z</time>
      </trkpt>
      <trkpt lat="44.33352" lon="3.58508">
        <ele>535</ele>
        <time>2016-04-29T10:20:22Z</time>
      </trkpt>
      <trkpt lat="44.33348" lon="3.58521">
        <ele>533</ele>
        <time>2016-04-29T10:20:29Z</time>
      </trkpt>
      <trkpt lat="44.33346" lon="3.58527">
        <ele>534</ele>
        <time>2016-04-29T10:20:34Z</time>
      </trkpt>
      <trkpt lat="44.33343" lon="3.58531">
        <ele>535</ele>
        <time>2016-04-29T10:20:51Z</time>
      </trkpt>
      <trkpt lat="44.33339" lon="3.58538">
        <ele>535</ele>
        <time>2016-04-29T10:20:56Z</time>
      </trkpt>
      <trkpt lat="44.33336" lon="3.58543">
        <ele>535</ele>
        <time>2016-04-29T10:21:00Z</time>
      </trkpt>
      <trkpt lat="44.33333" lon="3.5855">
        <ele>535</ele>
        <time>2016-04-29T10:21:05Z</time>
      </trkpt>
      <trkpt lat="44.3333" lon="3.58556">
        <ele>535</ele>
        <time>2016-04-29T10:21:09Z</time>
      </trkpt>
      <trkpt lat="44.33328" lon="3.58563">
        <ele>535</ele>
        <time>2016-04-29T10:21:14Z</time>
      </trkpt>
      <trkpt lat="44.33327" lon="3.58569">
        <ele>535</ele>
        <time>2016-04-29T10:21:18Z</time>
      </trkpt>
      <trkpt lat="44.33323" lon="3.58581">
        <ele>536</ele>
        <time>2016-04-29T10:21:27Z</time>
      </trkpt>
      <trkpt lat="44.3331" lon="3.58607">
        <ele>537</ele>
        <time>2016-04-29T10:21:44Z</time>
      </trkpt>
      <trkpt lat="44.33305" lon="3.58611">
        <ele>539</ele>
        <time>2016-04-29T10:21:48Z</time>
      </trkpt>
      <trkpt lat="44.33303" lon="3.58618">
        <ele>539</ele>
        <time>2016-04-29T10:21:53Z</time>
      </trkpt>
      <trkpt lat="44.33304" lon="3.58625">
        <ele>539</ele>
        <time>2016-04-29T10:21:56Z</time>
      </trkpt>
      <trkpt lat="44.33302" lon="3.58631">
        <ele>539</ele>
        <time>2016-04-29T10:21:59Z</time>
      </trkpt>
      <trkpt lat="44.333" lon="3.58636">
        <ele>539</ele>
        <time>2016-04-29T10:22:02Z</time>
      </trkpt>
      <trkpt lat="44.33297" lon="3.58642">
        <ele>538</ele>
        <time>2016-04-29T10:22:05Z</time>
      </trkpt>
      <trkpt lat="44.3329" lon="3.58661">
        <ele>539</ele>
        <time>2016-04-29T10:22:18Z</time>
      </trkpt>
      <trkpt lat="44.33285" lon="3.58666">
        <ele>539</ele>
        <time>2016-04-29T10:22:21Z</time>
      </trkpt>
      <trkpt lat="44.3328" lon="3.5868">
        <ele>538</ele>
        <time>2016-04-29T10:22:29Z</time>
      </trkpt>
      <trkpt lat="44.33276" lon="3.58685">
        <ele>538</ele>
        <time>2016-04-29T10:22:33Z</time>
      </trkpt>
      <trkpt lat="44.33257" lon="3.58722">
        <ele>535</ele>
        <time>2016-04-29T10:23:03Z</time>
      </trkpt>
      <trkpt lat="44.33242" lon="3.58743">
        <ele>534</ele>
        <time>2016-04-29T10:23:19Z</time>
      </trkpt>
      <trkpt lat="44.33218" lon="3.58757">
        <ele>536</ele>
        <time>2016-04-29T10:23:42Z</time>
      </trkpt>
      <trkpt lat="44.33198" lon="3.58781">
        <ele>537</ele>
        <time>2016-04-29T10:24:01Z</time>
      </trkpt>
      <trkpt lat="44.3319" lon="3.58789">
        <ele>536</ele>
        <time>2016-04-29T10:24:10Z</time>
      </trkpt>
      <trkpt lat="44.33186" lon="3.58793">
        <ele>536</ele>
        <time>2016-04-29T10:24:15Z</time>
      </trkpt>
      <trkpt lat="44.33181" lon="3.58796">
        <ele>535</ele>
        <time>2016-04-29T10:24:19Z</time>
      </trkpt>
      <trkpt lat="44.33165" lon="3.58811">
        <ele>535</ele>
        <time>2016-04-29T10:24:34Z</time>
      </trkpt>
      <trkpt lat="44.33127" lon="3.58845">
        <ele>540</ele>
        <time>2016-04-29T10:25:06Z</time>
      </trkpt>
      <trkpt lat="44.33124" lon="3.5885">
        <ele>540</ele>
        <time>2016-04-29T10:25:10Z</time>
      </trkpt>
      <trkpt lat="44.33116" lon="3.58859">
        <ele>540</ele>
        <time>2016-04-29T10:25:18Z</time>
      </trkpt>
      <trkpt lat="44.33108" lon="3.58868">
        <ele>539</ele>
        <time>2016-04-29T10:25:26Z</time>
      </trkpt>
      <trkpt lat="44.33096" lon="3.58879">
        <ele>536</ele>
        <time>2016-04-29T10:25:38Z</time>
      </trkpt>
      <trkpt lat="44.33092" lon="3.58884">
        <ele>536</ele>
        <time>2016-04-29T10:25:42Z</time>
      </trkpt>
      <trkpt lat="44.33081" lon="3.58898">
        <ele>538</ele>
        <time>2016-04-29T10:25:54Z</time>
      </trkpt>
      <trkpt lat="44.3308" lon="3.58901">
        <ele>538</ele>
        <time>2016-04-29T10:26:00Z</time>
      </trkpt>
      <trkpt lat="44.33075" lon="3.58904">
        <ele>538</ele>
        <time>2016-04-29T10:26:08Z</time>
      </trkpt>
      <trkpt lat="44.33072" lon="3.58909">
        <ele>539</ele>
        <time>2016-04-29T10:26:12Z</time>
      </trkpt>
      <trkpt lat="44.33068" lon="3.58913">
        <ele>538</ele>
        <time>2016-04-29T10:26:16Z</time>
      </trkpt>
      <trkpt lat="44.33065" lon="3.58919">
        <ele>539</ele>
        <time>2016-04-29T10:26:20Z</time>
      </trkpt>
      <trkpt lat="44.33061" lon="3.58924">
        <ele>539</ele>
        <time>2016-04-29T10:26:24Z</time>
      </trkpt>
      <trkpt lat="44.33054" lon="3.58933">
        <ele>540</ele>
        <time>2016-04-29T10:26:32Z</time>
      </trkpt>
      <trkpt lat="44.3305" lon="3.58939">
        <ele>542</ele>
        <time>2016-04-29T10:26:37Z</time>
      </trkpt>
      <trkpt lat="44.33047" lon="3.58945">
        <ele>542</ele>
        <time>2016-04-29T10:26:42Z</time>
      </trkpt>
      <trkpt lat="44.33044" lon="3.58949">
        <ele>541</ele>
        <time>2016-04-29T10:26:47Z</time>
      </trkpt>
      <trkpt lat="44.33035" lon="3.58958">
        <ele>541</ele>
        <time>2016-04-29T10:26:57Z</time>
      </trkpt>
      <trkpt lat="44.33031" lon="3.58961">
        <ele>541</ele>
        <time>2016-04-29T10:27:02Z</time>
      </trkpt>
      <trkpt lat="44.33026" lon="3.58964">
        <ele>541</ele>
        <time>2016-04-29T10:27:06Z</time>
      </trkpt>
      <trkpt lat="44.33022" lon="3.58967">
        <ele>541</ele>
        <time>2016-04-29T10:27:11Z</time>
      </trkpt>
      <trkpt lat="44.33018" lon="3.58971">
        <ele>542</ele>
        <time>2016-04-29T10:27:16Z</time>
      </trkpt>
      <trkpt lat="44.33014" lon="3.58976">
        <ele>541</ele>
        <time>2016-04-29T10:27:21Z</time>
      </trkpt>
      <trkpt lat="44.33005" lon="3.58985">
        <ele>540</ele>
        <time>2016-04-29T10:27:29Z</time>
      </trkpt>
      <trkpt lat="44.33" lon="3.58988">
        <ele>540</ele>
        <time>2016-04-29T10:27:33Z</time>
      </trkpt>
      <trkpt lat="44.32995" lon="3.58991">
        <ele>541</ele>
        <time>2016-04-29T10:27:37Z</time>
      </trkpt>
      <trkpt lat="44.32986" lon="3.58997">
        <ele>540</ele>
        <time>2016-04-29T10:27:43Z</time>
      </trkpt>
      <trkpt lat="44.32953" lon="3.59015">
        <ele>543</ele>
        <time>2016-04-29T10:28:11Z</time>
      </trkpt>
      <trkpt lat="44.32944" lon="3.59022">
        <ele>542</ele>
        <time>2016-04-29T10:28:19Z</time>
      </trkpt>
      <trkpt lat="44.3294" lon="3.59025">
        <ele>543</ele>
        <time>2016-04-29T10:28:24Z</time>
      </trkpt>
      <trkpt lat="44.32932" lon="3.59031">
        <ele>542</ele>
        <time>2016-04-29T10:28:32Z</time>
      </trkpt>
      <trkpt lat="44.32923" lon="3.59038">
        <ele>541</ele>
        <time>2016-04-29T10:28:40Z</time>
      </trkpt>
      <trkpt lat="44.32918" lon="3.59041">
        <ele>541</ele>
        <time>2016-04-29T10:28:44Z</time>
      </trkpt>
      <trkpt lat="44.3291" lon="3.59047">
        <ele>543</ele>
        <time>2016-04-29T10:28:52Z</time>
      </trkpt>
      <trkpt lat="44.32906" lon="3.59051">
        <ele>543</ele>
        <time>2016-04-29T10:28:56Z</time>
      </trkpt>
      <trkpt lat="44.32902" lon="3.59054">
        <ele>542</ele>
        <time>2016-04-29T10:29:00Z</time>
      </trkpt>
      <trkpt lat="44.32894" lon="3.59061">
        <ele>542</ele>
        <time>2016-04-29T10:29:08Z</time>
      </trkpt>
      <trkpt lat="44.32889" lon="3.59066">
        <ele>542</ele>
        <time>2016-04-29T10:29:12Z</time>
      </trkpt>
      <trkpt lat="44.32885" lon="3.5907">
        <ele>542</ele>
        <time>2016-04-29T10:29:16Z</time>
      </trkpt>
      <trkpt lat="44.32871" lon="3.5908">
        <ele>542</ele>
        <time>2016-04-29T10:29:28Z</time>
      </trkpt>
      <trkpt lat="44.32867" lon="3.59084">
        <ele>543</ele>
        <time>2016-04-29T10:29:33Z</time>
      </trkpt>
      <trkpt lat="44.32862" lon="3.59087">
        <ele>543</ele>
        <time>2016-04-29T10:29:37Z</time>
      </trkpt>
      <trkpt lat="44.32858" lon="3.5909">
        <ele>543</ele>
        <time>2016-04-29T10:29:42Z</time>
      </trkpt>
      <trkpt lat="44.32855" lon="3.59092">
        <ele>543</ele>
        <time>2016-04-29T10:30:05Z</time>
      </trkpt>
      <trkpt lat="44.32853" lon="3.59097">
        <ele>544</ele>
        <time>2016-04-29T10:30:10Z</time>
      </trkpt>
      <trkpt lat="44.32849" lon="3.59111">
        <ele>544</ele>
        <time>2016-04-29T10:30:19Z</time>
      </trkpt>
      <trkpt lat="44.32846" lon="3.59117">
        <ele>544</ele>
        <time>2016-04-29T10:30:24Z</time>
      </trkpt>
      <trkpt lat="44.32848" lon="3.59122">
        <ele>544</ele>
        <time>2016-04-29T10:30:45Z</time>
      </trkpt>
      <trkpt lat="44.32867" lon="3.59144">
        <ele>545</ele>
        <time>2016-04-29T10:31:10Z</time>
      </trkpt>
      <trkpt lat="44.32869" lon="3.5915">
        <ele>545</ele>
        <time>2016-04-29T10:31:14Z</time>
      </trkpt>
      <trkpt lat="44.32869" lon="3.59157">
        <ele>545</ele>
        <time>2016-04-29T10:31:20Z</time>
      </trkpt>
      <trkpt lat="44.32867" lon="3.5917">
        <ele>544</ele>
        <time>2016-04-29T10:31:55Z</time>
      </trkpt>
      <trkpt lat="44.32866" lon="3.59169">
        <ele>544</ele>
        <time>2016-04-29T10:32:50Z</time>
      </trkpt>
      <trkpt lat="44.32862" lon="3.59169">
        <ele>544</ele>
        <time>2016-04-29T10:33:09Z</time>
      </trkpt>
      <trkpt lat="44.32864" lon="3.59175">
        <ele>544</ele>
        <time>2016-04-29T10:33:16Z</time>
      </trkpt>
      <trkpt lat="44.32863" lon="3.59182">
        <ele>544</ele>
        <time>2016-04-29T10:33:20Z</time>
      </trkpt>
      <trkpt lat="44.3286" lon="3.59195">
        <ele>544</ele>
        <time>2016-04-29T10:33:28Z</time>
      </trkpt>
      <trkpt lat="44.32856" lon="3.59201">
        <ele>544</ele>
        <time>2016-04-29T10:33:33Z</time>
      </trkpt>
      <trkpt lat="44.32847" lon="3.59207">
        <ele>543</ele>
        <time>2016-04-29T10:33:41Z</time>
      </trkpt>
      <trkpt lat="44.32843" lon="3.59212">
        <ele>544</ele>
        <time>2016-04-29T10:33:45Z</time>
      </trkpt>
      <trkpt lat="44.32834" lon="3.59219">
        <ele>543</ele>
        <time>2016-04-29T10:33:54Z</time>
      </trkpt>
      <trkpt lat="44.32825" lon="3.59227">
        <ele>544</ele>
        <time>2016-04-29T10:34:02Z</time>
      </trkpt>
      <trkpt lat="44.32821" lon="3.59232">
        <ele>544</ele>
        <time>2016-04-29T10:34:06Z</time>
      </trkpt>
      <trkpt lat="44.32812" lon="3.59237">
        <ele>543</ele>
        <time>2016-04-29T10:34:14Z</time>
      </trkpt>
      <trkpt lat="44.328" lon="3.59249">
        <ele>543</ele>
        <time>2016-04-29T10:34:26Z</time>
      </trkpt>
      <trkpt lat="44.32791" lon="3.59254">
        <ele>544</ele>
        <time>2016-04-29T10:34:34Z</time>
      </trkpt>
      <trkpt lat="44.32782" lon="3.59261">
        <ele>544</ele>
        <time>2016-04-29T10:34:42Z</time>
      </trkpt>
      <trkpt lat="44.3277" lon="3.59271">
        <ele>546</ele>
        <time>2016-04-29T10:34:56Z</time>
      </trkpt>
      <trkpt lat="44.32753" lon="3.59286">
        <ele>546</ele>
        <time>2016-04-29T10:35:13Z</time>
      </trkpt>
      <trkpt lat="44.32743" lon="3.59292">
        <ele>545</ele>
        <time>2016-04-29T10:35:22Z</time>
      </trkpt>
      <trkpt lat="44.32739" lon="3.59295">
        <ele>545</ele>
        <time>2016-04-29T10:35:26Z</time>
      </trkpt>
      <trkpt lat="44.3273" lon="3.59301">
        <ele>545</ele>
        <time>2016-04-29T10:35:34Z</time>
      </trkpt>
      <trkpt lat="44.32717" lon="3.59311">
        <ele>544</ele>
        <time>2016-04-29T10:35:46Z</time>
      </trkpt>
      <trkpt lat="44.32712" lon="3.59313">
        <ele>544</ele>
        <time>2016-04-29T10:35:51Z</time>
      </trkpt>
      <trkpt lat="44.32707" lon="3.59315">
        <ele>545</ele>
        <time>2016-04-29T10:35:56Z</time>
      </trkpt>
      <trkpt lat="44.327" lon="3.59325">
        <ele>546</ele>
        <time>2016-04-29T10:36:06Z</time>
      </trkpt>
      <trkpt lat="44.32697" lon="3.59331">
        <ele>546</ele>
        <time>2016-04-29T10:36:10Z</time>
      </trkpt>
      <trkpt lat="44.32691" lon="3.5933">
        <ele>547</ele>
        <time>2016-04-29T10:36:21Z</time>
      </trkpt>
      <trkpt lat="44.32687" lon="3.59336">
        <ele>546</ele>
        <time>2016-04-29T10:36:25Z</time>
      </trkpt>
      <trkpt lat="44.32675" lon="3.59347">
        <ele>546</ele>
        <time>2016-04-29T10:36:36Z</time>
      </trkpt>
      <trkpt lat="44.3267" lon="3.59349">
        <ele>546</ele>
        <time>2016-04-29T10:36:40Z</time>
      </trkpt>
      <trkpt lat="44.32661" lon="3.59352">
        <ele>545</ele>
        <time>2016-04-29T10:36:46Z</time>
      </trkpt>
      <trkpt lat="44.32656" lon="3.59356">
        <ele>545</ele>
        <time>2016-04-29T10:36:51Z</time>
      </trkpt>
      <trkpt lat="44.32654" lon="3.59362">
        <ele>546</ele>
        <time>2016-04-29T10:36:57Z</time>
      </trkpt>
      <trkpt lat="44.3265" lon="3.59366">
        <ele>547</ele>
        <time>2016-04-29T10:37:01Z</time>
      </trkpt>
      <trkpt lat="44.32644" lon="3.59369">
        <ele>546</ele>
        <time>2016-04-29T10:37:04Z</time>
      </trkpt>
      <trkpt lat="44.32639" lon="3.59368">
        <ele>545</ele>
        <time>2016-04-29T10:37:07Z</time>
      </trkpt>
      <trkpt lat="44.32634" lon="3.5937">
        <ele>546</ele>
        <time>2016-04-29T10:37:11Z</time>
      </trkpt>
      <trkpt lat="44.3263" lon="3.59377">
        <ele>546</ele>
        <time>2016-04-29T10:37:24Z</time>
      </trkpt>
      <trkpt lat="44.32626" lon="3.59375">
        <ele>545</ele>
        <time>2016-04-29T10:37:29Z</time>
      </trkpt>
      <trkpt lat="44.32622" lon="3.5938">
        <ele>545</ele>
        <time>2016-04-29T10:37:35Z</time>
      </trkpt>
      <trkpt lat="44.32618" lon="3.59392">
        <ele>545</ele>
        <time>2016-04-29T10:37:44Z</time>
      </trkpt>
      <trkpt lat="44.32614" lon="3.59394">
        <ele>546</ele>
        <time>2016-04-29T10:37:49Z</time>
      </trkpt>
      <trkpt lat="44.32609" lon="3.59393">
        <ele>546</ele>
        <time>2016-04-29T10:37:53Z</time>
      </trkpt>
      <trkpt lat="44.32605" lon="3.59396">
        <ele>546</ele>
        <time>2016-04-29T10:37:57Z</time>
      </trkpt>
      <trkpt lat="44.32591" lon="3.5941">
        <ele>544</ele>
        <time>2016-04-29T10:38:10Z</time>
      </trkpt>
      <trkpt lat="44.32592" lon="3.59421">
        <ele>545</ele>
        <time>2016-04-29T10:38:17Z</time>
      </trkpt>
      <trkpt lat="44.32589" lon="3.59426">
        <ele>545</ele>
        <time>2016-04-29T10:38:22Z</time>
      </trkpt>
      <trkpt lat="44.32585" lon="3.5943">
        <ele>545</ele>
        <time>2016-04-29T10:38:26Z</time>
      </trkpt>
      <trkpt lat="44.3258" lon="3.59432">
        <ele>544</ele>
        <time>2016-04-29T10:38:30Z</time>
      </trkpt>
      <trkpt lat="44.32577" lon="3.59427">
        <ele>545</ele>
        <time>2016-04-29T10:38:44Z</time>
      </trkpt>
      <trkpt lat="44.32574" lon="3.59421">
        <ele>545</ele>
        <time>2016-04-29T10:38:48Z</time>
      </trkpt>
      <trkpt lat="44.32566" lon="3.59415">
        <ele>545</ele>
        <time>2016-04-29T10:39:28Z</time>
      </trkpt>
      <trkpt lat="44.32565" lon="3.59411">
        <ele>545</ele>
        <time>2016-04-29T10:39:35Z</time>
      </trkpt>
      <trkpt lat="44.3257" lon="3.59402">
        <ele>545</ele>
        <time>2016-04-29T10:40:03Z</time>
      </trkpt>
      <trkpt lat="44.32562" lon="3.59396">
        <ele>545</ele>
        <time>2016-04-29T10:40:10Z</time>
      </trkpt>
    </trkseg>
  </trk>
</gpx>